Provisional Data: Quittapahilla Creek near Syner, PA


Please select a monitoring station.
Please select start date.
Please select start date.

Toggle Unit: C/F Toggle Unit: C/F
Sample Time Temperature (C) Temperature (F) Specific Conductivity (mS/cm) pH   Turbidity (NTU+) DO (mg/L)
5/17/2022 12:00:00 AM 16.11 60.998 0.62 8.28 1071 7.39
5/17/2022 12:15:00 AM 16.08 60.944 0.607 8.33 1026 7.29
5/17/2022 12:30:00 AM 16.05 60.89 0.595 8.27 1053 7.28
5/17/2022 12:45:00 AM 16.01 60.818 0.583 8.3 991 7.25
5/17/2022 1:00:00 AM 15.96 60.728 0.574 8.28 1046 7.23
5/17/2022 1:15:00 AM 15.92 60.656 0.566 8.23 990.7 7.23
5/17/2022 1:30:00 AM 15.86 60.548 0.561 8.23 973.8 7.27
5/17/2022 1:45:00 AM 15.81 60.458 0.559 8.21 1000 7.27
5/17/2022 2:00:00 AM 15.75 60.35 0.558 8.26 1079 7.26
5/17/2022 2:15:00 AM 15.69 60.242 0.56 8.25 1072 7.34
5/17/2022 2:30:00 AM 15.62 60.116 0.565 8.27 967.5 7.27
5/17/2022 2:45:00 AM 15.56 60.008 0.571 8.19 1026 7.33
5/17/2022 3:00:00 AM 15.48 59.864 0.578 8.21 1146 7.39
5/17/2022 3:15:00 AM 15.39 59.702 0.588 8.22 1028 7.42
5/17/2022 3:30:00 AM 15.3 59.54 0.597 8.22 1047 7.51
5/17/2022 3:45:00 AM 15.26 59.468 0.608 8.23 1094 7.56
5/17/2022 4:00:00 AM 15.22 59.396 0.618 8.23 939.2 7.59
5/17/2022 4:15:00 AM 15.16 59.288 0.625 8.28 1032 7.62
5/17/2022 4:30:00 AM 15.09 59.162 0.631 8.27 1069 7.69
5/17/2022 4:45:00 AM 15.02 59.036 0.636 8.36 1209 7.73
5/17/2022 5:00:00 AM 14.95 58.91 0.641 8.27 995.6 7.77
5/17/2022 5:15:00 AM 14.88 58.784 0.645 8.33 1081 7.8
5/17/2022 5:30:00 AM 14.82 58.676 0.65 8.28 1156 7.85
5/17/2022 5:45:00 AM 14.76 58.568 0.654 8.26 1270 7.87
5/17/2022 6:00:00 AM 14.69 58.442 0.657 8.24 1265 7.91
5/17/2022 6:15:00 AM 14.63 58.334 0.661 8.25 1197 7.92
5/17/2022 6:30:00 AM 14.57 58.226 0.665 8.25 1279 7.94
5/17/2022 6:45:00 AM 14.52 58.136 0.668 8.26 1306 7.97
5/17/2022 7:00:00 AM 14.47 58.046 0.671 8.27 1419 8.01
5/17/2022 7:15:00 AM 14.42 57.956 0.672 8.28 1428 8.02
5/17/2022 7:30:00 AM 14.38 57.884 0.674 8.27 1628 8.05
5/17/2022 7:45:00 AM 14.35 57.83 0.676 8.27 1639 8.14
5/17/2022 8:00:00 AM 14.32 57.776 0.677 8.29 1461 8.32
5/17/2022 8:15:00 AM 14.33 57.794 0.679 8.27 1560 8.51
5/17/2022 8:30:00 AM 14.38 57.884 0.682 8.27 1086 8.67
5/17/2022 8:45:00 AM 14.43 57.974 0.684 8.29 1118 8.81
5/17/2022 9:00:00 AM 14.48 58.064 0.685 8.31 1087 8.96
5/17/2022 9:15:00 AM 14.52 58.136 0.686 8.37 1191 9.12
5/17/2022 9:30:00 AM 14.58 58.244 0.685 8.34 1139 9.28
5/17/2022 9:45:00 AM 14.65 58.37 0.686 8.34 1140 9.47
5/17/2022 10:00:00 AM 14.73 58.514 0.686 8.34 1199 9.6
5/17/2022 10:15:00 AM 14.81 58.658 0.686 8.35 1191 9.72
5/17/2022 10:30:00 AM 14.91 58.838 0.687 8.33 1193 9.93
5/17/2022 10:45:00 AM 15 59 0.688 8.43 1236 10.1
5/17/2022 11:00:00 AM 15.11 59.198 0.689 8.46 1168 10.25
5/17/2022 11:15:00 AM 15.18 59.324 0.606 7.68 4.44 10.79
5/17/2022 11:30:00 AM 15.29 59.522 0.607 7.81 4.34 10.92
5/17/2022 11:45:00 AM 15.42 59.756 0.607 7.83 3.74 11.01
5/17/2022 12:00:00 PM 15.56 60.008 0.608 7.83 4.77 11.13
5/17/2022 12:15:00 PM 15.67 60.206 0.609 7.86 3.63 11.25
5/17/2022 12:30:00 PM 15.81 60.458 0.609 7.89 5.3 11.37
5/17/2022 12:45:00 PM 15.92 60.656 0.61 7.91 3.94 11.47
5/17/2022 1:00:00 PM 16.03 60.854 0.611 7.93 4.68 11.53
5/17/2022 1:15:00 PM 16.08 60.944 0.611 7.94 3.8 11.58
5/17/2022 1:30:00 PM 16.17 61.106 0.612 7.96 3.64 11.62
5/17/2022 1:45:00 PM 16.22 61.196 0.614 7.97 4.11 11.64
5/17/2022 2:00:00 PM 16.32 61.376 0.613 7.98 5.35 11.68
5/17/2022 2:15:00 PM 16.48 61.664 0.614 8 3.4 11.78
5/17/2022 2:30:00 PM 16.54 61.772 0.612 8.02 3.08 11.8
5/17/2022 2:45:00 PM 16.61 61.898 0.612 8.02 3.63 11.82
5/17/2022 3:00:00 PM 16.74 62.132 0.612 8.03 4.41 11.83
5/17/2022 3:15:00 PM 16.81 62.258 0.61 8.04 3.44 11.83
5/17/2022 3:30:00 PM 16.9 62.42 0.609 8.04 4.59 11.86
5/17/2022 3:45:00 PM 16.93 62.474 0.611 8.05 3.24 11.81
5/17/2022 4:00:00 PM 16.97 62.546 0.612 8.05 4.23 11.77
5/17/2022 4:15:00 PM 16.97 62.546 0.612 8.05 3.48 11.7
5/17/2022 4:30:00 PM 16.93 62.474 0.613 8.05 3.18 11.57
5/17/2022 4:45:00 PM 16.87 62.366 0.613 8.04 3.37 11.41
5/17/2022 5:00:00 PM 16.9 62.42 0.614 8.03 3.7 11.33
5/17/2022 5:15:00 PM 16.89 62.402 0.614 8.03 3.96 11.31
5/17/2022 5:30:00 PM 16.91 62.438 0.615 8.03 3.86 11.26
5/17/2022 5:45:00 PM 16.89 62.402 0.615 8.03 3.31 11.17
5/17/2022 6:00:00 PM 16.87 62.366 0.615 8.02 3.2 11.03
5/17/2022 6:15:00 PM 16.83 62.294 0.616 8.01 3.52 10.89
5/17/2022 6:30:00 PM 16.77 62.186 0.616 8 4.38 10.72
5/17/2022 6:45:00 PM 16.71 62.078 0.617 7.98 3.49 10.55
5/17/2022 7:00:00 PM 16.64 61.952 0.617 7.97 3.99 10.36
5/17/2022 7:15:00 PM 16.58 61.844 0.618 7.96 3.62 10.2
5/17/2022 7:30:00 PM 16.52 61.736 0.618 7.94 4.19 10.03
5/17/2022 7:45:00 PM 16.47 61.646 0.619 7.93 4.58 9.88
5/17/2022 8:00:00 PM 16.41 61.538 0.619 7.92 4.57 9.75
5/17/2022 8:15:00 PM 16.35 61.43 0.62 7.9 4.72 9.61
5/17/2022 8:30:00 PM 16.29 61.322 0.62 7.89 5.05 9.49
5/17/2022 8:45:00 PM 16.24 61.232 0.621 7.88 5.31 9.36
5/17/2022 9:00:00 PM 16.18 61.124 0.621 7.86 5.18 9.25
5/17/2022 9:15:00 PM 16.12 61.016 0.622 7.85 4.82 9.14
5/17/2022 9:30:00 PM 16.06 60.908 0.622 7.84 6.38 9.04
5/17/2022 9:45:00 PM 16 60.8 0.622 7.83 5.86 8.97
5/17/2022 10:00:00 PM 15.93 60.674 0.622 7.82 6.36 8.91
5/17/2022 10:15:00 PM 15.87 60.566 0.623 7.82 5.31 8.84
5/17/2022 10:30:00 PM 15.81 60.458 0.623 7.81 6.4 8.78
5/17/2022 10:45:00 PM 15.75 60.35 0.623 7.8 5.83 8.74
5/17/2022 11:00:00 PM 15.7 60.26 0.623 7.8 5.15 8.69
5/17/2022 11:15:00 PM 15.64 60.152 0.623 7.79 6 8.65
5/17/2022 11:30:00 PM 15.58 60.044 0.623 7.79 6.86 8.61
5/17/2022 11:45:00 PM 15.52 59.936 0.623 7.78 7.01 8.58
5/18/2022 12:00:00 AM 15.47 59.846 0.624 7.78 6.49 8.54
5/18/2022 12:15:00 AM 15.41 59.738 0.624 7.77 6.89 8.53
5/18/2022 12:30:00 AM 15.35 59.63 0.624 7.77 5.25 8.51
5/18/2022 12:45:00 AM 15.29 59.522 0.624 7.77 6.46 8.48
5/18/2022 1:00:00 AM 15.23 59.414 0.624 7.76 6.47 8.48
5/18/2022 1:15:00 AM 15.16 59.288 0.624 7.76 6.12 8.48
5/18/2022 1:30:00 AM 15.1 59.18 0.624 7.76 7.95 8.47
5/18/2022 1:45:00 AM 15.04 59.072 0.624 7.75 6.75 8.47
5/18/2022 2:00:00 AM 14.98 58.964 0.625 7.75 8.76 8.46
5/18/2022 2:15:00 AM 14.92 58.856 0.625 7.75 7.7 8.46
5/18/2022 2:30:00 AM 14.85 58.73 0.625 7.75 8.47 8.47
5/18/2022 2:45:00 AM 14.8 58.64 0.626 7.75 6.57 8.46
5/18/2022 3:00:00 AM 14.74 58.532 0.626 7.74 6.81 8.46
5/18/2022 3:15:00 AM 14.68 58.424 0.626 7.74 6.91 8.47
5/18/2022 3:30:00 AM 14.63 58.334 0.626 7.74 6.54 8.47
5/18/2022 3:45:00 AM 14.57 58.226 0.626 7.74 10.88 8.48
5/18/2022 4:00:00 AM 14.52 58.136 0.626 7.74 8.54 8.49
5/18/2022 4:15:00 AM 14.46 58.028 0.627 7.74 7.26 8.49
5/18/2022 4:30:00 AM 14.41 57.938 0.627 7.74 7.18 8.51
5/18/2022 4:45:00 AM 14.35 57.83 0.627 7.74 7.94 8.51
5/18/2022 5:00:00 AM 14.3 57.74 0.627 7.74 8.37 8.53
5/18/2022 5:15:00 AM 14.24 57.632 0.627 7.74 8.16 8.53
5/18/2022 5:30:00 AM 14.19 57.542 0.627 7.73 7.47 8.55
5/18/2022 5:45:00 AM 14.14 57.452 0.628 7.73 7.53 8.57
5/18/2022 6:00:00 AM 14.09 57.362 0.628 7.73 6.3 8.58
5/18/2022 6:15:00 AM 14.04 57.272 0.628 7.73 7.3 8.61
5/18/2022 6:30:00 AM 13.99 57.182 0.628 7.74 10.03 8.65
5/18/2022 6:45:00 AM 13.95 57.11 0.628 7.74 5.64 8.7
5/18/2022 7:00:00 AM 13.92 57.056 0.628 7.74 5.7 8.78
5/18/2022 7:15:00 AM 13.89 57.002 0.628 7.75 4.36 8.85
5/18/2022 7:30:00 AM 13.87 56.966 0.628 7.75 5.74 8.96
5/18/2022 7:45:00 AM 13.87 56.966 0.629 7.76 5.72 9.09
5/18/2022 8:00:00 AM 13.9 57.02 0.629 7.77 5.5 9.24
5/18/2022 8:15:00 AM 13.92 57.056 0.629 7.78 5.63 9.41
5/18/2022 8:30:00 AM 13.96 57.128 0.63 7.79 3.73 9.57
5/18/2022 8:45:00 AM 13.99 57.182 0.63 7.81 3.96 9.72
5/18/2022 9:00:00 AM 14.04 57.272 0.63 7.82 3.32 9.88
5/18/2022 9:15:00 AM 14.09 57.362 0.63 7.83 3.28 10.03
5/18/2022 9:30:00 AM 14.17 57.506 0.63 7.84 3.16 10.21
5/18/2022 9:45:00 AM 14.23 57.614 0.63 7.86 3.14 10.37
5/18/2022 10:00:00 AM 14.28 57.704 0.63 7.87 4.27 10.52
5/18/2022 10:15:00 AM 14.31 57.758 0.63 7.89 3.18 10.65
5/18/2022 10:30:00 AM 14.37 57.866 0.629 7.9 2.72 10.79
5/18/2022 10:45:00 AM 14.43 57.974 0.629 7.91 3.58 10.94
5/18/2022 11:00:00 AM 14.49 58.082 0.629 7.93 2.94 11.09
5/18/2022 11:15:00 AM 14.56 58.208 0.629 7.94 2.93 11.23
5/18/2022 11:30:00 AM 14.62 58.316 0.629 7.96 2.98 11.36
5/18/2022 11:45:00 AM 14.7 58.46 0.628 7.97 2.57 11.48
5/18/2022 12:00:00 PM 14.8 58.64 0.628 7.99 3.62 11.61
5/18/2022 12:15:00 PM 14.9 58.82 0.628 8 2.72 11.74
5/18/2022 12:30:00 PM 15.02 59.036 0.628 8.02 2.5 11.86
5/18/2022 12:45:00 PM 15.17 59.306 0.628 8.03 2.69 11.96
5/18/2022 1:00:00 PM 15.28 59.504 0.628 8.04 2.17 12.06
5/18/2022 1:15:00 PM 15.4 59.72 0.628 8.06 2.22 12.14
5/18/2022 1:30:00 PM 15.5 59.9 0.628 8.07 2.39 12.21
5/18/2022 1:45:00 PM 15.61 60.098 0.628 8.08 2.28 12.26
5/18/2022 2:00:00 PM 15.71 60.278 0.628 8.09 2.6 12.31
5/18/2022 2:15:00 PM 15.76 60.368 0.628 8.09 2.02 12.34
5/18/2022 2:30:00 PM 15.81 60.458 0.629 8.1 2.37 12.35
5/18/2022 2:45:00 PM 15.83 60.494 0.629 8.1 2.87 12.36
5/18/2022 3:00:00 PM 15.78 60.404 0.629 8.11 3.21 12.29
5/18/2022 3:15:00 PM 15.76 60.368 0.629 8.1 2.39 12.22
5/18/2022 3:30:00 PM 15.76 60.368 0.629 8.1 2.93 12.18
5/18/2022 3:45:00 PM 15.81 60.458 0.629 8.11 2.63 12.21
5/18/2022 4:00:00 PM 15.88 60.584 0.629 8.11 2.52 12.2
5/18/2022 4:15:00 PM 15.95 60.71 0.629 8.12 2.45 12.19
5/18/2022 4:30:00 PM 15.96 60.728 0.629 8.12 2.15 12.1
5/18/2022 4:45:00 PM 15.92 60.656 0.63 8.11 3.11 11.9
5/18/2022 5:00:00 PM 15.84 60.512 0.63 8.09 2.66 11.66
5/18/2022 5:15:00 PM 15.76 60.368 0.63 8.08 2.89 11.45
5/18/2022 5:30:00 PM 15.7 60.26 0.63 8.06 2.43 11.26
5/18/2022 5:45:00 PM 15.66 60.188 0.631 8.05 2.64 11.05
5/18/2022 6:00:00 PM 15.64 60.152 0.631 8.04 2.72 10.89
5/18/2022 6:15:00 PM 15.63 60.134 0.631 8.02 3.12 10.73
5/18/2022 6:30:00 PM 15.62 60.116 0.632 8.01 2.9 10.57
5/18/2022 6:45:00 PM 15.61 60.098 0.632 8 3.45 10.43
5/18/2022 7:00:00 PM 15.6 60.08 0.632 7.99 2.53 10.37
5/18/2022 7:15:00 PM 15.56 60.008 0.632 7.98 3.84 10.26
5/18/2022 7:30:00 PM 15.52 59.936 0.632 7.97 2.84 10.16
5/18/2022 7:45:00 PM 15.48 59.864 0.633 7.95 3.01 10
5/18/2022 8:00:00 PM 15.43 59.774 0.633 7.94 2.92 9.86
5/18/2022 8:15:00 PM 15.4 59.72 0.633 7.92 3.45 9.71
5/18/2022 8:30:00 PM 15.37 59.666 0.634 7.91 3.83 9.56
5/18/2022 8:45:00 PM 15.35 59.63 0.634 7.9 3.88 9.44
5/18/2022 9:00:00 PM 15.33 59.594 0.634 7.89 4.29 9.33
5/18/2022 9:15:00 PM 15.31 59.558 0.635 7.88 4.08 9.23
5/18/2022 9:30:00 PM 15.28 59.504 0.635 7.87 5.06 9.15
5/18/2022 9:45:00 PM 15.25 59.45 0.635 7.86 5.4 9.07
5/18/2022 10:00:00 PM 15.22 59.396 0.635 7.85 5.07 9.01
5/18/2022 10:15:00 PM 15.19 59.342 0.635 7.85 4.96 8.98
5/18/2022 10:30:00 PM 15.15 59.27 0.634 7.84 5.34 8.94
5/18/2022 10:45:00 PM 15.12 59.216 0.634 7.83 7.77 8.91
5/18/2022 11:00:00 PM 15.1 59.18 0.634 7.83 6.48 8.86
5/18/2022 11:15:00 PM 15.07 59.126 0.634 7.82 5.92 8.82
5/18/2022 11:30:00 PM 15.05 59.09 0.634 7.81 6.37 8.78
5/18/2022 11:45:00 PM 15.03 59.054 0.634 7.81 5.57 8.74
5/19/2022 12:00:00 AM 15.01 59.018 0.633 7.81 6.13 8.72
5/19/2022 12:15:00 AM 14.99 58.982 0.633 7.8 5.2 8.68
5/19/2022 12:30:00 AM 14.96 58.928 0.632 7.8 6.82 8.67
5/19/2022 12:45:00 AM 14.94 58.892 0.63 7.8 6.53 8.66
5/19/2022 1:00:00 AM 14.91 58.838 0.628 7.8 8.77 8.65
5/19/2022 1:15:00 AM 14.88 58.784 0.626 7.79 7.76 8.64
5/19/2022 1:30:00 AM 14.85 58.73 0.554 7.79 9.4 8.62
5/19/2022 1:45:00 AM 14.82 58.676 0.623 7.79 8.45 8.62
5/19/2022 2:00:00 AM 14.8 58.64 0.621 7.79 9.76 8.59
5/19/2022 2:15:00 AM 14.77 58.586 0.62 7.78 7.07 8.56
5/19/2022 2:30:00 AM 14.75 58.55 0.619 7.78 8.36 8.55
5/19/2022 2:45:00 AM 14.72 58.496 0.617 7.78 8.55 8.53
5/19/2022 3:00:00 AM 14.7 58.46 0.616 7.77 9.5 8.53
5/19/2022 3:15:00 AM 14.69 58.442 0.615 7.77 10.83 8.52
5/19/2022 3:30:00 AM 14.67 58.406 0.614 7.76 8.86 8.5
5/19/2022 3:45:00 AM 14.65 58.37 0.613 7.76 10.63 8.49
5/19/2022 4:00:00 AM 14.63 58.334 0.612 7.76 14.64 8.48
5/19/2022 4:15:00 AM 14.61 58.298 0.611 7.75 9.57 8.45
5/19/2022 4:30:00 AM 14.6 58.28 0.61 7.75 10.37 8.46
5/19/2022 4:45:00 AM 14.58 58.244 0.609 7.75 10.58 8.46
5/19/2022 5:00:00 AM 14.57 58.226 0.608 7.74 10.22 8.46
5/19/2022 5:15:00 AM 14.56 58.208 0.604 7.74 10.47 8.43
5/19/2022 5:30:00 AM 14.55 58.19 0.598 7.73 14.63 8.4
5/19/2022 5:45:00 AM 14.55 58.19 0.593 7.73 12.15 8.38
5/19/2022 6:00:00 AM 14.53 58.154 0.589 7.72 13.53 8.38
5/19/2022 6:15:00 AM 14.51 58.118 0.587 7.72 11.24 8.4
5/19/2022 6:30:00 AM 14.48 58.064 0.588 7.71 13.04 8.41
5/19/2022 6:45:00 AM 14.45 58.01 0.589 7.71 13.46 8.43
5/19/2022 7:00:00 AM 14.42 57.956 0.588 7.71 17.8 8.43
5/19/2022 7:15:00 AM 14.4 57.92 0.585 7.71 14.19 8.44
5/19/2022 7:30:00 AM 14.38 57.884 0.584 7.7 18.13 8.47
5/19/2022 7:45:00 AM 14.36 57.848 0.587 7.7 19.81 8.48
5/19/2022 8:00:00 AM 14.36 57.848 0.588 7.7 17.12 8.48
5/19/2022 8:15:00 AM 14.36 57.848 0.585 7.69 16.08 8.5
5/19/2022 8:30:00 AM 14.37 57.866 0.583 7.7 20.11 8.53
5/19/2022 8:45:00 AM 14.38 57.884 0.584 7.7 20.99 8.56
5/19/2022 9:00:00 AM 14.37 57.866 0.586 7.71 17.71 8.6
5/19/2022 9:15:00 AM 14.35 57.83 0.584 7.71 17.35 8.65
5/19/2022 9:30:00 AM 14.34 57.812 0.575 7.71 23.66 8.66
5/19/2022 9:45:00 AM 14.34 57.812 0.558 7.71 17.17 8.66
5/19/2022 10:00:00 AM 14.37 57.866 0.534 7.7 22.51 8.62
5/19/2022 10:15:00 AM 14.42 57.956 0.51 7.69 20.5 8.59
5/19/2022 10:30:00 AM 14.47 58.046 0.49 7.68 19.77 8.58
5/19/2022 10:45:00 AM 14.53 58.154 0.475 7.67 18.11 8.62
5/19/2022 11:00:00 AM 14.55 58.19 0.464 7.66 18.08 8.62
5/19/2022 11:15:00 AM 14.59 58.262 0.455 7.65 16.91 8.65
5/19/2022 11:30:00 AM 14.64 58.352 0.448 7.65 15.24 8.74
5/19/2022 11:45:00 AM 14.7 58.46 0.441 7.65 14.39 8.83
5/19/2022 12:00:00 PM 14.81 58.658 0.435 7.65 16.11 8.95
5/19/2022 12:15:00 PM 14.9 58.82 0.429 7.66 16.96 9.05
5/19/2022 12:30:00 PM 15 59 0.426 7.66 16.84 9.16
5/19/2022 12:45:00 PM 15.1 59.18 0.423 7.67 16.02 9.29
5/19/2022 1:00:00 PM 15.25 59.45 0.423 7.68 16.34 9.46
5/19/2022 1:15:00 PM 15.38 59.684 0.424 7.7 16.4 9.61
5/19/2022 1:30:00 PM 15.46 59.828 0.426 7.71 16.06 9.72
5/19/2022 1:45:00 PM 15.55 59.99 0.431 7.72 14.23 9.79
5/19/2022 2:00:00 PM 15.59 60.062 0.436 7.72 12.96 9.82
5/19/2022 2:15:00 PM 15.67 60.206 0.442 7.74 14.55 9.92
5/19/2022 2:30:00 PM 15.74 60.332 0.449 7.75 13.7 9.97
5/19/2022 2:45:00 PM 15.74 60.332 0.456 7.75 12.9 9.95
5/19/2022 3:00:00 PM 15.73 60.314 0.463 7.75 12.64 9.86
5/19/2022 3:15:00 PM 15.84 60.512 0.468 7.76 12.17 9.92
5/19/2022 3:30:00 PM 15.85 60.53 0.474 7.77 10.63 9.98
5/19/2022 3:45:00 PM 15.97 60.746 0.479 7.78 11.53 10.02
5/19/2022 4:00:00 PM 16.09 60.962 0.485 7.79 9.35 10.1
5/19/2022 4:15:00 PM 16.18 61.124 0.491 7.8 10.23 10.18
5/19/2022 4:30:00 PM 16.2 61.16 0.497 7.81 11.35 10.15
5/19/2022 4:45:00 PM 16.16 61.088 0.504 7.81 9.85 10.07
5/19/2022 5:00:00 PM 16.14 61.052 0.511 7.81 12.12 10.02
5/19/2022 5:15:00 PM 16.12 61.016 0.517 7.81 8.78 10
5/19/2022 5:30:00 PM 16.15 61.07 0.523 7.81 8.51 9.99
5/19/2022 5:45:00 PM 16.16 61.088 0.527 7.82 9.11 9.98
5/19/2022 6:00:00 PM 16.14 61.052 0.532 7.82 8.61 9.92
5/19/2022 6:15:00 PM 16.12 61.016 0.536 7.82 9.1 9.82
5/19/2022 6:30:00 PM 16.1 60.98 0.539 7.82 8.74 9.75
5/19/2022 6:45:00 PM 16.07 60.926 0.542 7.81 8.18 9.68
5/19/2022 7:00:00 PM 16.04 60.872 0.545 7.81 8.01 9.58
5/19/2022 7:15:00 PM 16.01 60.818 0.548 7.81 8.95 9.47
5/19/2022 7:30:00 PM 15.98 60.764 0.55 7.8 8.36 9.38
5/19/2022 7:45:00 PM 15.95 60.71 0.552 7.79 7.97 9.29
5/19/2022 8:00:00 PM 15.92 60.656 0.554 7.79 9.56 9.21
5/19/2022 8:15:00 PM 15.9 60.62 0.556 7.78 7.28 9.13
5/19/2022 8:30:00 PM 15.87 60.566 0.558 7.78 7.55 9.05
5/19/2022 8:45:00 PM 15.84 60.512 0.56 7.77 9.13 8.98
5/19/2022 9:00:00 PM 15.81 60.458 0.561 7.77 7.46 8.91
5/19/2022 9:15:00 PM 15.79 60.422 0.563 7.76 9.89 8.85
5/19/2022 9:30:00 PM 15.77 60.386 0.565 7.76 9.37 8.81
5/19/2022 9:45:00 PM 15.74 60.332 0.566 7.75 8.48 8.75
5/19/2022 10:00:00 PM 15.72 60.296 0.567 7.75 9.78 8.71
5/19/2022 10:15:00 PM 15.69 60.242 0.569 7.75 9.95 8.67
5/19/2022 10:30:00 PM 15.67 60.206 0.57 7.74 10.5 8.62
5/19/2022 10:45:00 PM 15.63 60.134 0.572 7.74 11.4 8.58
5/19/2022 11:00:00 PM 15.61 60.098 0.573 7.74 11.97 8.54
5/19/2022 11:15:00 PM 15.57 60.026 0.574 7.73 10 8.52
5/19/2022 11:30:00 PM 15.54 59.972 0.576 7.73 8.44 8.51
5/19/2022 11:45:00 PM 15.52 59.936 0.577 7.73 7.92 8.49
5/20/2022 12:00:00 AM 15.49 59.882 0.578 7.73 7.72 8.48
5/20/2022 12:15:00 AM 15.47 59.846 0.579 7.73 10.12 8.45
5/20/2022 12:30:00 AM 15.45 59.81 0.58 7.72 8.74 8.44
5/20/2022 12:45:00 AM 15.43 59.774 0.581 7.72 9.53 8.42
5/20/2022 1:00:00 AM 15.41 59.738 0.582 7.72 10.14 8.41
5/20/2022 1:15:00 AM 15.39 59.702 0.583 7.72 7.59 8.39
5/20/2022 1:30:00 AM 15.37 59.666 0.584 7.72 12.37 8.39
5/20/2022 1:45:00 AM 15.34 59.612 0.585 7.72 9.87 8.38
5/20/2022 2:00:00 AM 15.32 59.576 0.586 7.72 9.96 8.37
5/20/2022 2:15:00 AM 15.29 59.522 0.587 7.72 9.44 8.37
5/20/2022 2:30:00 AM 15.26 59.468 0.589 7.72 9.61 8.36
5/20/2022 2:45:00 AM 15.23 59.414 0.59 7.72 8.54 8.35
5/20/2022 3:00:00 AM 15.2 59.36 0.591 7.72 9.05 8.35
5/20/2022 3:15:00 AM 15.17 59.306 0.592 7.72 11.34 8.35
5/20/2022 3:30:00 AM 15.14 59.252 0.593 7.72 10.84 8.37
5/20/2022 3:45:00 AM 15.1 59.18 0.594 7.72 8.79 8.35
5/20/2022 4:00:00 AM 15.07 59.126 0.595 7.72 7.42 8.37
5/20/2022 4:15:00 AM 15.04 59.072 0.596 7.72 10.16 8.38
5/20/2022 4:30:00 AM 15 59 0.597 7.72 8.5 8.38
5/20/2022 4:45:00 AM 14.97 58.946 0.598 7.72 9.17 8.38
5/20/2022 5:00:00 AM 14.93 58.874 0.598 7.72 9.57 8.39
5/20/2022 5:15:00 AM 14.9 58.82 0.599 7.72 9.54 8.4
5/20/2022 5:30:00 AM 14.87 58.766 0.6 7.72 9.93 8.4
5/20/2022 5:45:00 AM 14.84 58.712 0.601 7.72 11.08 8.41
5/20/2022 6:00:00 AM 14.81 58.658 0.601 7.72 9.53 8.42
5/20/2022 6:15:00 AM 14.78 58.604 0.602 7.72 8.87 8.44
5/20/2022 6:30:00 AM 14.75 58.55 0.603 7.72 9.95 8.47
5/20/2022 6:45:00 AM 14.72 58.496 0.604 7.72 6.63 8.5
5/20/2022 7:00:00 AM 14.7 58.46 0.605 7.72 6.72 8.57
5/20/2022 7:15:00 AM 14.68 58.424 0.606 7.73 6.21 8.63
5/20/2022 7:30:00 AM 14.66 58.388 0.607 7.73 8.08 8.7
5/20/2022 7:45:00 AM 14.64 58.352 0.608 7.73 5.23 8.7
5/20/2022 8:00:00 AM 14.62 58.316 0.609 7.73 7.21 8.7
5/20/2022 8:15:00 AM 14.6 58.28 0.61 7.73 8.22 8.74
5/20/2022 8:30:00 AM 14.6 58.28 0.61 7.74 6.77 8.86
5/20/2022 8:45:00 AM 14.61 58.298 0.611 7.74 4.2 9.02
5/20/2022 9:00:00 AM 14.61 58.298 0.611 7.75 9.59 9.16
5/20/2022 9:15:00 AM 14.6 58.28 0.612 7.76 4.29 9.18
5/20/2022 9:30:00 AM 14.59 58.262 0.613 7.76 2.8 9.2
5/20/2022 9:45:00 AM 14.58 58.244 0.613 7.76 3.94 9.24
5/20/2022 10:00:00 AM 14.58 58.244 0.613 7.77 3.73 9.33
5/20/2022 10:15:00 AM 14.61 58.298 0.613 7.78 6.31 9.49
5/20/2022 10:30:00 AM 14.68 58.424 0.614 7.79 5.32 9.72
5/20/2022 10:45:00 AM 14.75 58.55 0.614 7.81 8.54 9.9
5/20/2022 11:00:00 AM 14.83 58.694 0.614 7.83 4.53 10.06
5/20/2022 11:15:00 AM 14.92 58.856 0.614 7.84 2.87 10.24
5/20/2022 11:30:00 AM 14.97 58.946 0.613 7.86 3.26 10.39
5/20/2022 11:45:00 AM 15.02 59.036 0.613 7.87 3 10.53
5/20/2022 12:00:00 PM 15.17 59.306 0.613 7.89 3.71 10.68
5/20/2022 12:15:00 PM 15.23 59.414 0.614 7.91 2.61 10.83
5/20/2022 12:30:00 PM 15.29 59.522 0.614 7.92 2.97 10.9
5/20/2022 12:45:00 PM 15.32 59.576 0.614 7.93 2.34 10.91
5/20/2022 1:00:00 PM 15.32 59.576 0.614 7.93 2.4 10.95
5/20/2022 1:15:00 PM 15.36 59.648 0.614 7.94 3.05 11.04
5/20/2022 1:30:00 PM 15.42 59.756 0.614 7.96 3.08 11.15
5/20/2022 1:45:00 PM 15.43 59.774 0.614 7.97 2.5 11.15
5/20/2022 2:00:00 PM 15.41 59.738 0.615 7.97 2.53 11.05
5/20/2022 2:15:00 PM 15.43 59.774 0.612 7.97 5.32 10.94
5/20/2022 2:30:00 PM 15.39 59.702 0.607 7.97 3.65 10.71
5/20/2022 2:45:00 PM 15.39 59.702 0.608 7.96 4.68 10.68
5/20/2022 3:00:00 PM 15.43 59.774 0.607 7.96 8.45 10.69
5/20/2022 3:15:00 PM 15.46 59.828 0.608 7.96 9.4 10.77
5/20/2022 3:30:00 PM 15.48 59.864 0.607 7.97 13.76 10.75
5/20/2022 3:45:00 PM 15.49 59.882 0.607 7.96 12.84 10.65
5/20/2022 4:00:00 PM 15.51 59.918 0.607 7.96 7 10.6
5/20/2022 4:15:00 PM 15.53 59.954 0.609 7.96 6.85 10.62
5/20/2022 4:30:00 PM 15.54 59.972 0.61 7.96 5.08 10.65
5/20/2022 4:45:00 PM 15.57 60.026 0.61 7.97 5.83 10.67
5/20/2022 5:00:00 PM 15.58 60.044 0.61 7.96 5.08 10.63
5/20/2022 5:15:00 PM 15.59 60.062 0.609 7.96 4.32 10.56
5/20/2022 5:30:00 PM 15.58 60.044 0.61 7.96 5.41 10.49
5/20/2022 5:45:00 PM 15.59 60.062 0.61 7.95 5.16 10.45
5/20/2022 6:00:00 PM 15.59 60.062 0.61 7.95 5.22 10.41
5/20/2022 6:15:00 PM 15.61 60.098 0.61 7.95 5.13 10.34
5/20/2022 6:30:00 PM 15.63 60.134 0.609 7.95 5.95 10.29
5/20/2022 6:45:00 PM 15.65 60.17 0.606 7.94 7.76 10.17
5/20/2022 7:00:00 PM 15.7 60.26 0.6 7.93 9.2 10
5/20/2022 7:15:00 PM 15.73 60.314 0.594 7.91 5.3 9.79
5/20/2022 7:30:00 PM 15.73 60.314 0.594 7.89 11.2 9.63
5/20/2022 7:45:00 PM 15.68 60.224 0.599 7.87 14.42 9.51
5/20/2022 8:00:00 PM 15.63 60.134 0.603 7.86 12.08 9.4
5/20/2022 8:15:00 PM 15.59 60.062 0.606 7.84 12.2 9.29
5/20/2022 8:30:00 PM 15.6 60.08 0.606 7.83 32.15 9.19
5/20/2022 8:45:00 PM 15.64 60.152 0.604 7.82 22.13 9.06
5/20/2022 9:00:00 PM 15.7 60.26 0.598 7.81 18.28 8.93
5/20/2022 9:15:00 PM 15.79 60.422 0.592 7.8 20.36 8.77
5/20/2022 9:30:00 PM 15.85 60.53 0.591 7.79 19.84 8.67
5/20/2022 9:45:00 PM 15.9 60.62 0.592 7.79 17.51 8.59
5/20/2022 10:00:00 PM 15.94 60.692 0.592 7.78 20.92 8.52
5/20/2022 10:15:00 PM 16 60.8 0.583 7.77 21.69 8.41
5/20/2022 10:30:00 PM 16.09 60.962 0.567 7.76 20.01 8.29
5/20/2022 10:45:00 PM 16.19 61.142 0.543 7.74 23.32 8.15
5/20/2022 11:00:00 PM 16.3 61.34 0.517 7.72 23.07 8.01
5/20/2022 11:15:00 PM 16.39 61.502 0.495 7.7 20.75 7.89
5/20/2022 11:30:00 PM 16.47 61.646 0.477 7.67 20.81 7.79
5/20/2022 11:45:00 PM 16.52 61.736 0.465 7.65 19.55 7.72
5/21/2022 12:00:00 AM 16.55 61.79 0.458 7.64 21.64 7.66
5/21/2022 12:15:00 AM 16.55 61.79 0.454 7.62 20.1 7.61
5/21/2022 12:30:00 AM 16.54 61.772 0.453 7.61 24.29 7.6
5/21/2022 12:45:00 AM 16.51 61.718 0.455 7.6 18.94 7.59
5/21/2022 1:00:00 AM 16.48 61.664 0.459 7.6 16.17 7.59
5/21/2022 1:15:00 AM 16.43 61.574 0.465 7.59 17.37 7.6
5/21/2022 1:30:00 AM 16.38 61.484 0.471 7.59 19.27 7.62
5/21/2022 1:45:00 AM 16.32 61.376 0.477 7.59 14.12 7.65
5/21/2022 2:00:00 AM 16.27 61.286 0.483 7.59 17.54 7.68
5/21/2022 2:15:00 AM 16.22 61.196 0.487 7.59 17.5 7.7
5/21/2022 2:30:00 AM 16.18 61.124 0.49 7.59 17.55 7.71
5/21/2022 2:45:00 AM 16.13 61.034 0.493 7.59 17.69 7.73
5/21/2022 3:00:00 AM 16.1 60.98 0.495 7.59 14.57 7.75
5/21/2022 3:15:00 AM 16.07 60.926 0.497 7.59 17.09 7.76
5/21/2022 3:30:00 AM 16.04 60.872 0.5 7.59 14.18 7.78
5/21/2022 3:45:00 AM 16.01 60.818 0.504 7.59 13.94 7.79
5/21/2022 4:00:00 AM 15.97 60.746 0.508 7.59 15.95 7.81
5/21/2022 4:15:00 AM 15.94 60.692 0.514 7.6 15.56 7.82
5/21/2022 4:30:00 AM 15.9 60.62 0.52 7.6 17.82 7.82
5/21/2022 4:45:00 AM 15.86 60.548 0.526 7.6 15.13 7.83
5/21/2022 5:00:00 AM 15.81 60.458 0.532 7.6 15.1 7.84
5/21/2022 5:15:00 AM 15.77 60.386 0.537 7.61 14.89 7.85
5/21/2022 5:30:00 AM 15.73 60.314 0.542 7.61 15.53 7.86
5/21/2022 5:45:00 AM 15.69 60.242 0.546 7.62 15.16 7.87
5/21/2022 6:00:00 AM 15.65 60.17 0.55 7.62 13.28 7.89
5/21/2022 6:15:00 AM 15.62 60.116 0.553 7.63 13.9 7.88
5/21/2022 6:30:00 AM 15.58 60.044 0.556 7.63 13.25 7.92
5/21/2022 6:45:00 AM 15.56 60.008 0.559 7.63 12.14 7.95
5/21/2022 7:00:00 AM 15.54 59.972 0.562 7.64 13.75 7.98
5/21/2022 7:15:00 AM 15.52 59.936 0.564 7.64 16.81 8.03
5/21/2022 7:30:00 AM 15.5 59.9 0.566 7.65 10.92 8.07
5/21/2022 7:45:00 AM 15.49 59.882 0.568 7.65 10.32 8.13
5/21/2022 8:00:00 AM 15.48 59.864 0.569 7.66 12.13 8.2
5/21/2022 8:15:00 AM 15.47 59.846 0.57 7.66 11.19 8.27
5/21/2022 8:30:00 AM 15.47 59.846 0.571 7.67 8.32 8.36
5/21/2022 8:45:00 AM 15.48 59.864 0.571 7.68 8.65 8.46
5/21/2022 9:00:00 AM 15.49 59.882 0.572 7.68 7.77 8.55
5/21/2022 9:15:00 AM 15.51 59.918 0.573 7.69 8.78 8.67
5/21/2022 9:30:00 AM 15.55 59.99 0.574 7.7 11.45 8.8
5/21/2022 9:45:00 AM 15.6 60.08 0.575 7.72 9.76 8.96
5/21/2022 10:00:00 AM 15.66 60.188 0.575 7.73 8.79 9.13
5/21/2022 10:15:00 AM 15.77 60.386 0.576 7.75 7.31 9.33
5/21/2022 10:30:00 AM 15.89 60.602 0.576 7.77 8.11 9.53
5/21/2022 10:45:00 AM 16.02 60.836 0.577 7.78 7.5 9.71
5/21/2022 11:00:00 AM 16.14 61.052 0.578 7.8 7.08 9.86
5/21/2022 11:15:00 AM 16.26 61.268 0.579 7.82 7.67 10.02
5/21/2022 11:30:00 AM 16.42 61.556 0.58 7.84 6.54 10.2
5/21/2022 11:45:00 AM 16.56 61.808 0.581 7.85 6.47 10.36
5/21/2022 12:00:00 PM 16.71 62.078 0.582 7.87 6.95 10.49
5/21/2022 12:15:00 PM 16.86 62.348 0.583 7.88 5.06 10.63
5/21/2022 12:30:00 PM 16.99 62.582 0.584 7.9 5.04 10.75
5/21/2022 12:45:00 PM 17.11 62.798 0.585 7.92 5.62 10.85
5/21/2022 1:00:00 PM 17.24 63.032 0.586 7.93 5.54 10.97
5/21/2022 1:15:00 PM 17.36 63.248 0.587 7.94 11.99 11.06
5/21/2022 1:30:00 PM 17.43 63.374 0.588 7.96 5.43 11.09
5/21/2022 1:45:00 PM 17.51 63.518 0.589 7.97 6.19 11.11
5/21/2022 2:00:00 PM 17.63 63.734 0.589 7.98 6.85 11.19
5/21/2022 2:15:00 PM 17.73 63.914 0.59 7.99 5.52 11.23
5/21/2022 2:30:00 PM 17.77 63.986 0.591 8 5.73 11.23
5/21/2022 2:45:00 PM 17.81 64.058 0.592 8 5.35 11.21
5/21/2022 3:00:00 PM 17.89 64.202 0.593 8.01 9.28 11.2
5/21/2022 3:15:00 PM 17.98 64.364 0.594 8.01 5.66 11.21
5/21/2022 3:30:00 PM 18.07 64.526 0.595 8.02 5.31 11.22
5/21/2022 3:45:00 PM 18.16 64.688 0.595 8.03 6.92 11.23
5/21/2022 4:00:00 PM 18.22 64.796 0.596 8.03 5 11.2
5/21/2022 4:15:00 PM 18.28 64.904 0.597 8.04 6.09 11.18
5/21/2022 4:30:00 PM 18.34 65.012 0.598 8.04 4.44 11.11
5/21/2022 4:45:00 PM 18.38 65.084 0.599 8.04 4.2 11.05
5/21/2022 5:00:00 PM 18.4 65.12 0.599 8.04 4.97 10.98
5/21/2022 5:15:00 PM 18.38 65.084 0.6 8.04 4.47 10.85
5/21/2022 5:30:00 PM 18.35 65.03 0.601 8.03 4.15 10.72
5/21/2022 5:45:00 PM 18.3 64.94 0.602 8.02 6.13 10.54
5/21/2022 6:00:00 PM 18.26 64.868 0.603 8.01 4.05 10.37
5/21/2022 6:15:00 PM 18.21 64.778 0.603 8 5.19 10.24
5/21/2022 6:30:00 PM 18.19 64.742 0.604 7.99 4.71 10.11
5/21/2022 6:45:00 PM 18.18 64.724 0.605 7.98 5.61 9.99
5/21/2022 7:00:00 PM 18.16 64.688 0.606 7.98 4.82 9.84
5/21/2022 7:15:00 PM 18.14 64.652 0.607 7.96 5.33 9.7
5/21/2022 7:30:00 PM 18.11 64.598 0.608 7.95 5.31 9.56
5/21/2022 7:45:00 PM 18.07 64.526 0.609 7.94 5.68 9.4
5/21/2022 8:00:00 PM 18.03 64.454 0.611 7.93 5.46 9.25
5/21/2022 8:15:00 PM 17.99 64.382 0.612 7.91 5.21 9.14
5/21/2022 8:30:00 PM 17.95 64.31 0.613 7.9 7.49 9
5/21/2022 8:45:00 PM 17.92 64.256 0.614 7.89 5.95 8.88
5/21/2022 9:00:00 PM 17.88 64.184 0.615 7.88 9.26 8.77
5/21/2022 9:15:00 PM 17.85 64.13 0.615 7.86 8.38 8.67
5/21/2022 9:30:00 PM 17.82 64.076 0.616 7.85 7.3 8.58
5/21/2022 9:45:00 PM 17.78 64.004 0.616 7.84 9.58 8.51
5/21/2022 10:00:00 PM 17.74 63.932 0.617 7.84 7.53 8.44
5/21/2022 10:15:00 PM 17.71 63.878 0.617 7.83 6.51 8.38
5/21/2022 10:30:00 PM 17.68 63.824 0.618 7.82 11.36 8.32
5/21/2022 10:45:00 PM 17.64 63.752 0.618 7.81 8.68 8.27
5/21/2022 11:00:00 PM 17.61 63.698 0.618 7.8 8.01 8.22
5/21/2022 11:15:00 PM 17.58 63.644 0.618 7.8 7.72 8.18
5/21/2022 11:30:00 PM 17.55 63.59 0.618 7.79 8.67 8.13
5/21/2022 11:45:00 PM 17.53 63.554 0.618 7.79 8.77 8.1
5/22/2022 12:00:00 AM 17.51 63.518 0.618 7.78 9.69 8.06
5/22/2022 12:15:00 AM 17.48 63.464 0.618 7.78 8.21 8.03
5/22/2022 12:30:00 AM 17.47 63.446 0.619 7.77 10.16 7.98
5/22/2022 12:45:00 AM 17.48 63.464 0.62 7.77 11.27 7.93
5/22/2022 1:00:00 AM 17.49 63.482 0.62 7.76 8.2 7.87
5/22/2022 1:15:00 AM 17.48 63.464 0.62 7.75 7.77 7.83
5/22/2022 1:30:00 AM 17.47 63.446 0.62 7.75 8.52 7.81
5/22/2022 1:45:00 AM 17.42 63.356 0.62 7.75 9.61 7.84
5/22/2022 2:00:00 AM 17.38 63.284 0.62 7.75 10.46 7.86
5/22/2022 2:15:00 AM 17.38 63.284 0.623 7.75 12.29 7.87
5/22/2022 2:30:00 AM 17.37 63.266 0.626 7.75 13.92 7.9
5/22/2022 2:45:00 AM 17.34 63.212 0.628 7.75 10.72 7.94
5/22/2022 3:00:00 AM 17.29 63.122 0.629 7.75 11.08 7.96
5/22/2022 3:15:00 AM 17.26 63.068 0.629 7.75 9.65 7.97
5/22/2022 3:30:00 AM 17.23 63.014 0.629 7.75 10.49 7.96
5/22/2022 4:00:00 AM 17.18 62.924 0.629 7.75 10.07 7.97
5/22/2022 4:15:00 AM 17.14 62.852 0.629 7.75 12.39 7.97
5/22/2022 4:30:00 AM 17.11 62.798 0.63 7.75 11.67 7.98
5/22/2022 4:45:00 AM 17.07 62.726 0.629 7.75 9.28 7.97
5/22/2022 5:00:00 AM 17.04 62.672 0.629 7.74 11.36 7.98
5/22/2022 5:15:00 AM 17.01 62.618 0.63 7.75 13.36 7.97
5/22/2022 5:30:00 AM 16.99 62.582 0.629 7.74 9.72 7.92
5/22/2022 5:45:00 AM 16.95 62.51 0.628 7.74 11.85 7.92
5/22/2022 6:00:00 AM 16.89 62.402 0.627 7.74 11.32 7.94
5/22/2022 6:15:00 AM 16.83 62.294 0.626 7.74 10.38 7.95
5/22/2022 6:30:00 AM 16.77 62.186 0.625 7.74 11.25 7.98
5/22/2022 6:45:00 AM 16.73 62.114 0.624 7.74 8.95 8.02
5/22/2022 7:00:00 AM 16.69 62.042 0.624 7.74 8.72 8.09
5/22/2022 7:15:00 AM 16.64 61.952 0.623 7.75 9.84 8.14
5/22/2022 7:30:00 AM 16.61 61.898 0.624 7.75 9 8.24
5/22/2022 7:45:00 AM 16.6 61.88 0.624 7.76 8.99 8.36
5/22/2022 8:00:00 AM 16.59 61.862 0.624 7.76 6.9 8.51
5/22/2022 8:15:00 AM 16.59 61.862 0.624 7.77 8.84 8.66
5/22/2022 8:30:00 AM 16.61 61.898 0.625 7.78 7.5 8.82
5/22/2022 8:45:00 AM 16.64 61.952 0.625 7.79 7.93 8.97
5/22/2022 9:00:00 AM 16.67 62.006 0.625 7.81 6.58 9.14
5/22/2022 9:15:00 AM 16.73 62.114 0.625 7.82 6.66 9.3
5/22/2022 9:30:00 AM 16.79 62.222 0.625 7.83 8.69 9.48
5/22/2022 9:45:00 AM 16.84 62.312 0.625 7.85 5.69 9.63
5/22/2022 10:00:00 AM 16.84 62.312 0.625 7.86 6.02 9.72
5/22/2022 10:15:00 AM 16.91 62.438 0.625 7.87 5.81 9.82
5/22/2022 10:30:00 AM 16.99 62.582 0.625 7.88 6.29 10.01
5/22/2022 10:45:00 AM 17.08 62.744 0.625 7.9 6.87 10.19
5/22/2022 11:00:00 AM 17.18 62.924 0.625 7.91 6.88 10.34
5/22/2022 11:15:00 AM 17.27 63.086 0.625 7.93 6.68 10.47
5/22/2022 11:30:00 AM 17.36 63.248 0.625 7.94 6.23 10.59
5/22/2022 11:45:00 AM 17.45 63.41 0.625 7.95 6.19 10.67
5/22/2022 12:00:00 PM 17.56 63.608 0.625 7.97 5.76 10.82
5/22/2022 12:15:00 PM 17.67 63.806 0.625 7.98 6.24 10.95
5/22/2022 12:30:00 PM 17.78 64.004 0.624 7.99 6.51 11.07
5/22/2022 12:45:00 PM 17.87 64.166 0.624 8.01 5.79 11.15
5/22/2022 1:00:00 PM 17.97 64.346 0.624 8.02 5.74 11.24
5/22/2022 1:15:00 PM 18.07 64.526 0.624 8.03 6.44 11.31
5/22/2022 1:30:00 PM 18.16 64.688 0.624 8.04 5.69 11.37
5/22/2022 1:45:00 PM 18.26 64.868 0.624 8.06 6.88 11.45
5/22/2022 2:00:00 PM 18.34 65.012 0.624 8.06 6.3 11.5
5/22/2022 2:15:00 PM 18.42 65.156 0.624 8.07 7.12 11.54
5/22/2022 2:30:00 PM 18.49 65.282 0.624 8.08 6.29 11.56
5/22/2022 2:45:00 PM 18.54 65.372 0.624 8.09 7.07 11.55
5/22/2022 3:00:00 PM 18.55 65.39 0.624 8.09 6.51 11.54
5/22/2022 3:15:00 PM 18.6 65.48 0.624 8.1 8.22 11.52
5/22/2022 3:30:00 PM 18.55 65.39 0.624 8.1 6.6 11.41
5/22/2022 3:45:00 PM 18.47 65.246 0.624 8.09 7.63 11.2
5/22/2022 4:00:00 PM 18.38 65.084 0.615 8.08 13.67 10.76
5/22/2022 4:15:00 PM 18.27 64.886 0.614 8.06 11.11 10.48
5/22/2022 4:30:00 PM 18.18 64.724 0.614 8.04 12.35 10.27
5/22/2022 4:45:00 PM 18.15 64.67 0.614 8.03 15.42 10.16
5/22/2022 5:00:00 PM 18.23 64.814 0.614 8.03 15.79 10.23
5/22/2022 5:15:00 PM 18.29 64.922 0.614 8.03 11.84 10.27
5/22/2022 5:30:00 PM 18.34 65.012 0.615 8.03 12.74 10.25
5/22/2022 5:45:00 PM 18.41 65.138 0.615 8.03 11.53 10.16
5/22/2022 6:00:00 PM 18.44 65.192 0.615 8.02 10.42 10.02
5/22/2022 6:15:00 PM 18.42 65.156 0.617 8.01 11.76 9.93
5/22/2022 6:30:00 PM 18.4 65.12 0.618 8 9.62 9.78
5/22/2022 6:45:00 PM 18.36 65.048 0.619 7.99 10.64 9.62
5/22/2022 7:00:00 PM 18.33 64.994 0.619 7.99 12.09 9.5
5/22/2022 7:15:00 PM 18.25 64.85 0.619 7.98 14.94 9.36
5/22/2022 7:30:00 PM 18.17 64.706 0.62 7.96 10.89 9.25
5/22/2022 7:45:00 PM 18.11 64.598 0.62 7.95 11.24 9.21
5/22/2022 8:00:00 PM 18.07 64.526 0.619 7.94 11.77 9.14
5/22/2022 8:15:00 PM 18.02 64.436 0.62 7.93 11.99 9.06
5/22/2022 8:30:00 PM 17.98 64.364 0.62 7.91 14.04 8.93
5/22/2022 8:45:00 PM 17.93 64.274 0.619 7.9 12.34 8.81
5/22/2022 9:00:00 PM 17.9 64.22 0.617 7.89 12.17 8.67
5/22/2022 9:15:00 PM 17.88 64.184 0.614 7.87 12.55 8.53
5/22/2022 9:30:00 PM 17.85 64.13 0.613 7.85 13.23 8.43
5/22/2022 9:45:00 PM 17.82 64.076 0.614 7.84 16.68 8.35
5/22/2022 10:00:00 PM 17.78 64.004 0.616 7.83 13.69 8.29
5/22/2022 10:15:00 PM 17.74 63.932 0.618 7.83 15.18 8.25
5/22/2022 10:30:00 PM 17.7 63.86 0.62 7.82 14.02 8.21
5/22/2022 10:45:00 PM 17.66 63.788 0.621 7.81 15.68 8.19
5/22/2022 11:00:00 PM 17.62 63.716 0.622 7.81 15.35 8.15
5/22/2022 11:15:00 PM 17.6 63.68 0.623 7.81 14.46 8.11
5/22/2022 11:30:00 PM 17.57 63.626 0.623 7.8 15.78 8.09
5/22/2022 11:45:00 PM 17.54 63.572 0.623 7.8 16.57 8.07
5/23/2022 12:00:00 AM 17.51 63.518 0.623 7.8 16.24 8.05
5/23/2022 12:15:00 AM 17.48 63.464 0.623 7.79 17.39 8.02
5/23/2022 12:30:00 AM 17.45 63.41 0.622 7.79 14.83 8
5/23/2022 12:45:00 AM 17.43 63.374 0.621 7.78 14.59 7.96
5/23/2022 1:00:00 AM 17.41 63.338 0.62 7.77 15.73 7.92
5/23/2022 1:15:00 AM 17.39 63.302 0.618 7.77 15.06 7.89
5/23/2022 1:30:00 AM 17.37 63.266 0.617 7.76 16.89 7.87
5/23/2022 1:45:00 AM 17.35 63.23 0.616 7.76 15.05 7.84
5/23/2022 2:00:00 AM 17.32 63.176 0.615 7.75 15.05 7.83
5/23/2022 2:15:00 AM 17.29 63.122 0.614 7.75 14.15 7.82
5/23/2022 2:30:00 AM 17.25 63.05 0.612 7.75 14.58 7.81
5/23/2022 2:45:00 AM 17.21 62.978 0.61 7.75 13.99 7.81
5/23/2022 3:00:00 AM 17.18 62.924 0.608 7.75 16.1 7.8
5/23/2022 3:15:00 AM 17.14 62.852 0.606 7.74 16.69 7.78
5/23/2022 3:30:00 AM 17.1 62.78 0.603 7.74 17.66 7.78
5/23/2022 3:45:00 AM 17.07 62.726 0.601 7.74 19.51 7.76
5/23/2022 4:00:00 AM 17.02 62.636 0.598 7.73 19.03 7.76
5/23/2022 4:15:00 AM 16.97 62.546 0.595 7.73 19.58 7.75
5/23/2022 4:30:00 AM 16.93 62.474 0.59 7.72 19.6 7.71
5/23/2022 4:45:00 AM 16.89 62.402 0.584 7.71 20.51 7.69
5/23/2022 5:00:00 AM 16.85 62.33 0.577 7.71 20.99 7.63
5/23/2022 5:15:00 AM 16.81 62.258 0.571 7.7 23.89 7.6
5/23/2022 5:30:00 AM 16.76 62.168 0.565 7.69 23.12 7.53
5/23/2022 5:45:00 AM 16.74 62.132 0.558 7.68 25.64 7.46
5/23/2022 6:00:00 AM 16.72 62.096 0.551 7.67 27.87 7.4
5/23/2022 6:15:00 AM 16.68 62.024 0.547 7.66 27.18 7.38
5/23/2022 6:30:00 AM 16.63 61.934 0.545 7.65 27.17 7.39
5/23/2022 6:45:00 AM 16.58 61.844 0.545 7.65 27.01 7.43
5/23/2022 7:00:00 AM 16.53 61.754 0.546 7.65 26.24 7.48
5/23/2022 7:15:00 AM 16.48 61.664 0.546 7.66 26.42 7.56
5/23/2022 7:30:00 AM 16.43 61.574 0.548 7.66 26.04 7.67
5/23/2022 7:45:00 AM 16.36 61.448 0.553 7.67 24.37 7.8
5/23/2022 8:00:00 AM 16.31 61.358 0.558 7.68 24.36 7.96
5/23/2022 8:15:00 AM 16.28 61.304 0.562 7.69 24.46 8.15
5/23/2022 8:30:00 AM 16.23 61.214 0.566 7.7 22.51 8.32
5/23/2022 8:45:00 AM 16.16 61.088 0.569 7.71 22.41 8.4
5/23/2022 9:00:00 AM 16.11 60.998 0.572 7.72 21.25 8.51
5/23/2022 9:15:00 AM 16.08 60.944 0.575 7.73 19.25 8.67
5/23/2022 9:30:00 AM 16.12 61.016 0.578 7.75 19.95 8.91
5/23/2022 9:45:00 AM 16.14 61.052 0.58 7.76 18.52 9.16
5/23/2022 10:00:00 AM 16.17 61.106 0.581 7.79 18.14 9.38
5/23/2022 10:15:00 AM 16.19 61.142 0.583 7.8 17.65 9.56
5/23/2022 10:30:00 AM 16.24 61.232 0.584 7.82 18.37 9.74
5/23/2022 10:45:00 AM 16.3 61.34 0.586 7.84 18.28 9.93
5/23/2022 11:00:00 AM 16.36 61.448 0.587 7.86 18.05 10.11
5/23/2022 11:15:00 AM 16.41 61.538 0.589 7.88 17.49 10.29
5/23/2022 11:30:00 AM 16.48 61.664 0.59 7.89 16.89 10.45
5/23/2022 11:45:00 AM 16.54 61.772 0.591 7.91 17.32 10.59
5/23/2022 12:00:00 PM 16.63 61.934 0.592 7.93 16.38 10.73
5/23/2022 12:15:00 PM 16.73 62.114 0.593 7.94 17.21 10.9
5/23/2022 12:30:00 PM 16.81 62.258 0.594 7.96 15.71 11.03
5/23/2022 12:45:00 PM 16.91 62.438 0.595 7.98 16.84 11.18
5/23/2022 1:00:00 PM 16.96 62.528 0.596 8 15.22 11.28
5/23/2022 1:15:00 PM 16.96 62.528 0.597 8.01 16.22 11.36
5/23/2022 1:30:00 PM 16.96 62.528 0.597 8.02 15.5 11.4
5/23/2022 1:45:00 PM 16.9 62.42 0.598 8.03 16.25 11.39
5/23/2022 2:00:00 PM 16.9 62.42 0.599 8.03 18.41 11.41
5/23/2022 2:15:00 PM 16.91 62.438 0.6 8.04 16.12 11.47
5/23/2022 2:30:00 PM 16.88 62.384 0.601 8.05 20.11 11.47
5/23/2022 2:45:00 PM 16.91 62.438 0.602 8.05 23.58 11.47
5/23/2022 3:00:00 PM 16.97 62.546 0.603 8.06 17.39 11.52
5/23/2022 3:15:00 PM 16.99 62.582 0.604 8.07 16.22 11.53
5/23/2022 3:30:00 PM 17.01 62.618 0.605 8.08 16.88 11.53
5/23/2022 3:45:00 PM 17.02 62.636 0.606 8.08 16.69 11.46
5/23/2022 4:00:00 PM 16.99 62.582 0.607 8.08 17.38 11.38
5/23/2022 4:15:00 PM 16.95 62.51 0.608 8.08 17.91 11.29
5/23/2022 4:30:00 PM 16.92 62.456 0.608 8.07 14.5 11.19
5/23/2022 4:45:00 PM 16.88 62.384 0.609 8.06 13.76 11.1
5/23/2022 5:00:00 PM 16.84 62.312 0.61 8.06 13.61 10.99
5/23/2022 5:15:00 PM 16.81 62.258 0.611 8.05 13.1 10.88
5/23/2022 5:30:00 PM 16.79 62.222 0.612 8.04 13.18 10.77
5/23/2022 5:45:00 PM 16.76 62.168 0.612 8.03 13.06 10.67
5/23/2022 6:00:00 PM 16.75 62.15 0.613 8.03 14.26 10.59
5/23/2022 6:15:00 PM 16.72 62.096 0.613 8.02 13.7 10.49
5/23/2022 6:30:00 PM 16.68 62.024 0.614 8.01 13.82 10.36
5/23/2022 6:45:00 PM 16.64 61.952 0.615 8 14.29 10.25
5/23/2022 7:00:00 PM 16.6 61.88 0.616 7.99 13.92 10.12
5/23/2022 7:15:00 PM 16.55 61.79 0.616 7.98 14.66 10.01
5/23/2022 7:30:00 PM 16.51 61.718 0.617 7.97 14.46 9.9
5/23/2022 7:45:00 PM 16.46 61.628 0.618 7.96 14.59 9.76
5/23/2022 8:00:00 PM 16.41 61.538 0.618 7.95 15.22 9.64
5/23/2022 8:15:00 PM 16.36 61.448 0.619 7.93 15.67 9.52
5/23/2022 8:30:00 PM 16.32 61.376 0.62 7.92 16.08 9.4
5/23/2022 8:45:00 PM 16.27 61.286 0.62 7.91 16.01 9.32
5/23/2022 9:00:00 PM 16.23 61.214 0.621 7.9 17.15 9.23
5/23/2022 9:15:00 PM 16.18 61.124 0.622 7.89 17.12 9.15
5/23/2022 9:30:00 PM 16.14 61.052 0.622 7.88 17.69 9.08
5/23/2022 9:45:00 PM 16.11 60.998 0.623 7.88 17.76 9.01
5/23/2022 10:00:00 PM 16.07 60.926 0.624 7.87 17.34 8.95
5/23/2022 10:15:00 PM 16.04 60.872 0.624 7.86 16.64 8.89
5/23/2022 10:30:00 PM 16.01 60.818 0.625 7.85 17.86 8.83
5/23/2022 10:45:00 PM 15.98 60.764 0.625 7.85 18.2 8.77
5/23/2022 11:00:00 PM 15.95 60.71 0.625 7.84 19.12 8.74
5/23/2022 11:15:00 PM 15.92 60.656 0.626 7.84 17.92 8.69
5/23/2022 11:30:00 PM 15.89 60.602 0.626 7.83 18.26 8.67
5/23/2022 11:45:00 PM 15.86 60.548 0.626 7.83 19.4 8.63
5/24/2022 12:00:00 AM 15.84 60.512 0.626 7.83 20.48 8.61
5/24/2022 12:15:00 AM 15.81 60.458 0.627 7.82 20.59 8.58
5/24/2022 12:30:00 AM 15.78 60.404 0.627 7.82 20.49 8.56
5/24/2022 12:45:00 AM 15.75 60.35 0.627 7.82 21.74 8.56
5/24/2022 1:00:00 AM 15.73 60.314 0.626 7.81 21.13 8.56
5/24/2022 1:15:00 AM 15.75 60.35 0.627 7.81 20.12 8.54
5/24/2022 1:30:00 AM 15.79 60.422 0.63 7.81 21.64 8.54
5/24/2022 1:45:00 AM 15.8 60.44 0.632 7.81 21.01 8.5
5/24/2022 2:00:00 AM 15.79 60.422 0.634 7.81 20.98 8.5
5/24/2022 2:15:00 AM 15.78 60.404 0.617 7.8 22.2 8.49
5/24/2022 2:30:00 AM 15.76 60.368 0.635 7.8 23.01 8.48
5/24/2022 2:45:00 AM 15.73 60.314 0.635 7.8 21.84 8.48
5/24/2022 3:00:00 AM 15.71 60.278 0.635 7.8 23.6 8.47
5/24/2022 3:15:00 AM 15.68 60.224 0.635 7.8 22.53 8.47
5/24/2022 3:30:00 AM 15.66 60.188 0.635 7.8 22.05 8.47
5/24/2022 3:45:00 AM 15.63 60.134 0.635 7.79 13.57 8.47
5/24/2022 4:00:00 AM 15.61 60.098 0.635 7.79 13.45 8.47
5/24/2022 4:15:00 AM 15.58 60.044 0.635 7.79 11.56 8.46
5/24/2022 4:30:00 AM 15.56 60.008 0.635 7.79 12.6 8.46
5/24/2022 4:45:00 AM 15.52 59.936 0.635 7.79 13.74 8.44
5/24/2022 5:00:00 AM 15.48 59.864 0.635 7.79 12.73 8.42
5/24/2022 5:15:00 AM 15.42 59.756 0.635 7.78 14.01 8.41
5/24/2022 5:30:00 AM 15.35 59.63 0.634 7.78 12.86 8.41
5/24/2022 5:45:00 AM 15.29 59.522 0.633 7.78 12.52 8.43
5/24/2022 6:00:00 AM 15.23 59.414 0.632 7.78 13.1 8.44
5/24/2022 6:15:00 AM 15.19 59.342 0.631 7.78 12.98 8.45
5/24/2022 6:30:00 AM 15.15 59.27 0.63 7.77 13.17 8.46
5/24/2022 6:45:00 AM 15.12 59.216 0.63 7.78 13.47 8.48
5/24/2022 7:00:00 AM 15.09 59.162 0.63 7.78 13.67 8.53
5/24/2022 7:15:00 AM 15.07 59.126 0.629 7.78 14.22 8.59
5/24/2022 7:30:00 AM 15.05 59.09 0.63 7.78 13.09 8.65
5/24/2022 7:45:00 AM 15.02 59.036 0.631 7.79 12.81 8.71
5/24/2022 8:00:00 AM 15 59 0.631 7.79 12.4 8.76
5/24/2022 8:15:00 AM 14.99 58.982 0.632 7.8 12.32 8.86
5/24/2022 8:30:00 AM 14.97 58.946 0.632 7.8 12.31 8.94
5/24/2022 8:45:00 AM 14.97 58.946 0.632 7.81 13.56 9.02
5/24/2022 9:00:00 AM 14.96 58.928 0.632 7.81 11.96 9.13
5/24/2022 9:15:00 AM 14.98 58.964 0.633 7.82 11.78 9.29
5/24/2022 9:30:00 AM 15.01 59.018 0.633 7.84 12.52 9.49
5/24/2022 9:45:00 AM 15.05 59.09 0.633 7.85 12.03 9.69
5/24/2022 10:00:00 AM 15.1 59.18 0.633 7.87 12.53 9.88
5/24/2022 10:15:00 AM 15.17 59.306 0.633 7.88 11.36 10.08
5/24/2022 10:30:00 AM 15.21 59.378 0.633 7.9 11.58 10.27
5/24/2022 10:45:00 AM 15.26 59.468 0.633 7.91 11.73 10.41
5/24/2022 11:00:00 AM 15.24 59.432 0.633 7.92 10.79 10.41
5/24/2022 11:15:00 AM 15.22 59.396 0.633 7.91 11.74 10.37
5/24/2022 11:30:00 AM 15.22 59.396 0.632 7.92 11.72 10.42
5/24/2022 11:45:00 AM 15.2 59.36 0.632 7.92 11.48 10.45
5/24/2022 12:00:00 PM 15.19 59.342 0.632 7.93 12.31 10.49
5/24/2022 12:15:00 PM 15.23 59.414 0.632 7.94 12.52 10.62
5/24/2022 12:30:00 PM 15.26 59.468 0.631 7.95 12.64 10.76
5/24/2022 12:45:00 PM 15.3 59.54 0.631 7.96 13.09 10.85
5/24/2022 1:00:00 PM 15.29 59.522 0.631 7.97 12.58 10.84
5/24/2022 1:15:00 PM 15.26 59.468 0.631 7.96 12.74 10.73
5/24/2022 1:30:00 PM 15.22 59.396 0.631 7.96 12.54 10.62
5/24/2022 1:45:00 PM 15.19 59.342 0.631 7.95 13.14 10.55
5/24/2022 2:00:00 PM 15.16 59.288 0.631 7.95 12.65 10.5
5/24/2022 2:15:00 PM 15.13 59.234 0.63 7.94 13.59 10.45
5/24/2022 2:30:00 PM 15.12 59.216 0.631 7.94 13.69 10.4
5/24/2022 2:45:00 PM 15.12 59.216 0.631 7.94 12.77 10.42
5/24/2022 3:00:00 PM 15.12 59.216 0.631 7.95 12.82 10.42
5/24/2022 3:15:00 PM 15.12 59.216 0.632 7.95 12.64 10.42
5/24/2022 3:30:00 PM 15.12 59.216 0.632 7.95 13.81 10.45
5/24/2022 3:45:00 PM 15.12 59.216 0.632 7.96 13.65 10.44
5/24/2022 4:00:00 PM 15.11 59.198 0.631 7.96 13.19 10.45
5/24/2022 4:15:00 PM 15.11 59.198 0.632 7.96 15.43 10.44
5/24/2022 4:30:00 PM 15.11 59.198 0.632 7.96 13.14 10.44
5/24/2022 4:45:00 PM 15.12 59.216 0.631 7.96 13.59 10.48
5/24/2022 5:00:00 PM 15.14 59.252 0.631 7.96 13.35 10.54
5/24/2022 5:15:00 PM 15.17 59.306 0.63 7.97 13.38 10.62
5/24/2022 5:30:00 PM 15.18 59.324 0.63 7.97 13.45 10.66
5/24/2022 5:45:00 PM 15.2 59.36 0.63 7.98 13.37 10.69
5/24/2022 6:00:00 PM 15.2 59.36 0.631 7.98 14.45 10.66
5/24/2022 6:15:00 PM 15.19 59.342 0.631 7.97 14.51 10.63
5/24/2022 6:30:00 PM 15.19 59.342 0.631 7.97 13.37 10.6
5/24/2022 6:45:00 PM 15.18 59.324 0.631 7.97 14.23 10.55
5/24/2022 7:00:00 PM 15.17 59.306 0.631 7.97 13.84 10.48
5/24/2022 7:15:00 PM 15.15 59.27 0.631 7.97 14.96 10.4
5/24/2022 7:30:00 PM 15.12 59.216 0.631 7.96 15.21 10.29
5/24/2022 7:45:00 PM 15.09 59.162 0.631 7.95 14.21 10.19
5/24/2022 8:00:00 PM 15.06 59.108 0.632 7.94 14.98 10.08
5/24/2022 8:15:00 PM 15.04 59.072 0.632 7.93 14.22 9.98
5/24/2022 8:30:00 PM 15.01 59.018 0.633 7.92 15.96 9.85
5/24/2022 8:45:00 PM 14.98 58.964 0.633 7.91 15.32 9.75
5/24/2022 9:00:00 PM 14.96 58.928 0.633 7.9 14.97 9.65
5/24/2022 9:15:00 PM 14.95 58.91 0.633 7.89 16.19 9.56
5/24/2022 9:30:00 PM 14.93 58.874 0.634 7.89 16.35 9.5
5/24/2022 9:45:00 PM 14.91 58.838 0.634 7.88 16.2 9.44
5/24/2022 10:00:00 PM 14.9 58.82 0.634 7.87 16.01 9.38
5/24/2022 10:15:00 PM 14.88 58.784 0.634 7.87 16.24 9.33
5/24/2022 10:30:00 PM 14.86 58.748 0.634 7.86 13.54 9.27
5/24/2022 10:45:00 PM 14.85 58.73 0.634 7.85 14.56 9.23
5/24/2022 11:00:00 PM 14.83 58.694 0.634 7.85 14.51 9.19
5/24/2022 11:15:00 PM 14.81 58.658 0.635 7.84 15.49 9.16
5/24/2022 11:30:00 PM 14.79 58.622 0.634 7.83 15.44 9.13
5/24/2022 11:45:00 PM 14.77 58.586 0.634 7.83 15.8 9.09
5/25/2022 12:00:00 AM 14.76 58.568 0.635 7.82 14.87 9.06
5/25/2022 12:15:00 AM 14.74 58.532 0.634 7.82 15.99 9.04
5/25/2022 12:30:00 AM 14.73 58.514 0.634 7.81 15.88 9.03
5/25/2022 12:45:00 AM 14.71 58.478 0.634 7.81 15.29 8.99
5/25/2022 1:00:00 AM 14.7 58.46 0.634 7.81 17.29 8.98
5/25/2022 1:15:00 AM 14.68 58.424 0.618 7.81 18.6 8.96
5/25/2022 1:30:00 AM 14.67 58.406 0.628 7.81 18.79 8.94
5/25/2022 1:45:00 AM 14.65 58.37 0.634 7.8 19.61 8.92
5/25/2022 2:00:00 AM 14.64 58.352 0.634 7.8 18.11 8.91
5/25/2022 2:15:00 AM 14.63 58.334 0.635 7.8 18.56 8.9
5/25/2022 2:30:00 AM 14.62 58.316 0.635 7.8 16.75 8.88
5/25/2022 2:45:00 AM 14.6 58.28 0.635 7.8 15.78 8.88
5/25/2022 3:00:00 AM 14.58 58.244 0.635 7.8 18.58 8.87
5/25/2022 3:15:00 AM 14.57 58.226 0.635 7.79 14.88 8.86
5/25/2022 3:30:00 AM 14.55 58.19 0.635 7.79 15.78 8.86
5/25/2022 3:45:00 AM 14.53 58.154 0.635 7.79 17.41 8.86
5/25/2022 4:00:00 AM 14.51 58.118 0.635 7.79 16.3 8.86
5/25/2022 4:15:00 AM 14.49 58.082 0.635 7.79 15.81 8.85
5/25/2022 4:30:00 AM 14.48 58.064 0.635 7.79 17.11 8.85
5/25/2022 4:45:00 AM 14.46 58.028 0.635 7.79 17.75 8.84
5/25/2022 5:00:00 AM 14.44 57.992 0.636 7.79 18.1 8.84
5/25/2022 5:15:00 AM 14.42 57.956 0.636 7.79 18.31 8.84
5/25/2022 5:30:00 AM 14.4 57.92 0.635 7.79 18.77 8.85
5/25/2022 5:45:00 AM 14.37 57.866 0.636 7.79 18.21 8.86
5/25/2022 6:00:00 AM 14.35 57.83 0.635 7.79 17.95 8.86
5/25/2022 6:15:00 AM 14.33 57.794 0.636 7.79 18.37 8.87
5/25/2022 6:30:00 AM 14.31 57.758 0.636 7.79 16.99 8.91
5/25/2022 6:45:00 AM 14.29 57.722 0.636 7.79 17.65 8.94
5/25/2022 7:00:00 AM 14.28 57.704 0.635 7.8 16.88 9.02
5/25/2022 7:15:00 AM 14.28 57.704 0.635 7.8 16.44 9.11
5/25/2022 7:30:00 AM 14.28 57.704 0.635 7.81 16.27 9.22
5/25/2022 7:45:00 AM 14.29 57.722 0.636 7.82 16.81 9.33
5/25/2022 8:00:00 AM 14.3 57.74 0.636 7.83 16.72 9.46
5/25/2022 8:15:00 AM 14.33 57.794 0.636 7.84 16.37 9.6
5/25/2022 8:30:00 AM 14.37 57.866 0.636 7.85 16.53 9.76
5/25/2022 8:45:00 AM 14.42 57.956 0.636 7.86 15.66 9.92
5/25/2022 9:00:00 AM 14.47 58.046 0.636 7.88 15.53 10.06
5/25/2022 9:15:00 AM 14.54 58.172 0.636 7.89 15.35 10.21
5/25/2022 9:30:00 AM 14.61 58.298 0.636 7.9 16.14 10.36
5/25/2022 9:45:00 AM 14.66 58.388 0.636 7.91 15.44 10.49
5/25/2022 10:00:00 AM 14.72 58.496 0.635 7.92 15.94 10.58
5/25/2022 10:15:00 AM 14.81 58.658 0.635 7.93 16.24 10.74
5/25/2022 10:30:00 AM 14.92 58.856 0.635 7.95 16.06 10.87
5/25/2022 10:45:00 AM 15.02 59.036 0.634 7.96 16.1 11.03
5/25/2022 11:00:00 AM 15.16 59.288 0.634 7.98 17.05 11.15
5/25/2022 11:15:00 AM 15.28 59.504 0.634 7.99 16.43 11.26
5/25/2022 11:30:00 AM 15.37 59.666 0.634 8.01 15.32 11.39
5/25/2022 11:45:00 AM 15.46 59.828 0.634 8.02 15.08 11.5
5/25/2022 12:00:00 PM 15.52 59.936 0.633 8.03 15.61 11.62
5/25/2022 12:15:00 PM 15.59 60.062 0.633 8.04 17.07 11.71
5/25/2022 12:30:00 PM 15.65 60.17 0.633 8.06 22.42 11.84
5/25/2022 12:45:00 PM 15.71 60.278 0.633 8.07 17.17 11.93
5/25/2022 1:00:00 PM 15.79 60.422 0.633 8.08 18.02 12.03
5/25/2022 1:15:00 PM 15.85 60.53 0.633 8.1 16.97 12.11
5/25/2022 1:30:00 PM 15.94 60.692 0.633 8.11 15.35 12.18
5/25/2022 1:45:00 PM 16.03 60.854 0.633 8.12 15.32 12.26
5/25/2022 2:00:00 PM 16.11 60.998 0.633 8.13 15.65 12.32
5/25/2022 2:15:00 PM 16.17 61.106 0.632 8.14 15.16 12.36
5/25/2022 2:30:00 PM 16.21 61.178 0.633 8.14 15.19 12.37
5/25/2022 2:45:00 PM 16.27 61.286 0.632 8.15 14.93 12.39
5/25/2022 3:00:00 PM 16.34 61.412 0.633 8.15 16.09 12.41
5/25/2022 3:15:00 PM 16.41 61.538 0.633 8.16 18.65 12.41
5/25/2022 3:30:00 PM 16.49 61.682 0.633 8.16 17.43 12.4
5/25/2022 3:45:00 PM 16.58 61.844 0.633 8.16 18.71 12.37
5/25/2022 4:00:00 PM 16.64 61.952 0.633 8.16 21.88 12.31
5/25/2022 4:15:00 PM 16.69 62.042 0.633 8.16 17.83 12.24
5/25/2022 4:30:00 PM 16.72 62.096 0.633 8.16 18.37 12.16
5/25/2022 4:45:00 PM 16.71 62.078 0.633 8.16 46.22 12.05
5/25/2022 5:00:00 PM 16.69 62.042 0.633 8.15 17.46 11.92
5/25/2022 5:15:00 PM 16.66 61.988 0.633 8.14 17.92 11.77
5/25/2022 5:30:00 PM 16.65 61.97 0.632 8.13 18.77 11.67
5/25/2022 5:45:00 PM 16.63 61.934 0.632 8.13 17.38 11.56
5/25/2022 6:00:00 PM 16.6 61.88 0.632 8.12 17.5 11.45
5/25/2022 6:15:00 PM 16.59 61.862 0.633 8.11 17.79 11.31
5/25/2022 6:30:00 PM 16.57 61.826 0.632 8.1 18.24 11.16
5/25/2022 6:45:00 PM 16.56 61.808 0.632 8.09 18 11.03
5/25/2022 7:00:00 PM 16.55 61.79 0.633 8.08 20.37 10.87
5/25/2022 7:15:00 PM 16.52 61.736 0.633 8.06 20.23 10.71
5/25/2022 7:30:00 PM 16.5 61.7 0.633 8.05 20.65 10.55
5/25/2022 7:45:00 PM 16.47 61.646 0.633 8.04 20.37 10.39
5/25/2022 8:00:00 PM 16.44 61.592 0.633 8.02 19.36 10.21
5/25/2022 8:15:00 PM 16.41 61.538 0.633 8.01 19.85 10.02
5/25/2022 8:30:00 PM 16.39 61.502 0.633 7.99 21.16 9.87
5/25/2022 8:45:00 PM 16.36 61.448 0.633 7.98 20.67 9.73
5/25/2022 9:00:00 PM 16.33 61.394 0.633 7.96 20.59 9.61
5/25/2022 9:15:00 PM 16.31 61.358 0.633 7.95 21.64 9.5
5/25/2022 9:30:00 PM 16.28 61.304 0.634 7.94 21.47 9.4
5/25/2022 9:45:00 PM 16.25 61.25 0.633 7.93 21.48 9.3
5/25/2022 10:00:00 PM 16.21 61.178 0.634 7.91 23.57 9.21
5/25/2022 10:15:00 PM 16.17 61.106 0.634 7.9 23.51 9.13
5/25/2022 10:30:00 PM 16.14 61.052 0.635 7.89 25.75 9.06
5/25/2022 10:45:00 PM 16.11 60.998 0.635 7.89 20.35 8.99
5/25/2022 11:00:00 PM 16.09 60.962 0.635 7.88 18.48 8.93
5/25/2022 11:15:00 PM 16.07 60.926 0.636 7.87 12.44 8.88
5/25/2022 11:30:00 PM 16.06 60.908 0.636 7.87 13.18 8.82
5/25/2022 11:45:00 PM 16.03 60.854 0.636 7.86 16.06 8.78
5/26/2022 12:00:00 AM 16.01 60.818 0.634 7.86 11.69 8.74
5/26/2022 12:15:00 AM 15.99 60.782 0.633 7.86 15.05 8.69
5/26/2022 12:30:00 AM 15.96 60.728 0.633 7.85 8.57 8.62
5/26/2022 12:45:00 AM 15.93 60.674 0.634 7.84 7.93 8.56
5/26/2022 1:00:00 AM 15.89 60.602 0.636 7.84 8.12 8.53
5/26/2022 1:15:00 AM 15.84 60.512 0.637 7.83 8.67 8.5
5/26/2022 1:30:00 AM 15.8 60.44 0.638 7.82 24.47 8.49
5/26/2022 1:45:00 AM 15.76 60.368 0.638 7.82 7.85 8.46
5/26/2022 2:00:00 AM 15.73 60.314 0.638 7.82 47.34 8.47
5/26/2022 2:15:00 AM 15.71 60.278 0.637 7.81 93.07 8.48
5/26/2022 2:30:00 AM 15.69 60.242 0.637 7.81 122.3 8.49
5/26/2022 2:45:00 AM 15.67 60.206 0.637 7.81 47.62 8.5
5/26/2022 3:00:00 AM 15.64 60.152 0.638 7.8 7.26 8.5
5/26/2022 3:15:00 AM 15.62 60.116 0.638 7.8 8.77 8.5
5/26/2022 3:30:00 AM 15.59 60.062 0.638 7.8 8.68 8.5
5/26/2022 3:45:00 AM 15.57 60.026 0.638 7.8 99.41 8.49
5/26/2022 4:00:00 AM 15.54 59.972 0.639 7.8 107.2 8.5
5/26/2022 4:15:00 AM 15.51 59.918 0.639 7.79 7.02 8.49
5/26/2022 4:30:00 AM 15.48 59.864 0.639 7.79 11.59 8.49
5/26/2022 4:45:00 AM 15.45 59.81 0.639 7.79 29.26 8.49
5/26/2022 5:00:00 AM 15.41 59.738 0.639 7.79 6.93 8.49
5/26/2022 5:15:00 AM 15.37 59.666 0.639 7.79 8.92 8.49
5/26/2022 5:30:00 AM 15.32 59.576 0.639 7.79 8.7 8.5
5/26/2022 5:45:00 AM 15.28 59.504 0.639 7.79 8.23 8.5
5/26/2022 6:00:00 AM 15.25 59.45 0.639 7.79 9.49 8.51
5/26/2022 6:15:00 AM 15.22 59.396 0.639 7.79 54.62 8.53
5/26/2022 6:30:00 AM 15.2 59.36 0.639 7.79 8.53 8.56
5/26/2022 6:45:00 AM 15.18 59.324 0.639 7.79 6.71 8.61
5/26/2022 7:00:00 AM 15.16 59.288 0.639 7.79 7.55 8.68
5/26/2022 7:15:00 AM 15.15 59.27 0.639 7.8 5.98 8.76
5/26/2022 7:30:00 AM 15.14 59.252 0.639 7.8 5.27 8.86
5/26/2022 7:45:00 AM 15.14 59.252 0.639 7.81 6.59 8.96
5/26/2022 8:00:00 AM 15.14 59.252 0.639 7.82 5.78 9.1
5/26/2022 8:15:00 AM 15.13 59.234 0.639 7.82 5.15 9.19
5/26/2022 8:30:00 AM 15.15 59.27 0.639 7.84 4.28 9.35
5/26/2022 8:45:00 AM 15.15 59.27 0.639 7.85 4.73 9.48
5/26/2022 9:00:00 AM 15.17 59.306 0.639 7.86 3.75 9.64
5/26/2022 9:15:00 AM 15.2 59.36 0.639 7.87 4.11 9.81
5/26/2022 9:30:00 AM 15.22 59.396 0.639 7.88 3.99 9.95
5/26/2022 9:45:00 AM 15.24 59.432 0.639 7.9 4.14 10.08
5/26/2022 10:00:00 AM 15.28 59.504 0.639 7.91 3.99 10.23
5/26/2022 10:15:00 AM 15.31 59.558 0.639 7.92 4.95 10.36
5/26/2022 10:30:00 AM 15.29 59.522 0.639 7.93 3.44 10.39
5/26/2022 10:45:00 AM 15.3 59.54 0.639 7.93 3.98 10.45
5/26/2022 11:00:00 AM 15.34 59.612 0.639 7.94 3.43 10.59
5/26/2022 11:15:00 AM 15.42 59.756 0.639 7.96 4.32 10.76
5/26/2022 11:30:00 AM 15.46 59.828 0.639 7.98 3.42 10.89
5/26/2022 11:45:00 AM 15.48 59.864 0.639 7.99 3.99 10.96
5/26/2022 12:00:00 PM 15.51 59.918 0.639 7.99 4.98 11.03
5/26/2022 12:15:00 PM 15.54 59.972 0.639 8 5.3 11.1
5/26/2022 12:30:00 PM 15.54 59.972 0.638 8.01 4.02 11.15
5/26/2022 12:45:00 PM 15.54 59.972 0.638 8.01 3.94 11.19
5/26/2022 1:00:00 PM 15.56 60.008 0.638 8.02 3.71 11.22
5/26/2022 1:15:00 PM 15.58 60.044 0.638 8.03 3.55 11.26
5/26/2022 1:30:00 PM 15.6 60.08 0.638 8.03 3.21 11.26
5/26/2022 1:45:00 PM 15.62 60.116 0.638 8.04 3.65 11.32
5/26/2022 2:00:00 PM 15.65 60.17 0.638 8.05 4.45 11.36
5/26/2022 2:15:00 PM 15.71 60.278 0.637 8.06 3.7 11.45
5/26/2022 2:30:00 PM 15.72 60.296 0.637 8.06 3.84 11.44
5/26/2022 2:45:00 PM 15.72 60.296 0.637 8.06 3.84 11.41
5/26/2022 3:00:00 PM 15.72 60.296 0.637 8.06 3.95 11.37
5/26/2022 3:15:00 PM 15.73 60.314 0.637 8.06 3.74 11.35
5/26/2022 3:30:00 PM 15.75 60.35 0.637 8.07 3.5 11.34
5/26/2022 3:45:00 PM 15.76 60.368 0.637 8.07 3.98 11.32
5/26/2022 4:00:00 PM 15.75 60.35 0.637 8.07 3.24 11.28
5/26/2022 4:15:00 PM 15.76 60.368 0.637 8.06 3.13 11.2
5/26/2022 4:30:00 PM 15.79 60.422 0.637 8.07 4.17 11.22
5/26/2022 4:45:00 PM 15.8 60.44 0.638 8.07 4.35 11.19
5/26/2022 5:00:00 PM 15.8 60.44 0.638 8.07 3.53 11.13
5/26/2022 5:15:00 PM 15.79 60.422 0.638 8.06 3.88 11.01
5/26/2022 5:30:00 PM 15.78 60.404 0.638 8.05 3.91 10.86
5/26/2022 5:45:00 PM 15.76 60.368 0.638 8.04 3.67 10.72
5/26/2022 6:00:00 PM 15.75 60.35 0.639 8.03 4.09 10.59
5/26/2022 6:15:00 PM 15.74 60.332 0.639 8.02 3.83 10.51
5/26/2022 6:30:00 PM 15.74 60.332 0.639 8.01 4.06 10.46
5/26/2022 6:45:00 PM 15.73 60.314 0.639 8.01 4.15 10.36
5/26/2022 7:00:00 PM 15.73 60.314 0.639 8 4.93 10.26
5/26/2022 7:15:00 PM 15.72 60.296 0.639 7.99 4.88 10.15
5/26/2022 7:30:00 PM 15.7 60.26 0.64 7.98 4.75 10.04
5/26/2022 7:45:00 PM 15.69 60.242 0.64 7.96 4.67 9.91
5/26/2022 8:00:00 PM 15.68 60.224 0.64 7.95 5.44 9.79
5/26/2022 8:15:00 PM 15.67 60.206 0.64 7.94 4.51 9.67
5/26/2022 8:30:00 PM 15.65 60.17 0.64 7.93 5.2 9.57
5/26/2022 8:45:00 PM 15.63 60.134 0.64 7.92 4.97 9.47
5/26/2022 9:00:00 PM 15.62 60.116 0.64 7.91 7.68 9.39
5/26/2022 9:15:00 PM 15.62 60.116 0.64 7.9 6.36 9.32
5/26/2022 9:30:00 PM 15.61 60.098 0.64 7.9 6.85 9.27
5/26/2022 9:45:00 PM 15.6 60.08 0.64 7.89 6.46 9.21
5/26/2022 10:00:00 PM 15.59 60.062 0.641 7.88 6.8 9.15
5/26/2022 10:15:00 PM 15.59 60.062 0.641 7.88 7.9 9.1
5/26/2022 10:30:00 PM 15.58 60.044 0.641 7.87 7.93 9.05
5/26/2022 10:45:00 PM 15.57 60.026 0.641 7.86 7.3 9.01
5/26/2022 11:00:00 PM 15.57 60.026 0.641 7.86 8.22 8.96
5/26/2022 11:15:00 PM 15.57 60.026 0.641 7.85 8.55 8.92
5/26/2022 11:30:00 PM 15.57 60.026 0.64 7.85 8.19 8.89
5/26/2022 11:45:00 PM 15.56 60.008 0.64 7.84 8.23 8.85
5/27/2022 12:00:00 AM 15.55 59.99 0.64 7.84 6.93 8.81
5/27/2022 12:15:00 AM 15.54 59.972 0.64 7.83 7.67 8.8
5/27/2022 12:30:00 AM 15.53 59.954 0.64 7.83 8.52 8.75
5/27/2022 12:45:00 AM 15.52 59.936 0.64 7.83 7.83 8.74
5/27/2022 1:00:00 AM 15.51 59.918 0.64 7.82 7.57 8.71
5/27/2022 1:15:00 AM 15.5 59.9 0.64 7.82 9.55 8.7
5/27/2022 1:30:00 AM 15.49 59.882 0.64 7.81 8.42 8.69
5/27/2022 1:45:00 AM 15.49 59.882 0.64 7.81 8.15 8.65
5/27/2022 2:00:00 AM 15.49 59.882 0.64 7.81 7.48 8.64
5/27/2022 2:15:00 AM 15.47 59.846 0.64 7.81 8.23 8.62
5/27/2022 2:30:00 AM 15.46 59.828 0.64 7.8 8.63 8.61
5/27/2022 2:45:00 AM 15.45 59.81 0.64 7.8 9.12 8.6
5/27/2022 3:00:00 AM 15.44 59.792 0.64 7.79 8.04 8.58
5/27/2022 3:15:00 AM 15.42 59.756 0.64 7.79 9.75 8.58
5/27/2022 3:30:00 AM 15.41 59.738 0.64 7.79 9.18 8.58
5/27/2022 3:45:00 AM 15.4 59.72 0.64 7.78 9.55 8.57
5/27/2022 4:00:00 AM 15.39 59.702 0.64 7.78 10.2 8.56
5/27/2022 4:15:00 AM 15.39 59.702 0.64 7.78 8.14 8.55
5/27/2022 4:30:00 AM 15.38 59.684 0.64 7.78 9.72 8.54
5/27/2022 4:45:00 AM 15.37 59.666 0.64 7.77 10.05 8.53
5/27/2022 5:00:00 AM 15.36 59.648 0.64 7.77 8.33 8.53
5/27/2022 5:15:00 AM 15.35 59.63 0.64 7.77 9.33 8.52
5/27/2022 5:30:00 AM 15.35 59.63 0.64 7.77 10.17 8.51
5/27/2022 5:45:00 AM 15.34 59.612 0.64 7.77 10.13 8.52
5/27/2022 6:00:00 AM 15.34 59.612 0.64 7.77 8.82 8.52
5/27/2022 6:15:00 AM 15.34 59.612 0.64 7.77 8.33 8.51
5/27/2022 6:30:00 AM 15.34 59.612 0.64 7.77 7.84 8.53
5/27/2022 6:45:00 AM 15.33 59.594 0.64 7.77 7.38 8.54
5/27/2022 7:00:00 AM 15.33 59.594 0.64 7.77 8.8 8.55
5/27/2022 7:15:00 AM 15.33 59.594 0.64 7.77 7.3 8.57
5/27/2022 7:30:00 AM 15.33 59.594 0.64 7.78 6.83 8.62
5/27/2022 7:45:00 AM 15.33 59.594 0.64 7.78 8.26 8.66
5/27/2022 8:00:00 AM 15.34 59.612 0.639 7.78 7.43 8.69
5/27/2022 8:15:00 AM 15.34 59.612 0.639 7.78 5.67 8.73
5/27/2022 8:30:00 AM 15.34 59.612 0.639 7.79 6.46 8.77
5/27/2022 8:45:00 AM 15.35 59.63 0.639 7.79 6.29 8.81
5/27/2022 9:00:00 AM 15.35 59.63 0.639 7.79 6.26 8.82
5/27/2022 9:15:00 AM 15.36 59.648 0.638 7.79 5.4 8.87
5/27/2022 9:30:00 AM 15.38 59.684 0.638 7.8 6.24 9.01
5/27/2022 9:45:00 AM 15.39 59.702 0.638 7.81 5.12 9.09
5/27/2022 10:00:00 AM 15.41 59.738 0.638 7.82 5.48 9.17
5/27/2022 10:15:00 AM 15.43 59.774 0.638 7.82 5.19 9.25
5/27/2022 10:30:00 AM 15.45 59.81 0.638 7.83 7.1 9.33
5/27/2022 10:45:00 AM 15.48 59.864 0.638 7.84 6.54 9.42
5/27/2022 11:00:00 AM 15.5 59.9 0.638 7.84 5.78 9.48
5/27/2022 11:15:00 AM 15.51 59.918 0.638 7.85 5.21 9.5
5/27/2022 11:30:00 AM 15.53 59.954 0.638 7.85 5.89 9.54
5/27/2022 11:45:00 AM 15.55 59.99 0.638 7.86 5.22 9.58
5/27/2022 12:00:00 PM 15.57 60.026 0.638 7.87 5.09 9.62
5/27/2022 12:15:00 PM 15.59 60.062 0.638 7.87 6.02 9.69
5/27/2022 12:30:00 PM 15.66 60.188 0.638 7.88 5.93 9.85
5/27/2022 12:45:00 PM 15.71 60.278 0.638 7.9 5.21 9.99
5/27/2022 1:00:00 PM 15.74 60.332 0.637 7.91 5.21 10.07
5/27/2022 1:15:00 PM 15.81 60.458 0.637 7.92 4.79 10.25
5/27/2022 1:30:00 PM 15.88 60.584 0.632 7.94 7.59 10.24
5/27/2022 1:45:00 PM 15.9 60.62 0.63 7.94 5.25 10.13
5/27/2022 2:00:00 PM 15.89 60.602 0.63 7.94 6.89 10.09
5/27/2022 2:15:00 PM 15.87 60.566 0.629 7.93 19.02 10
5/27/2022 2:30:00 PM 15.87 60.566 0.63 7.93 11.05 10.04
5/27/2022 2:45:00 PM 15.88 60.584 0.631 7.94 8.41 10.13
5/27/2022 3:00:00 PM 15.9 60.62 0.631 7.95 7.27 10.25
5/27/2022 3:15:00 PM 15.93 60.674 0.631 7.96 7.27 10.35
5/27/2022 3:30:00 PM 15.96 60.728 0.631 7.97 6.43 10.44
5/27/2022 3:45:00 PM 16.02 60.836 0.631 7.98 5.92 10.56
5/27/2022 4:00:00 PM 16.06 60.908 0.631 7.99 6.49 10.68
5/27/2022 4:15:00 PM 16.1 60.98 0.631 8 5.87 10.76
5/27/2022 4:30:00 PM 16.14 61.052 0.631 8 5.63 10.79
5/27/2022 4:45:00 PM 16.17 61.106 0.63 8.01 6.02 10.79
5/27/2022 5:00:00 PM 16.18 61.124 0.63 8.01 5.24 10.76
5/27/2022 5:15:00 PM 16.19 61.142 0.63 8.01 5.95 10.76
5/27/2022 5:30:00 PM 16.19 61.142 0.63 8.01 5.97 10.66
5/27/2022 5:45:00 PM 16.19 61.142 0.63 8 5.94 10.55
5/27/2022 6:00:00 PM 16.21 61.178 0.63 8 6.57 10.51
5/27/2022 6:15:00 PM 16.21 61.178 0.63 8 6.03 10.48
5/27/2022 6:30:00 PM 16.19 61.142 0.63 8 5.99 10.41
5/27/2022 6:45:00 PM 16.19 61.142 0.63 7.99 6.6 10.33
5/27/2022 7:00:00 PM 16.17 61.106 0.63 7.99 6.05 10.23
5/27/2022 7:15:00 PM 16.16 61.088 0.629 7.98 6.71 10.13
5/27/2022 7:30:00 PM 16.16 61.088 0.628 7.97 6.18 10.04
5/27/2022 7:45:00 PM 16.15 61.07 0.627 7.95 6.79 9.89
5/27/2022 8:00:00 PM 16.14 61.052 0.627 7.94 6.88 9.76
5/27/2022 8:15:00 PM 16.12 61.016 0.627 7.93 6.71 9.63
5/27/2022 8:30:00 PM 16.1 60.98 0.627 7.91 8.09 9.51
5/27/2022 8:45:00 PM 16.08 60.944 0.628 7.9 8.03 9.39
5/27/2022 9:00:00 PM 16.05 60.89 0.629 7.89 7.87 9.29
5/27/2022 9:15:00 PM 16.01 60.818 0.631 7.88 8.86 9.18
5/27/2022 9:30:00 PM 15.98 60.764 0.632 7.87 7.24 9.11
5/27/2022 9:45:00 PM 15.96 60.728 0.633 7.87 8.51 9.03
5/27/2022 10:00:00 PM 15.93 60.674 0.634 7.86 8.77 8.98
5/27/2022 10:15:00 PM 15.91 60.638 0.634 7.85 10.41 8.9
5/27/2022 10:30:00 PM 15.88 60.584 0.635 7.85 8.88 8.86
5/27/2022 10:45:00 PM 15.87 60.566 0.635 7.85 9.2 8.82
5/27/2022 11:00:00 PM 15.87 60.566 0.635 7.84 9.08 8.79
5/27/2022 11:15:00 PM 15.87 60.566 0.635 7.84 9.99 8.76
5/27/2022 11:30:00 PM 15.87 60.566 0.635 7.83 9.19 8.73
5/27/2022 11:45:00 PM 15.86 60.548 0.635 7.82 11.03 8.7
5/28/2022 12:00:00 AM 15.86 60.548 0.635 7.82 10.16 8.66
5/28/2022 12:15:00 AM 15.85 60.53 0.634 7.82 10.27 8.62
5/28/2022 12:30:00 AM 15.84 60.512 0.634 7.81 9.41 8.59
5/28/2022 12:45:00 AM 15.84 60.512 0.634 7.81 10.33 8.56
5/28/2022 1:00:00 AM 15.83 60.494 0.635 7.8 10.66 8.53
5/28/2022 1:15:00 AM 15.83 60.494 0.635 7.8 10.08 8.51
5/28/2022 1:30:00 AM 15.82 60.476 0.635 7.79 11.42 8.48
5/28/2022 1:45:00 AM 15.81 60.458 0.62 7.79 11.36 8.46
5/28/2022 2:00:00 AM 15.8 60.44 0.634 7.79 10.09 8.45
5/28/2022 2:15:00 AM 15.78 60.404 0.623 7.78 9.85 8.43
5/28/2022 2:30:00 AM 15.77 60.386 0.55 7.78 10.61 8.42
5/28/2022 2:45:00 AM 15.75 60.35 0.637 7.78 11.24 8.39
5/28/2022 3:00:00 AM 15.73 60.314 0.637 7.77 9.46 8.4
5/28/2022 3:15:00 AM 15.71 60.278 0.636 7.77 10.26 8.38
5/28/2022 3:30:00 AM 15.69 60.242 0.634 7.76 9.89 8.34
5/28/2022 3:45:00 AM 15.67 60.206 0.617 7.75 11.16 8.33
5/28/2022 4:00:00 AM 15.66 60.188 0.626 7.74 9.97 8.3
5/28/2022 4:15:00 AM 15.65 60.17 0.622 7.74 10.73 8.26
5/28/2022 4:30:00 AM 15.65 60.17 0.596 7.73 10.74 8.22
5/28/2022 4:45:00 AM 15.65 60.17 0.607 7.72 10.02 8.19
5/28/2022 5:00:00 AM 15.64 60.152 0.614 7.72 11.11 8.16
5/28/2022 5:15:00 AM 15.63 60.134 0.611 7.71 11.93 8.14
5/28/2022 5:30:00 AM 15.62 60.116 0.609 7.71 10.67 8.12
5/28/2022 5:45:00 AM 15.61 60.098 0.607 7.7 9.85 8.11
5/28/2022 6:00:00 AM 15.59 60.062 0.606 7.7 10.07 8.11
5/28/2022 6:15:00 AM 15.59 60.062 0.606 7.7 10.09 8.11
5/28/2022 6:30:00 AM 15.58 60.044 0.607 7.7 10.95 8.15
5/28/2022 6:45:00 AM 15.57 60.026 0.608 7.7 9.21 8.21
5/28/2022 7:00:00 AM 15.57 60.026 0.61 7.71 8.7 8.27
5/28/2022 7:15:00 AM 15.58 60.044 0.611 7.72 9.48 8.35
5/28/2022 7:30:00 AM 15.59 60.062 0.613 7.72 9.45 8.49
5/28/2022 7:45:00 AM 15.59 60.062 0.614 7.73 8.43 8.58
5/28/2022 8:00:00 AM 15.58 60.044 0.616 7.74 8.2 8.64
5/28/2022 8:15:00 AM 15.58 60.044 0.617 7.75 8.1 8.76
5/28/2022 8:30:00 AM 15.6 60.08 0.618 7.76 9.07 8.89
5/28/2022 8:45:00 AM 15.61 60.098 0.619 7.77 8.46 9.02
5/28/2022 9:00:00 AM 15.62 60.116 0.62 7.78 7.18 9.14
5/28/2022 9:15:00 AM 15.64 60.152 0.62 7.79 7.4 9.27
5/28/2022 9:30:00 AM 15.67 60.206 0.621 7.81 7.6 9.43
5/28/2022 9:45:00 AM 15.7 60.26 0.622 7.82 6.47 9.6
5/28/2022 10:00:00 AM 15.76 60.368 0.622 7.84 7.06 9.79
5/28/2022 10:15:00 AM 15.87 60.566 0.623 7.86 6.73 10.01
5/28/2022 10:30:00 AM 15.99 60.782 0.623 7.88 6.76 10.22
5/28/2022 10:45:00 AM 16.07 60.926 0.624 7.9 6.8 10.39
5/28/2022 11:00:00 AM 16.07 60.926 0.624 7.91 6.62 10.43
5/28/2022 11:15:00 AM 16.06 60.908 0.625 7.91 8.15 10.44
5/28/2022 11:30:00 AM 16.09 60.962 0.625 7.92 6.45 10.5
5/28/2022 11:45:00 AM 16.11 60.998 0.626 7.93 6.31 10.57
5/28/2022 12:00:00 PM 16.18 61.124 0.626 7.94 6.46 10.74
5/28/2022 12:15:00 PM 16.23 61.214 0.626 7.96 6.79 10.84
5/28/2022 12:30:00 PM 16.27 61.286 0.627 7.98 6.97 10.95
5/28/2022 12:45:00 PM 16.29 61.322 0.627 7.98 6.83 10.96
5/28/2022 1:00:00 PM 16.33 61.394 0.627 7.99 6.33 11.02
5/28/2022 1:15:00 PM 16.41 61.538 0.627 8 6.01 11.14
5/28/2022 1:30:00 PM 16.57 61.826 0.627 8.02 6.53 11.3
5/28/2022 1:45:00 PM 16.61 61.898 0.628 8.03 7.54 11.36
5/28/2022 2:00:00 PM 16.59 61.862 0.628 8.04 6.16 11.28
5/28/2022 2:15:00 PM 16.55 61.79 0.628 8.03 7.46 11.08
5/28/2022 2:30:00 PM 16.64 61.952 0.628 8.03 7.11 11.03
5/28/2022 2:45:00 PM 16.78 62.204 0.628 8.04 6.45 11.16
5/28/2022 3:00:00 PM 16.88 62.384 0.626 8.05 6.34 11.27
5/28/2022 3:15:00 PM 17.02 62.636 0.628 8.07 6.52 11.43
5/28/2022 3:30:00 PM 17.11 62.798 0.628 8.08 5.83 11.47
5/28/2022 3:45:00 PM 17.13 62.834 0.629 8.08 8.71 11.45
5/28/2022 4:00:00 PM 17.14 62.852 0.629 8.08 7.13 11.39
5/28/2022 4:15:00 PM 17.13 62.834 0.63 8.08 6.25 11.33
5/28/2022 4:30:00 PM 17.16 62.888 0.63 8.08 6.05 11.31
5/28/2022 4:45:00 PM 17.16 62.888 0.63 8.08 5.99 11.28
5/28/2022 5:00:00 PM 17.14 62.852 0.631 8.08 6.22 11.19
5/28/2022 5:15:00 PM 17.09 62.762 0.631 8.07 5.5 11.06
5/28/2022 5:30:00 PM 17.03 62.654 0.631 8.06 5.96 10.92
5/28/2022 5:45:00 PM 16.98 62.564 0.632 8.06 6.6 10.79
5/28/2022 6:00:00 PM 16.94 62.492 0.632 8.05 5.99 10.66
5/28/2022 6:15:00 PM 16.89 62.402 0.632 8.04 6.28 10.54
5/28/2022 6:30:00 PM 16.84 62.312 0.632 8.03 6.08 10.4
5/28/2022 6:45:00 PM 16.78 62.204 0.632 8.02 6.4 10.28
5/28/2022 7:00:00 PM 16.76 62.168 0.633 8.01 5.98 10.18
5/28/2022 7:15:00 PM 16.75 62.15 0.633 8 6.2 10.1
5/28/2022 7:30:00 PM 16.72 62.096 0.633 8 7.06 9.97
5/28/2022 7:45:00 PM 16.69 62.042 0.634 7.98 7.2 9.84
5/28/2022 8:00:00 PM 16.65 61.97 0.615 7.97 6.69 9.72
5/28/2022 8:15:00 PM 16.61 61.898 0.628 7.96 7.29 9.58
5/28/2022 8:30:00 PM 16.58 61.844 0.62 7.95 7.71 9.47
5/28/2022 8:45:00 PM 16.55 61.79 0.632 7.94 7.59 9.36
5/28/2022 9:00:00 PM 16.52 61.736 0.632 7.92 7.93 9.25
5/28/2022 9:15:00 PM 16.5 61.7 0.634 7.91 8.51 9.16
5/28/2022 9:30:00 PM 16.48 61.664 0.634 7.9 8.61 9.07
5/28/2022 9:45:00 PM 16.46 61.628 0.633 7.89 9.73 8.99
5/28/2022 10:00:00 PM 16.44 61.592 0.633 7.88 9.18 8.93
5/28/2022 10:15:00 PM 16.42 61.556 0.635 7.87 11.44 8.87
5/28/2022 10:30:00 PM 16.4 61.52 0.612 7.86 8.49 8.83
5/28/2022 10:45:00 PM 16.38 61.484 0.628 7.86 9.4 8.77
5/28/2022 11:00:00 PM 16.35 61.43 0.632 7.85 8.93 8.72
5/28/2022 11:15:00 PM 16.32 61.376 0.608 7.84 9.13 8.68
5/28/2022 11:30:00 PM 16.28 61.304 0.552 7.84 9.24 8.65
5/28/2022 11:45:00 PM 16.24 61.232 0.608 7.83 9.79 8.6
5/29/2022 12:00:00 AM 16.21 61.178 0.636 7.82 9.32 8.58
5/29/2022 12:15:00 AM 16.17 61.106 0.639 7.82 10 8.55
5/29/2022 12:30:00 AM 16.14 61.052 0.64 7.82 10.13 8.52
5/29/2022 12:45:00 AM 16.11 60.998 0.64 7.81 8.83 8.5
5/29/2022 1:00:00 AM 16.08 60.944 0.639 7.81 8.85 8.48
5/29/2022 1:15:00 AM 16.05 60.89 0.64 7.81 7.89 8.47
5/29/2022 1:30:00 AM 16.01 60.818 0.635 7.8 7.72 8.45
5/29/2022 1:45:00 AM 15.97 60.746 0.64 7.8 7.61 8.43
5/29/2022 2:00:00 AM 15.93 60.674 0.64 7.79 7.89 8.42
5/29/2022 2:15:00 AM 15.9 60.62 0.639 7.79 9.06 8.43
5/29/2022 2:30:00 AM 15.86 60.548 0.575 7.79 7.58 8.42
5/29/2022 2:45:00 AM 15.82 60.476 0.576 7.79 8.01 8.41
5/29/2022 3:00:00 AM 15.78 60.404 0.64 7.79 8.24 8.41
5/29/2022 3:15:00 AM 15.75 60.35 0.617 7.78 7.98 8.39
5/29/2022 3:30:00 AM 15.72 60.296 0.639 7.78 7.97 8.4
5/29/2022 3:45:00 AM 15.69 60.242 0.64 7.78 8.23 8.39
5/29/2022 4:00:00 AM 15.66 60.188 0.638 7.78 8.91 8.39
5/29/2022 4:15:00 AM 15.64 60.152 0.64 7.78 8.92 8.4
5/29/2022 4:30:00 AM 15.61 60.098 0.632 7.78 8 8.4
5/29/2022 4:45:00 AM 15.59 60.062 0.583 7.78 8.22 8.41
5/29/2022 5:00:00 AM 15.57 60.026 0.64 7.78 9.78 8.4
5/29/2022 5:15:00 AM 15.55 59.99 0.636 7.78 8.33 8.41
5/29/2022 5:30:00 AM 15.53 59.954 0.636 7.78 8.52 8.41
5/29/2022 5:45:00 AM 15.5 59.9 0.628 7.78 8.65 8.42
5/29/2022 6:00:00 AM 15.47 59.846 0.628 7.78 9.55 8.43
5/29/2022 6:15:00 AM 15.45 59.81 0.631 7.78 8.07 8.45
5/29/2022 6:30:00 AM 15.42 59.756 0.637 7.78 7.92 8.48
5/29/2022 6:45:00 AM 15.4 59.72 0.637 7.78 7.16 8.51
5/29/2022 7:00:00 AM 15.39 59.702 0.637 7.78 20.97 8.59
5/29/2022 7:15:00 AM 15.39 59.702 0.639 7.78 8.65 8.67
5/29/2022 7:30:00 AM 15.4 59.72 0.639 7.79 6.8 8.78
5/29/2022 7:45:00 AM 15.42 59.756 0.639 7.8 9.12 8.9
5/29/2022 8:00:00 AM 15.45 59.81 0.639 7.81 6.56 9.05
5/29/2022 8:15:00 AM 15.5 59.9 0.638 7.82 17.99 9.21
5/29/2022 8:30:00 AM 15.56 60.008 0.637 7.83 5.38 9.39
5/29/2022 8:45:00 AM 15.61 60.098 0.638 7.85 5.66 9.53
5/29/2022 9:00:00 AM 15.69 60.242 0.638 7.86 4.92 9.69
5/29/2022 9:15:00 AM 15.78 60.404 0.638 7.87 13.4 9.87
5/29/2022 9:30:00 AM 15.87 60.566 0.638 7.89 15.31 10.03
5/29/2022 9:45:00 AM 15.95 60.71 0.638 7.9 4.38 10.2
5/29/2022 10:00:00 AM 15.98 60.764 0.635 7.91 12.1 10.29
5/29/2022 10:15:00 AM 16.01 60.818 0.637 7.92 4.82 10.32
5/29/2022 10:30:00 AM 16.09 60.962 0.639 7.93 5.11 10.42
5/29/2022 10:45:00 AM 16.18 61.124 0.639 7.94 10.59 10.56
5/29/2022 11:00:00 AM 16.25 61.25 0.638 7.95 4.91 10.66
5/29/2022 11:15:00 AM 16.31 61.358 0.636 7.96 4.51 10.72
5/29/2022 11:30:00 AM 16.38 61.484 0.639 7.97 6.94 10.78
5/29/2022 11:45:00 AM 16.52 61.736 0.639 7.99 4.34 10.98
5/29/2022 12:00:00 PM 16.66 61.988 0.639 8.01 4.56 11.14
5/29/2022 12:15:00 PM 16.85 62.33 0.635 8.03 5.88 11.34
5/29/2022 12:30:00 PM 16.98 62.564 0.636 8.04 5.61 11.46
5/29/2022 12:45:00 PM 17.09 62.762 0.633 8.06 4.62 11.54
5/29/2022 1:00:00 PM 17.24 63.032 0.636 8.07 30.7 11.65
5/29/2022 1:15:00 PM 17.3 63.14 0.636 8.08 4.5 11.67
5/29/2022 1:30:00 PM 17.34 63.212 0.638 8.09 8.91 11.69
5/29/2022 1:45:00 PM 17.34 63.212 0.639 8.09 38.61 11.68
5/29/2022 2:00:00 PM 17.4 63.32 0.617 8.1 16.82 11.7
5/29/2022 2:15:00 PM 17.43 63.374 0.638 8.1 26.75 11.7
5/29/2022 2:30:00 PM 17.53 63.554 0.638 8.11 6.4 11.75
5/29/2022 2:45:00 PM 17.69 63.842 0.638 8.12 80.33 11.83
5/29/2022 3:00:00 PM 17.78 64.004 0.638 8.13 66.41 11.86
5/29/2022 3:15:00 PM 17.83 64.094 0.635 8.13 4.56 11.86
5/29/2022 3:30:00 PM 17.88 64.184 0.635 8.13 4.28 11.85
5/29/2022 3:45:00 PM 17.88 64.184 0.552 8.13 4.5 11.79
5/29/2022 4:00:00 PM 17.91 64.238 0.559 8.13 3.86 11.74
5/29/2022 4:15:00 PM 17.95 64.31 0.602 8.13 4.26 11.71
5/29/2022 4:30:00 PM 17.93 64.274 0.631 8.13 4.98 11.6
5/29/2022 4:45:00 PM 17.9 64.22 0.638 8.13 13.36 11.5
5/29/2022 5:00:00 PM 17.87 64.166 0.634 8.12 5.35 11.41
5/29/2022 5:15:00 PM 17.85 64.13 0.639 8.11 9.87 11.32
5/29/2022 5:30:00 PM 17.82 64.076 0.64 8.1 4.3 11.21
5/29/2022 5:45:00 PM 17.8 64.04 0.64 8.1 4.66 11.07
5/29/2022 6:00:00 PM 17.78 64.004 0.641 8.09 4.3 10.93
5/29/2022 6:15:00 PM 17.75 63.95 0.639 8.08 4.34 10.78
5/29/2022 6:30:00 PM 17.7 63.86 0.64 8.07 4.67 10.61
5/29/2022 6:45:00 PM 17.66 63.788 0.639 8.05 5.18 10.44
5/29/2022 7:00:00 PM 17.62 63.716 0.64 8.04 5.23 10.28
5/29/2022 7:15:00 PM 17.58 63.644 0.64 8.03 4.14 10.12
5/29/2022 7:30:00 PM 17.53 63.554 0.639 8.02 5.33 9.98
5/29/2022 7:45:00 PM 17.49 63.482 0.64 8 4.48 9.82
5/29/2022 8:00:00 PM 17.45 63.41 0.641 7.99 5.18 9.69
5/29/2022 8:15:00 PM 17.41 63.338 0.641 7.98 5.58 9.54
5/29/2022 8:30:00 PM 17.36 63.248 0.639 7.97 5.01 9.44
5/29/2022 8:45:00 PM 17.32 63.176 0.638 7.95 6.37 9.32
5/29/2022 9:00:00 PM 17.31 63.158 0.641 7.94 10.27 9.21
5/29/2022 9:15:00 PM 17.3 63.14 0.617 7.94 6.99 9.1
5/29/2022 9:30:00 PM 17.29 63.122 0.646 7.92 6.89 9
5/29/2022 9:45:00 PM 17.26 63.068 0.647 7.91 6.08 8.91
5/29/2022 10:00:00 PM 17.22 62.996 0.648 7.9 7.14 8.84
5/29/2022 10:15:00 PM 17.19 62.942 0.649 7.89 7.38 8.77
5/29/2022 10:30:00 PM 17.15 62.87 0.65 7.89 7.96 8.71
5/29/2022 10:45:00 PM 17.1 62.78 0.65 7.88 7.86 8.64
5/29/2022 11:00:00 PM 17.06 62.708 0.582 7.87 8.66 8.61
5/29/2022 11:15:00 PM 17.02 62.636 0.644 7.86 8.55 8.57
5/29/2022 11:30:00 PM 16.98 62.564 0.649 7.86 14.03 8.52
5/29/2022 11:45:00 PM 16.95 62.51 0.65 7.85 8.78 8.48
5/30/2022 12:00:00 AM 16.91 62.438 0.65 7.84 8 8.43
5/30/2022 12:15:00 AM 16.86 62.348 0.646 7.84 8.3 8.4
5/30/2022 12:30:00 AM 16.8 62.24 0.648 7.83 7.74 8.35
5/30/2022 12:45:00 AM 16.71 62.078 0.648 7.82 8.51 8.31
5/30/2022 1:00:00 AM 16.63 61.934 0.642 7.82 9.22 8.3
5/30/2022 1:15:00 AM 16.57 61.826 0.645 7.81 5.39 8.27
5/30/2022 1:30:00 AM 16.51 61.718 0.645 7.81 6.97 8.27
5/30/2022 1:45:00 AM 16.47 61.646 0.644 7.8 6.27 8.25
5/30/2022 2:00:00 AM 16.42 61.556 0.643 7.8 7.32 8.23
5/30/2022 2:15:00 AM 16.38 61.484 0.643 7.79 8.17 8.2
5/30/2022 2:30:00 AM 16.34 61.412 0.641 7.79 8.24 8.21
5/30/2022 2:45:00 AM 16.3 61.34 0.586 7.79 7.71 8.21
5/30/2022 3:00:00 AM 16.27 61.286 0.642 7.79 6.77 8.21
5/30/2022 3:15:00 AM 16.23 61.214 0.637 7.78 32.71 8.2
5/30/2022 3:30:00 AM 16.2 61.16 0.642 7.78 7.12 8.2
5/30/2022 3:45:00 AM 16.17 61.106 0.642 7.78 7.51 8.21
5/30/2022 4:00:00 AM 16.15 61.07 0.642 7.78 7.65 8.2
5/30/2022 4:15:00 AM 16.12 61.016 0.642 7.78 8.27 8.2
5/30/2022 4:30:00 AM 16.09 60.962 0.641 7.78 8.59 8.21
5/30/2022 4:45:00 AM 16.06 60.908 0.641 7.77 68.74 8.2
5/30/2022 5:00:00 AM 16.04 60.872 0.641 7.77 8.95 8.2
5/30/2022 5:15:00 AM 16.01 60.818 0.64 7.77 8.53 8.21
5/30/2022 5:30:00 AM 15.99 60.782 0.64 7.77 7.7 8.21
5/30/2022 5:45:00 AM 15.96 60.728 0.64 7.77 8.14 8.22
5/30/2022 6:00:00 AM 15.94 60.692 0.64 7.77 9.03 8.23
5/30/2022 6:15:00 AM 15.91 60.638 0.64 7.77 7.14 8.26
5/30/2022 6:30:00 AM 15.89 60.602 0.639 7.77 6.48 8.29
5/30/2022 6:45:00 AM 15.88 60.584 0.64 7.77 6.41 8.34
5/30/2022 7:00:00 AM 15.87 60.566 0.64 7.77 5.93 8.4
5/30/2022 7:15:00 AM 15.87 60.566 0.637 7.78 5.61 8.48
5/30/2022 7:30:00 AM 15.87 60.566 0.638 7.78 5.03 8.59
5/30/2022 7:45:00 AM 15.89 60.602 0.638 7.79 5.37 8.72
5/30/2022 8:00:00 AM 15.92 60.656 0.638 7.8 4.75 8.87
5/30/2022 8:15:00 AM 15.97 60.746 0.639 7.81 5.51 9.04
5/30/2022 8:30:00 AM 16.02 60.836 0.638 7.82 4.56 9.19
5/30/2022 8:45:00 AM 16.08 60.944 0.639 7.84 4.32 9.34
5/30/2022 9:00:00 AM 16.16 61.088 0.639 7.85 4.26 9.51
5/30/2022 9:15:00 AM 16.24 61.232 0.638 7.86 4.14 9.68
5/30/2022 9:30:00 AM 16.33 61.394 0.638 7.88 4.25 9.85
5/30/2022 9:45:00 AM 16.42 61.556 0.636 7.89 4.32 9.99
5/30/2022 10:00:00 AM 16.51 61.718 0.639 7.91 4.16 10.14
5/30/2022 10:15:00 AM 16.6 61.88 0.639 7.92 3.78 10.29
5/30/2022 10:30:00 AM 16.7 62.06 0.639 7.94 3.85 10.42
5/30/2022 10:45:00 AM 16.82 62.276 0.627 7.95 4.75 10.56
5/30/2022 11:00:00 AM 16.92 62.456 0.64 7.96 3.25 10.7
5/30/2022 11:15:00 AM 17.03 62.654 0.64 7.97 3.5 10.82
5/30/2022 11:30:00 AM 17.15 62.87 0.639 7.99 3.3 10.94
5/30/2022 11:45:00 AM 17.27 63.086 0.64 8 3.71 11.05
5/30/2022 12:00:00 PM 17.39 63.302 0.64 8.01 2.83 11.16
5/30/2022 12:15:00 PM 17.51 63.518 0.64 8.02 3.31 11.24
5/30/2022 12:30:00 PM 17.63 63.734 0.64 8.03 4.8 11.34
5/30/2022 12:45:00 PM 17.73 63.914 0.64 8.04 3.93 11.4
5/30/2022 1:00:00 PM 17.85 64.13 0.64 8.05 9.5 11.48
5/30/2022 1:15:00 PM 17.95 64.31 0.64 8.06 3.23 11.54
5/30/2022 1:30:00 PM 18.06 64.508 0.64 8.07 3.4 11.59
5/30/2022 1:45:00 PM 18.16 64.688 0.64 8.08 3.74 11.63
5/30/2022 2:00:00 PM 18.26 64.868 0.64 8.09 2.96 11.67
5/30/2022 2:15:00 PM 18.34 65.012 0.64 8.1 3.18 11.7
5/30/2022 2:30:00 PM 18.42 65.156 0.64 8.11 3.17 11.72
5/30/2022 2:45:00 PM 18.49 65.282 0.64 8.12 3.8 11.75
5/30/2022 3:00:00 PM 18.56 65.408 0.64 8.12 3.69 11.73
5/30/2022 3:15:00 PM 18.61 65.498 0.64 8.12 2.97 11.72
5/30/2022 3:30:00 PM 18.65 65.57 0.64 8.13 3.72 11.7
5/30/2022 3:45:00 PM 18.69 65.642 0.641 8.12 3.32 11.65
5/30/2022 4:00:00 PM 18.71 65.67799 0.641 8.12 3.07 11.59
5/30/2022 4:15:00 PM 18.73 65.714 0.641 8.13 3.15 11.53
5/30/2022 4:30:00 PM 18.74 65.732 0.641 8.12 3.29 11.44
5/30/2022 4:45:00 PM 18.73 65.714 0.641 8.12 3.58 11.35
5/30/2022 5:00:00 PM 18.73 65.714 0.618 8.11 3.19 11.24
5/30/2022 5:15:00 PM 18.72 65.696 0.641 8.11 3.15 11.11
5/30/2022 5:30:00 PM 18.7 65.66 0.642 8.1 3.74 11
5/30/2022 5:45:00 PM 18.68 65.624 0.642 8.09 3.54 10.86
5/30/2022 6:00:00 PM 18.65 65.57 0.642 8.08 4.37 10.71
5/30/2022 6:15:00 PM 18.62 65.516 0.642 8.07 4.2 10.55
5/30/2022 6:30:00 PM 18.58 65.444 0.643 8.06 4.93 10.41
5/30/2022 6:45:00 PM 18.54 65.372 0.643 8.05 4.04 10.24
5/30/2022 7:00:00 PM 18.5 65.3 0.643 8.03 4.55 10.07
5/30/2022 7:15:00 PM 18.46 65.228 0.644 8.02 4.49 9.89
5/30/2022 7:30:00 PM 18.43 65.174 0.644 8.01 4.72 9.73
5/30/2022 7:45:00 PM 18.39 65.102 0.644 7.99 4.62 9.59
5/30/2022 8:00:00 PM 18.35 65.03 0.644 7.98 4.77 9.44
5/30/2022 8:15:00 PM 18.3 64.94 0.644 7.97 343.4 9.3
5/30/2022 8:30:00 PM 18.26 64.868 0.645 7.96 840.3 9.16
5/30/2022 8:45:00 PM 18.21 64.778 0.645 7.94 87.69 9.04
5/30/2022 9:00:00 PM 18.16 64.688 0.645 7.93 5.58 8.92
5/30/2022 9:15:00 PM 18.11 64.598 0.645 7.92 5.56 8.81
5/30/2022 9:30:00 PM 18.06 64.508 0.645 7.9 5.97 8.72
5/30/2022 9:45:00 PM 18.01 64.418 0.632 7.89 5.35 8.64
5/30/2022 10:00:00 PM 17.97 64.346 0.645 7.88 5.24 8.55
5/30/2022 10:15:00 PM 17.92 64.256 0.647 7.87 5.83 8.48
5/30/2022 10:30:00 PM 17.88 64.184 0.648 7.86 6.23 8.39
5/30/2022 10:45:00 PM 17.84 64.112 0.649 7.85 7.05 8.3
5/30/2022 11:00:00 PM 17.8 64.04 0.649 7.84 6.23 8.23
5/30/2022 11:15:00 PM 17.76 63.968 0.65 7.84 6.15 8.17
5/30/2022 11:30:00 PM 17.71 63.878 0.642 7.83 6.8 8.12
5/30/2022 11:45:00 PM 17.67 63.806 0.651 7.82 5.14 8.09
5/31/2022 12:00:00 AM 17.62 63.716 0.651 7.81 7.2 8.05
5/31/2022 12:15:00 AM 17.58 63.644 0.651 7.81 7.97 8.04
5/31/2022 12:30:00 AM 17.54 63.572 0.651 7.8 7.54 8.03
5/31/2022 12:45:00 AM 17.5 63.5 0.651 7.8 6.04 8.04
5/31/2022 1:00:00 AM 17.46 63.428 0.65 7.8 7.29 8.03
5/31/2022 1:15:00 AM 17.43 63.374 0.651 7.79 7.88 8.01
5/31/2022 1:30:00 AM 17.4 63.32 0.651 7.79 7.67 8.01
5/31/2022 1:45:00 AM 17.37 63.266 0.65 7.78 6.34 7.99
5/31/2022 2:00:00 AM 17.33 63.194 0.651 7.78 6.06 7.98
5/31/2022 2:15:00 AM 17.3 63.14 0.651 7.77 8.12 7.96
5/31/2022 2:30:00 AM 17.27 63.086 0.65 7.77 41.35 7.96
5/31/2022 2:45:00 AM 17.23 63.014 0.65 7.77 12.36 7.94
5/31/2022 3:00:00 AM 17.2 62.96 0.649 7.77 6.75 7.94
5/31/2022 3:15:00 AM 17.17 62.906 0.649 7.76 8.47 7.94
5/31/2022 3:30:00 AM 17.14 62.852 0.631 7.76 7.02 7.95
5/31/2022 3:45:00 AM 17.11 62.798 0.649 7.76 8.5 7.93
5/31/2022 4:00:00 AM 17.08 62.744 0.648 7.76 6.93 7.93
5/31/2022 4:15:00 AM 17.05 62.69 0.649 7.75 7.49 7.94
5/31/2022 4:30:00 AM 17.03 62.654 0.648 7.75 6.48 7.94
5/31/2022 4:45:00 AM 17 62.6 0.648 7.75 6.49 7.95
5/31/2022 5:00:00 AM 16.97 62.546 0.648 7.75 10.55 7.95
5/31/2022 5:15:00 AM 16.95 62.51 0.648 7.75 7.34 7.93
5/31/2022 5:30:00 AM 16.92 62.456 0.647 7.75 6.61 7.93
5/31/2022 5:45:00 AM 16.89 62.402 0.647 7.75 7.6 7.94
5/31/2022 6:00:00 AM 16.87 62.366 0.647 7.75 8.12 7.95
5/31/2022 6:15:00 AM 16.85 62.33 0.628 7.75 7.84 7.98
5/31/2022 6:30:00 AM 16.83 62.294 0.646 7.75 6.36 8.01
5/31/2022 6:45:00 AM 16.81 62.258 0.646 7.75 5.89 8.06
5/31/2022 7:00:00 AM 16.8 62.24 0.646 7.75 6.01 8.11
5/31/2022 7:15:00 AM 16.8 62.24 0.645 7.76 6.58 8.19
5/31/2022 7:30:00 AM 16.8 62.24 0.645 7.76 5.71 8.29
5/31/2022 7:45:00 AM 16.82 62.276 0.645 7.77 5.07 8.43
5/31/2022 8:00:00 AM 16.85 62.33 0.645 7.78 31.9 8.56
5/31/2022 8:15:00 AM 16.89 62.402 0.645 7.79 4.8 8.73
5/31/2022 8:30:00 AM 16.94 62.492 0.644 7.81 3.68 8.9
5/31/2022 8:45:00 AM 17.01 62.618 0.644 7.82 5.02 9.08
5/31/2022 9:00:00 AM 17.08 62.744 0.644 7.83 4.59 9.25
5/31/2022 9:15:00 AM 17.17 62.906 0.644 7.85 4.35 9.42
5/31/2022 9:30:00 AM 17.26 63.068 0.644 7.86 4.65 9.59
5/31/2022 9:45:00 AM 17.36 63.248 0.643 7.88 6.78 9.75
5/31/2022 10:00:00 AM 17.46 63.428 0.644 7.89 6.3 9.91
5/31/2022 10:15:00 AM 17.57 63.626 0.644 7.91 3.75 10.05
5/31/2022 10:30:00 AM 17.68 63.824 0.644 7.92 4.27 10.2
5/31/2022 10:45:00 AM 17.79 64.022 0.644 7.94 3.9 10.35
5/31/2022 11:00:00 AM 17.9 64.22 0.644 7.95 3.87 10.47
5/31/2022 11:15:00 AM 18.01 64.418 0.644 7.97 4.62 10.63
5/31/2022 11:30:00 AM 18.13 64.634 0.644 7.98 3.63 10.75
5/31/2022 11:45:00 AM 18.25 64.85 0.644 7.99 4.88 10.85
5/31/2022 12:00:00 PM 18.36 65.048 0.644 8.01 4.39 10.97
5/31/2022 12:15:00 PM 18.47 65.246 0.644 8.02 3.64 11.09
5/31/2022 12:30:00 PM 18.57 65.426 0.644 8.03 4.42 11.19
5/31/2022 12:45:00 PM 18.69 65.642 0.644 8.05 7.43 11.27
5/31/2022 1:00:00 PM 18.79 65.82201 0.643 8.06 3.03 11.37
5/31/2022 1:15:00 PM 18.9 66.02 0.643 8.07 3.96 11.46
5/31/2022 1:30:00 PM 18.99 66.182 0.643 8.08 4.23 11.52
5/31/2022 1:45:00 PM 19.09 66.362 0.643 8.09 3.6 11.56
5/31/2022 2:00:00 PM 19.16 66.488 0.643 8.1 3.5 11.63
5/31/2022 2:15:00 PM 19.19 66.542 0.643 8.1 3.87 11.63
5/31/2022 2:30:00 PM 19.24 66.632 0.643 8.11 3.89 11.66
5/31/2022 2:45:00 PM 19.18 66.524 0.643 8.11 7.18 11.54
5/31/2022 3:00:00 PM 19.19 66.542 0.643 8.11 3.04 11.49
5/31/2022 3:15:00 PM 19.23 66.614 0.643 8.11 11.73 11.51
5/31/2022 3:30:00 PM 19.26 66.668 0.642 8.12 9.34 11.52
5/31/2022 3:45:00 PM 19.33 66.794 0.642 8.13 15.6 11.51
5/31/2022 4:00:00 PM 19.38 66.884 0.642 8.13 14.65 11.47
5/31/2022 4:15:00 PM 19.4 66.92 0.642 8.13 43.45 11.41
5/31/2022 4:30:00 PM 19.41 66.938 0.642 8.13 4.95 11.35
5/31/2022 4:45:00 PM 19.4 66.92 0.642 8.13 4.52 11.24
5/31/2022 5:00:00 PM 19.39 66.902 0.642 8.12 3.95 11.16
5/31/2022 5:15:00 PM 19.36 66.848 0.643 8.12 10 11.04
5/31/2022 5:30:00 PM 19.33 66.794 0.642 8.11 3.41 10.92
5/31/2022 5:45:00 PM 19.28 66.704 0.642 8.1 7.38 10.77
5/31/2022 6:00:00 PM 19.23 66.614 0.643 8.09 3.87 10.61
5/31/2022 6:15:00 PM 19.18 66.524 0.643 8.08 3.34 10.47
5/31/2022 6:30:00 PM 19.14 66.452 0.643 8.07 5.32 10.29
5/31/2022 6:45:00 PM 19.09 66.362 0.643 8.06 4.06 10.16
5/31/2022 7:00:00 PM 19.04 66.272 0.643 8.04 3.54 10
5/31/2022 7:15:00 PM 18.98 66.164 0.644 8.03 3.9 9.84
5/31/2022 7:30:00 PM 18.92 66.056 0.644 8.02 747.6 9.69
5/31/2022 7:45:00 PM 18.86 65.948 0.644 8 5.26 9.53
5/31/2022 8:00:00 PM 18.8 65.84 0.644 7.99 3.76 9.39
5/31/2022 8:15:00 PM 18.74 65.732 0.645 7.97 5.12 9.24
5/31/2022 8:30:00 PM 18.67 65.606 0.645 7.96 33.18 9.11
5/31/2022 8:45:00 PM 18.62 65.516 0.645 7.95 4.17 8.95
5/31/2022 9:00:00 PM 18.57 65.426 0.646 7.93 4.35 8.84
5/31/2022 9:15:00 PM 18.51 65.318 0.646 7.92 8.52 8.74
5/31/2022 9:30:00 PM 18.46 65.228 0.644 7.91 4.97 8.64
5/31/2022 9:45:00 PM 18.41 65.138 0.646 7.89 6.71 8.55
5/31/2022 10:00:00 PM 18.36 65.048 0.647 7.88 6.88 8.46
5/31/2022 10:15:00 PM 18.32 64.976 0.647 7.87 5.16 8.4
5/31/2022 10:30:00 PM 18.27 64.886 0.647 7.86 8.72 8.32
5/31/2022 10:45:00 PM 18.23 64.814 0.646 7.85 6.72 8.28
5/31/2022 11:00:00 PM 18.18 64.724 0.647 7.85 6.87 8.22
5/31/2022 11:15:00 PM 18.14 64.652 0.648 7.84 5.71 8.17
5/31/2022 11:30:00 PM 18.1 64.58 0.648 7.83 8.49 8.12
5/31/2022 11:45:00 PM 18.06 64.508 0.648 7.83 5.42 8.08
6/1/2022 12:00:00 AM 18.02 64.436 0.648 7.82 6.75 8.05
6/1/2022 12:15:00 AM 17.98 64.364 0.648 7.81 7.8 8.01
6/1/2022 12:30:00 AM 17.94 64.292 0.648 7.81 5.93 7.98
6/1/2022 12:45:00 AM 17.9 64.22 0.648 7.8 6.57 7.95
6/1/2022 1:00:00 AM 17.87 64.166 0.648 7.79 6.56 7.94
6/1/2022 1:15:00 AM 17.83 64.094 0.648 7.79 4.39 7.93
6/1/2022 1:30:00 AM 17.79 64.022 0.648 7.79 5.54 7.9
6/1/2022 1:45:00 AM 17.76 63.968 0.648 7.78 5.91 7.88
6/1/2022 2:00:00 AM 17.72 63.896 0.647 7.78 7.13 7.87
6/1/2022 2:15:00 AM 17.68 63.824 0.647 7.78 7.08 7.85
6/1/2022 2:30:00 AM 17.65 63.77 0.647 7.78 8.44 7.85
6/1/2022 2:45:00 AM 17.61 63.698 0.647 7.78 6.52 7.84
6/1/2022 3:00:00 AM 17.58 63.644 0.646 7.78 6.75 7.84
6/1/2022 3:15:00 AM 17.55 63.59 0.646 7.77 6.75 7.83
6/1/2022 3:30:00 AM 17.52 63.536 0.646 7.77 6.37 7.84
6/1/2022 3:45:00 AM 17.5 63.5 0.646 7.77 7.09 7.83
6/1/2022 4:00:00 AM 17.47 63.446 0.645 7.77 7.88 7.84
6/1/2022 4:15:00 AM 17.44 63.392 0.645 7.77 9.31 7.83
6/1/2022 4:30:00 AM 17.41 63.338 0.645 7.76 8.84 7.84
6/1/2022 4:45:00 AM 17.38 63.284 0.643 7.76 7.7 7.83
6/1/2022 5:00:00 AM 17.35 63.23 0.645 7.76 6.7 7.84
6/1/2022 5:15:00 AM 17.32 63.176 0.644 7.76 5.89 7.84
6/1/2022 5:30:00 AM 17.3 63.14 0.646 7.76 5.54 7.84
6/1/2022 5:45:00 AM 17.27 63.086 0.645 7.76 7.67 7.83
6/1/2022 6:00:00 AM 17.24 63.032 0.645 7.76 5.35 7.85
6/1/2022 6:15:00 AM 17.22 62.996 0.644 7.76 6.15 7.87
6/1/2022 6:30:00 AM 17.19 62.942 0.638 7.76 8.55 7.9
6/1/2022 6:45:00 AM 17.17 62.906 0.644 7.76 4.97 7.94
6/1/2022 7:00:00 AM 17.16 62.888 0.644 7.76 4.81 8
6/1/2022 7:15:00 AM 17.15 62.87 0.644 7.76 6.97 8.08
6/1/2022 7:30:00 AM 17.15 62.87 0.644 7.77 3.31 8.18
6/1/2022 7:45:00 AM 17.17 62.906 0.643 7.78 5.7 8.33
6/1/2022 8:00:00 AM 17.19 62.942 0.643 7.79 3.62 8.48
6/1/2022 8:15:00 AM 17.22 62.996 0.643 7.8 4.02 8.6
6/1/2022 8:30:00 AM 17.27 63.086 0.643 7.81 3.52 8.8
6/1/2022 8:45:00 AM 17.34 63.212 0.643 7.83 3.44 9
6/1/2022 9:00:00 AM 17.41 63.338 0.643 7.84 3.22 9.2
6/1/2022 9:15:00 AM 17.5 63.5 0.643 7.86 2.85 9.39
6/1/2022 9:30:00 AM 17.59 63.662 0.643 7.88 3.04 9.56
6/1/2022 9:45:00 AM 17.67 63.806 0.643 7.9 2.58 9.74
6/1/2022 10:00:00 AM 17.73 63.914 0.643 7.91 3.06 9.89
6/1/2022 10:15:00 AM 17.81 64.058 0.643 7.93 3.62 10
6/1/2022 10:30:00 AM 17.93 64.274 0.643 7.94 3.74 10.17
6/1/2022 10:45:00 AM 18.05 64.49 0.643 7.95 2.57 10.34
6/1/2022 11:00:00 AM 18.19 64.742 0.643 7.97 5.65 10.51
6/1/2022 11:15:00 AM 18.3 64.94 0.644 7.99 3.52 10.67
6/1/2022 11:30:00 AM 18.42 65.156 0.644 8 3.1 10.8
6/1/2022 11:45:00 AM 18.53 65.354 0.644 8.02 4.29 10.94
6/1/2022 12:00:00 PM 18.63 65.534 0.644 8.03 4.05 11.07
6/1/2022 12:15:00 PM 18.73 65.714 0.644 8.04 3.76 11.21
6/1/2022 12:30:00 PM 18.83 65.894 0.644 8.05 3.63 11.3
6/1/2022 12:45:00 PM 18.9 66.02 0.644 8.07 3.34 11.36
6/1/2022 1:00:00 PM 18.94 66.092 0.644 8.08 2.73 11.42
6/1/2022 1:15:00 PM 19.05 66.29 0.644 8.09 3.67 11.53
6/1/2022 1:30:00 PM 19.14 66.452 0.644 8.1 3.03 11.59
6/1/2022 1:45:00 PM 19.21 66.578 0.644 8.12 4.2 11.66
6/1/2022 2:00:00 PM 19.3 66.74 0.644 8.13 10.25 11.73
6/1/2022 2:15:00 PM 19.4 66.92 0.643 8.15 3.21 11.78
6/1/2022 2:30:00 PM 19.48 67.064 0.643 8.15 3.25 11.83
6/1/2022 2:45:00 PM 19.54 67.172 0.643 8.16 4.64 11.85
6/1/2022 3:00:00 PM 19.57 67.226 0.644 8.17 2.45 11.84
6/1/2022 3:15:00 PM 19.51 67.118 0.643 8.16 3.45 11.7
6/1/2022 3:30:00 PM 19.43 66.974 0.643 8.16 2.65 11.54
6/1/2022 3:45:00 PM 19.36 66.848 0.643 8.15 4.42 11.39
6/1/2022 4:00:00 PM 19.31 66.758 0.617 8.14 3.41 11.3
6/1/2022 4:15:00 PM 19.3 66.74 0.607 8.14 4.19 11.26
6/1/2022 4:30:00 PM 19.31 66.758 0.608 8.14 3.46 11.26
6/1/2022 4:45:00 PM 19.33 66.794 0.599 8.15 2.9 11.23
6/1/2022 5:00:00 PM 19.37 66.866 0.603 8.15 3.72 11.21
6/1/2022 5:15:00 PM 19.38 66.884 0.591 8.15 4.63 11.14
6/1/2022 5:30:00 PM 19.37 66.866 0.599 8.14 67.72 11.04
6/1/2022 5:45:00 PM 19.33 66.794 0.63 8.13 2.72 10.91
6/1/2022 6:00:00 PM 19.29 66.722 0.586 8.12 3.53 10.78
6/1/2022 6:15:00 PM 19.23 66.614 0.619 8.11 3.24 10.63
6/1/2022 6:30:00 PM 19.17 66.506 0.622 8.1 4.88 10.49
6/1/2022 6:45:00 PM 19.13 66.434 0.623 8.09 11.48 10.33
6/1/2022 7:00:00 PM 19.08 66.344 0.626 8.08 3.57 10.16
6/1/2022 7:15:00 PM 19.03 66.254 0.644 8.06 4.63 10
6/1/2022 7:30:00 PM 18.98 66.164 0.643 8.05 3.67 9.82
6/1/2022 7:45:00 PM 18.92 66.056 0.635 8.03 8.85 9.65
6/1/2022 8:00:00 PM 18.85 65.93 0.56 8.02 3.79 9.49
6/1/2022 8:15:00 PM 18.79 65.82201 0.562 8 3.52 9.33
6/1/2022 8:30:00 PM 18.74 65.732 0.586 7.98 2.73 9.17
6/1/2022 8:45:00 PM 18.68 65.624 0.585 7.97 3.23 9.03
6/1/2022 9:00:00 PM 18.62 65.516 0.647 7.96 5.28 8.9
6/1/2022 9:15:00 PM 18.56 65.408 0.647 7.94 4.99 8.79
6/1/2022 9:30:00 PM 18.5 65.3 0.648 7.93 8.46 8.69
6/1/2022 9:45:00 PM 18.45 65.21 0.649 7.92 5.63 8.61
6/1/2022 10:00:00 PM 18.4 65.12 0.643 7.9 6.04 8.52
6/1/2022 10:15:00 PM 18.36 65.048 0.648 7.89 4 8.45
6/1/2022 10:30:00 PM 18.32 64.976 0.648 7.88 7.15 8.39
6/1/2022 10:45:00 PM 18.28 64.904 0.647 7.88 5.25 8.33
6/1/2022 11:00:00 PM 18.25 64.85 0.649 7.87 7.21 8.28
6/1/2022 11:15:00 PM 18.22 64.796 0.65 7.86 5.64 8.24
6/1/2022 11:30:00 PM 18.19 64.742 0.648 7.86 6.7 8.2
6/1/2022 11:45:00 PM 18.16 64.688 0.635 7.86 7.67 8.2
6/2/2022 12:00:00 AM 18.12 64.616 0.644 7.85 6.14 8.13
6/2/2022 12:15:00 AM 18.08 64.544 0.579 7.85 6.48 8.09
6/2/2022 12:30:00 AM 18.05 64.49 0.588 7.85 10.8 8.07
6/2/2022 12:45:00 AM 18.01 64.418 0.592 7.84 6.86 8.02
6/2/2022 1:00:00 AM 17.97 64.346 0.592 7.83 6.22 7.97
6/2/2022 1:15:00 AM 17.94 64.292 0.634 7.83 8.45 7.93
6/2/2022 1:30:00 AM 17.9 64.22 0.636 7.82 9.7 7.89
6/2/2022 1:45:00 AM 17.87 64.166 0.635 7.82 10.08 7.84
6/2/2022 2:00:00 AM 17.85 64.13 0.637 7.81 10.68 7.81
6/2/2022 2:15:00 AM 17.82 64.076 0.638 7.81 9.15 7.8
6/2/2022 2:30:00 AM 17.79 64.022 0.638 7.8 7.25 7.79
6/2/2022 2:45:00 AM 17.78 64.004 0.638 7.8 9.3 7.77
6/2/2022 3:00:00 AM 17.76 63.968 0.637 7.79 9.11 7.74
6/2/2022 3:15:00 AM 17.74 63.932 0.638 7.79 14.14 7.73
6/2/2022 3:30:00 AM 17.71 63.878 0.638 7.79 9.12 7.72
6/2/2022 3:45:00 AM 17.68 63.824 0.634 7.78 8.11 7.71
6/2/2022 4:00:00 AM 17.66 63.788 0.638 7.78 7.29 7.7
6/2/2022 4:15:00 AM 17.63 63.734 0.637 7.78 7.23 7.71
6/2/2022 4:30:00 AM 17.62 63.716 0.637 7.78 6.5 7.7
6/2/2022 4:45:00 AM 17.61 63.698 0.635 7.77 8.37 7.68
6/2/2022 5:00:00 AM 17.62 63.716 0.631 7.77 8.01 7.64
6/2/2022 5:15:00 AM 17.66 63.788 0.621 7.76 8.19 7.56
6/2/2022 5:30:00 AM 17.72 63.896 0.61 7.75 10.48 7.47
6/2/2022 5:45:00 AM 17.75 63.95 0.604 7.74 9.5 7.4
6/2/2022 6:00:00 AM 17.75 63.95 0.602 7.73 10.01 7.39
6/2/2022 6:15:00 AM 17.73 63.914 0.603 7.72 9.34 7.38
6/2/2022 6:30:00 AM 17.68 63.824 0.591 7.72 8.69 7.4
6/2/2022 6:45:00 AM 17.64 63.752 0.612 7.72 16.15 7.48
6/2/2022 7:00:00 AM 17.59 63.662 0.617 7.73 14.54 7.56
6/2/2022 7:15:00 AM 17.55 63.59 0.622 7.73 32.12 7.64
6/2/2022 7:30:00 AM 17.52 63.536 0.624 7.73 32.4 7.69
6/2/2022 7:45:00 AM 17.5 63.5 0.624 7.74 9.96 7.74
6/2/2022 8:00:00 AM 17.5 63.5 0.624 7.74 9.08 7.82
6/2/2022 8:15:00 AM 17.51 63.518 0.625 7.75 6.18 7.91
6/2/2022 8:30:00 AM 17.53 63.554 0.626 7.76 6.32 8.04
6/2/2022 8:45:00 AM 17.54 63.572 0.626 7.76 6.82 8.08
6/2/2022 9:00:00 AM 17.57 63.626 0.624 7.77 7.86 8.14
6/2/2022 9:15:00 AM 17.61 63.698 0.622 7.77 7.22 8.27
6/2/2022 9:30:00 AM 17.67 63.806 0.621 7.78 6.21 8.41
6/2/2022 9:45:00 AM 17.77 63.986 0.621 7.8 6.84 8.64
6/2/2022 10:00:00 AM 17.89 64.202 0.622 7.82 6.93 8.93
6/2/2022 10:15:00 AM 17.94 64.292 0.624 7.84 7.18 9.16
6/2/2022 10:30:00 AM 18.03 64.454 0.626 7.86 6.49 9.35
6/2/2022 10:45:00 AM 18.13 64.634 0.628 7.88 6.2 9.56
6/2/2022 11:00:00 AM 18.23 64.814 0.63 7.9 6.46 9.75
6/2/2022 11:15:00 AM 18.31 64.958 0.63 7.92 6.25 9.94
6/2/2022 11:30:00 AM 18.38 65.084 0.631 7.93 6.17 10.05
6/2/2022 11:45:00 AM 18.39 65.102 0.631 7.94 6.71 10.13
6/2/2022 12:00:00 PM 18.33 64.994 0.63 7.94 6.37 10.1
6/2/2022 12:15:00 PM 18.3 64.94 0.628 7.94 5.79 10.08
6/2/2022 12:30:00 PM 18.29 64.922 0.625 7.94 7.72 10.13
6/2/2022 12:45:00 PM 18.28 64.904 0.621 7.95 6.25 10.21
6/2/2022 1:00:00 PM 18.23 64.814 0.615 7.95 4.41 10.19
6/2/2022 1:15:00 PM 18.24 64.832 0.608 7.95 4.74 10.25
6/2/2022 1:30:00 PM 18.24 64.832 0.6 7.94 4.62 10.23
6/2/2022 1:45:00 PM 18.35 65.03 0.592 7.95 4.97 10.36
6/2/2022 2:00:00 PM 18.43 65.174 0.585 7.95 7.08 10.4
6/2/2022 2:15:00 PM 18.5 65.3 0.579 7.95 4.88 10.44
6/2/2022 2:30:00 PM 18.65 65.57 0.575 7.96 4.42 10.57
6/2/2022 2:45:00 PM 18.66 65.588 0.571 7.96 4.67 10.54
6/2/2022 3:00:00 PM 18.64 65.552 0.57 7.95 14.89 10.49
6/2/2022 3:15:00 PM 18.69 65.642 0.569 7.95 5.08 10.53
6/2/2022 3:30:00 PM 18.63 65.534 0.569 7.95 5.7 10.44
6/2/2022 3:45:00 PM 18.56 65.408 0.569 7.93 6.98 10.2
6/2/2022 4:00:00 PM 18.5 65.3 0.571 7.91 6.55 9.99
6/2/2022 4:15:00 PM 18.43 65.174 0.573 7.9 7.29 9.79
6/2/2022 4:30:00 PM 18.35 65.03 0.574 7.88 9.04 9.59
6/2/2022 4:45:00 PM 18.3 64.94 0.576 7.87 5.41 9.49
6/2/2022 5:00:00 PM 18.28 64.904 0.577 7.87 5.38 9.5
6/2/2022 5:15:00 PM 18.25 64.85 0.579 7.87 6.06 9.49
6/2/2022 5:30:00 PM 18.23 64.814 0.58 7.88 6.01 9.53
6/2/2022 5:45:00 PM 18.2 64.76 0.581 7.88 7.97 9.53
6/2/2022 6:00:00 PM 18.15 64.67 0.582 7.88 5.92 9.46
6/2/2022 6:15:00 PM 18.11 64.598 0.583 7.87 5.56 9.39
6/2/2022 6:30:00 PM 18.06 64.508 0.585 7.86 6.12 9.28
6/2/2022 6:45:00 PM 18.02 64.436 0.586 7.85 6.73 9.18
6/2/2022 7:00:00 PM 17.98 64.364 0.589 7.84 5.62 9.1
6/2/2022 7:15:00 PM 17.95 64.31 0.591 7.84 5.52 9.03
6/2/2022 7:30:00 PM 17.92 64.256 0.593 7.83 7.17 8.94
6/2/2022 7:45:00 PM 17.88 64.184 0.596 7.83 6.61 8.85
6/2/2022 8:00:00 PM 17.84 64.112 0.598 7.82 7.11 8.78
6/2/2022 8:15:00 PM 17.81 64.058 0.601 7.82 10.05 8.69
6/2/2022 8:30:00 PM 17.77 63.986 0.603 7.81 7.21 8.62
6/2/2022 8:45:00 PM 17.73 63.914 0.605 7.81 147.1 8.57
6/2/2022 9:00:00 PM 17.7 63.86 0.607 7.8 7.25 8.5
6/2/2022 9:15:00 PM 17.67 63.806 0.607 7.8 7.84 8.44
6/2/2022 9:30:00 PM 17.64 63.752 0.607 7.8 9 8.36
6/2/2022 9:45:00 PM 17.63 63.734 0.606 7.79 10.27 8.26
6/2/2022 10:00:00 PM 17.63 63.734 0.604 7.78 10.01 8.18
6/2/2022 10:15:00 PM 17.63 63.734 0.601 7.77 10.7 8.1
6/2/2022 10:30:00 PM 17.63 63.734 0.598 7.76 11.04 8.05
6/2/2022 10:45:00 PM 17.62 63.716 0.597 7.75 34.5 7.99
6/2/2022 11:00:00 PM 17.59 63.662 0.597 7.75 15.99 7.96
6/2/2022 11:15:00 PM 17.55 63.59 0.601 7.74 14.96 7.93
6/2/2022 11:30:00 PM 17.49 63.482 0.604 7.74 26.22 7.9
6/2/2022 11:45:00 PM 17.43 63.374 0.607 7.74 15.32 7.9
6/3/2022 12:00:00 AM 17.39 63.302 0.609 7.73 19.04 7.91
6/3/2022 12:15:00 AM 17.35 63.23 0.611 7.73 13.23 7.89
6/3/2022 12:30:00 AM 17.33 63.194 0.611 7.73 13.11 7.89
6/3/2022 12:45:00 AM 17.32 63.176 0.612 7.73 15.56 7.87
6/3/2022 1:00:00 AM 17.32 63.176 0.612 7.73 22.95 7.84
6/3/2022 1:15:00 AM 17.32 63.176 0.612 7.73 11.62 7.82
6/3/2022 1:30:00 AM 17.34 63.212 0.611 7.73 13.46 7.78
6/3/2022 1:45:00 AM 17.35 63.23 0.611 7.73 11.21 7.77
6/3/2022 2:00:00 AM 17.36 63.248 0.61 7.72 11.12 7.75
6/3/2022 2:15:00 AM 17.37 63.266 0.611 7.72 12.04 7.72
6/3/2022 2:30:00 AM 17.37 63.266 0.613 7.72 11.12 7.72
6/3/2022 2:45:00 AM 17.37 63.266 0.613 7.72 11.37 7.71
6/3/2022 3:00:00 AM 17.37 63.266 0.617 7.72 11.48 7.71
6/3/2022 3:15:00 AM 17.36 63.248 0.619 7.72 11.2 7.7
6/3/2022 3:30:00 AM 17.35 63.23 0.621 7.72 13.23 7.7
6/3/2022 3:45:00 AM 17.33 63.194 0.623 7.72 12.86 7.69
6/3/2022 4:00:00 AM 17.3 63.14 0.624 7.72 10.89 7.69
6/3/2022 4:15:00 AM 17.27 63.086 0.613 7.72 11.62 7.7
6/3/2022 4:30:00 AM 17.24 63.032 0.611 7.72 13.91 7.69
6/3/2022 4:45:00 AM 17.2 62.96 0.617 7.72 11.68 7.69
6/3/2022 5:00:00 AM 17.16 62.888 0.614 7.71 14.7 7.66
6/3/2022 5:15:00 AM 17.13 62.834 0.608 7.71 12.38 7.63
6/3/2022 5:30:00 AM 17.1 62.78 0.601 7.7 12.54 7.56
6/3/2022 5:45:00 AM 17.08 62.744 0.592 7.69 12.5 7.49
6/3/2022 6:00:00 AM 17.06 62.708 0.583 7.68 12.42 7.43
6/3/2022 6:15:00 AM 17.04 62.672 0.575 7.67 12.97 7.38
6/3/2022 6:30:00 AM 17.02 62.636 0.569 7.67 11.62 7.38
6/3/2022 6:45:00 AM 17 62.6 0.564 7.66 13.14 7.4
6/3/2022 7:00:00 AM 16.99 62.582 0.56 7.66 13.24 7.45
6/3/2022 7:15:00 AM 16.97 62.546 0.559 7.66 11.7 7.53
6/3/2022 7:30:00 AM 16.97 62.546 0.56 7.67 11.63 7.67
6/3/2022 7:45:00 AM 16.97 62.546 0.561 7.68 11.98 7.84
6/3/2022 8:00:00 AM 16.98 62.564 0.563 7.69 12.32 8.02
6/3/2022 8:15:00 AM 17 62.6 0.565 7.7 10.95 8.2
6/3/2022 8:30:00 AM 17.03 62.654 0.567 7.72 10.92 8.39
6/3/2022 8:45:00 AM 17.07 62.726 0.569 7.73 11.53 8.59
6/3/2022 9:00:00 AM 17.1 62.78 0.572 7.75 11.08 8.77
6/3/2022 9:15:00 AM 17.15 62.87 0.574 7.76 10.27 8.97
6/3/2022 9:30:00 AM 17.19 62.942 0.576 7.78 10.05 9.15
6/3/2022 9:45:00 AM 17.25 63.05 0.578 7.8 10.5 9.33
6/3/2022 10:00:00 AM 17.31 63.158 0.58 7.82 10.46 9.5
6/3/2022 10:15:00 AM 17.38 63.284 0.571 7.84 10.15 9.65
6/3/2022 10:30:00 AM 17.45 63.41 0.566 7.86 9.82 9.84
6/3/2022 10:45:00 AM 17.53 63.554 0.586 7.87 10.26 10
6/3/2022 11:00:00 AM 17.61 63.698 0.57 7.89 10.17 10.16
6/3/2022 11:15:00 AM 17.69 63.842 0.584 7.91 9.49 10.31
6/3/2022 11:30:00 AM 17.77 63.986 0.588 7.93 10.8 10.44
6/3/2022 11:45:00 AM 17.85 64.13 0.594 7.94 10.68 10.6
6/3/2022 12:00:00 PM 17.91 64.238 0.595 7.96 11.09 10.72
6/3/2022 12:15:00 PM 17.99 64.382 0.597 7.98 10.37 10.85
6/3/2022 12:30:00 PM 18.07 64.526 0.598 7.99 10.85 10.97
6/3/2022 12:45:00 PM 18.15 64.67 0.6 8.01 10.52 11.08
6/3/2022 1:00:00 PM 18.25 64.85 0.602 8.02 11.77 11.19
6/3/2022 1:15:00 PM 18.32 64.976 0.603 8.04 11.83 11.28
6/3/2022 1:30:00 PM 18.41 65.138 0.605 8.05 16.08 11.36
6/3/2022 1:45:00 PM 18.47 65.246 0.607 8.06 12.91 11.44
6/3/2022 2:00:00 PM 18.52 65.336 0.609 8.07 12.94 11.48
6/3/2022 2:15:00 PM 18.54 65.372 0.61 8.08 10.56 11.52
6/3/2022 2:30:00 PM 18.59 65.462 0.612 8.1 9.59 11.57
6/3/2022 2:45:00 PM 18.64 65.552 0.614 8.11 9.48 11.58
6/3/2022 3:00:00 PM 18.65 65.57 0.615 8.11 9.56 11.59
6/3/2022 3:15:00 PM 18.69 65.642 0.617 8.12 9.25 11.58
6/3/2022 3:30:00 PM 18.71 65.67799 0.618 8.12 10.82 11.57
6/3/2022 3:45:00 PM 18.7 65.66 0.62 8.12 10.59 11.54
6/3/2022 4:00:00 PM 18.71 65.67799 0.621 8.13 11.38 11.52
6/3/2022 4:15:00 PM 18.71 65.67799 0.622 8.13 10.66 11.46
6/3/2022 4:30:00 PM 18.69 65.642 0.623 8.13 9.78 11.4
6/3/2022 4:45:00 PM 18.68 65.624 0.624 8.13 9.8 11.34
6/3/2022 5:00:00 PM 18.66 65.588 0.624 8.13 10.46 11.27
6/3/2022 5:15:00 PM 18.64 65.552 0.625 8.12 10.09 11.17
6/3/2022 5:30:00 PM 18.62 65.516 0.626 8.12 9.7 11.08
6/3/2022 5:45:00 PM 18.58 65.444 0.627 8.11 10.02 10.94
6/3/2022 6:00:00 PM 18.54 65.372 0.627 8.1 9.97 10.81
6/3/2022 6:15:00 PM 18.51 65.318 0.628 8.09 10.52 10.68
6/3/2022 6:30:00 PM 18.47 65.246 0.629 8.08 9.32 10.52
6/3/2022 6:45:00 PM 18.42 65.156 0.629 8.06 62.29 10.35
6/3/2022 7:00:00 PM 18.35 65.03 0.63 8.05 11.57 10.15
6/3/2022 7:15:00 PM 18.29 64.922 0.631 8.04 14.51 9.97
6/3/2022 7:30:00 PM 18.23 64.814 0.631 8.02 9.81 9.83
6/3/2022 7:45:00 PM 18.18 64.724 0.632 8.01 9.09 9.69
6/3/2022 8:00:00 PM 18.14 64.652 0.632 8 14.15 9.54
6/3/2022 8:15:00 PM 18.09 64.562 0.633 7.99 10.09 9.39
6/3/2022 8:30:00 PM 18.05 64.49 0.634 7.98 12.17 9.25
6/3/2022 8:45:00 PM 18 64.4 0.634 7.96 11.08 9.11
6/3/2022 9:00:00 PM 17.95 64.31 0.635 7.95 10.59 8.98
6/3/2022 9:15:00 PM 17.89 64.202 0.635 7.94 12.75 8.87
6/3/2022 9:30:00 PM 17.84 64.112 0.636 7.92 17.25 8.76
6/3/2022 9:45:00 PM 17.78 64.004 0.636 7.91 35.24 8.67
6/3/2022 10:00:00 PM 17.72 63.896 0.637 7.91 18.69 8.59
6/3/2022 10:15:00 PM 17.66 63.788 0.637 7.9 42.74 8.52
6/3/2022 10:30:00 PM 17.6 63.68 0.638 7.89 77.17 8.46
6/3/2022 10:45:00 PM 17.54 63.572 0.638 7.88 49.61 8.41
6/3/2022 11:00:00 PM 17.48 63.464 0.638 7.88 51.63 8.37
6/3/2022 11:15:00 PM 17.42 63.356 0.639 7.87 46.44 8.33
6/3/2022 11:30:00 PM 17.36 63.248 0.639 7.87 61.1 8.29
6/3/2022 11:45:00 PM 17.3 63.14 0.639 7.86 131.1 8.25
6/4/2022 12:00:00 AM 17.25 63.05 0.639 7.86 11.66 8.22
6/4/2022 12:15:00 AM 17.2 62.96 0.64 7.86 13.28 8.19
6/4/2022 12:30:00 AM 17.14 62.852 0.64 7.85 11.95 8.16
6/4/2022 12:45:00 AM 17.08 62.744 0.64 7.85 11.68 8.14
6/4/2022 1:00:00 AM 17.03 62.654 0.64 7.85 13.69 8.12
6/4/2022 1:15:00 AM 16.98 62.564 0.64 7.84 12.74 8.12
6/4/2022 1:30:00 AM 16.92 62.456 0.641 7.84 14.43 8.1
6/4/2022 1:45:00 AM 16.87 62.366 0.641 7.84 13.86 8.09
6/4/2022 2:00:00 AM 16.82 62.276 0.641 7.84 17.52 8.08
6/4/2022 2:15:00 AM 16.77 62.186 0.641 7.83 17.7 8.08
6/4/2022 2:30:00 AM 16.72 62.096 0.641 7.83 17.75 8.07
6/4/2022 2:45:00 AM 16.67 62.006 0.641 7.83 16 8.07
6/4/2022 3:00:00 AM 16.61 61.898 0.641 7.83 17.31 8.07
6/4/2022 3:15:00 AM 16.56 61.808 0.642 7.82 18.12 8.07
6/4/2022 3:30:00 AM 16.51 61.718 0.642 7.82 15.79 8.07
6/4/2022 3:45:00 AM 16.47 61.646 0.642 7.82 19.09 8.07
6/4/2022 4:00:00 AM 16.42 61.556 0.642 7.82 18.77 8.07
6/4/2022 4:15:00 AM 16.37 61.466 0.642 7.82 18.52 8.08
6/4/2022 4:30:00 AM 16.32 61.376 0.642 7.82 15.7 8.07
6/4/2022 4:45:00 AM 16.28 61.304 0.642 7.82 16.21 8.08
6/4/2022 5:00:00 AM 16.23 61.214 0.643 7.82 17.66 8.08
6/4/2022 5:15:00 AM 16.19 61.142 0.643 7.82 20 8.09
6/4/2022 5:30:00 AM 16.14 61.052 0.643 7.81 20.35 8.1
6/4/2022 5:45:00 AM 16.1 60.98 0.643 7.81 26.94 8.08
6/4/2022 6:00:00 AM 16.06 60.908 0.643 7.82 23.29 8.11
6/4/2022 6:15:00 AM 16.02 60.836 0.643 7.81 25.69 8.13
6/4/2022 6:30:00 AM 15.99 60.782 0.643 7.82 23.8 8.17
6/4/2022 6:45:00 AM 15.96 60.728 0.643 7.82 24.63 8.23
6/4/2022 7:00:00 AM 15.94 60.692 0.643 7.82 25.25 8.31
6/4/2022 7:15:00 AM 15.93 60.674 0.643 7.83 23.75 8.4
6/4/2022 7:30:00 AM 15.93 60.674 0.643 7.83 24.3 8.52
6/4/2022 7:45:00 AM 15.94 60.692 0.642 7.85 21.6 8.65
6/4/2022 8:00:00 AM 15.97 60.746 0.642 7.86 23.01 8.79
6/4/2022 8:15:00 AM 16.02 60.836 0.642 7.87 22.21 8.96
6/4/2022 8:30:00 AM 16.08 60.944 0.642 7.88 23.74 9.14
6/4/2022 8:45:00 AM 16.15 61.07 0.642 7.89 23.45 9.31
6/4/2022 9:00:00 AM 16.23 61.214 0.642 7.91 23.63 9.48
6/4/2022 9:15:00 AM 16.32 61.376 0.642 7.93 22.28 9.64
6/4/2022 9:30:00 AM 16.41 61.538 0.642 7.94 21.73 9.81
6/4/2022 9:45:00 AM 16.51 61.718 0.641 7.96 22.83 9.98
6/4/2022 10:00:00 AM 16.61 61.898 0.641 7.97 22.64 10.12
6/4/2022 10:15:00 AM 16.7 62.06 0.641 7.98 24.97 10.27
6/4/2022 10:30:00 AM 16.81 62.258 0.641 8 24.88 10.43
6/4/2022 10:45:00 AM 16.92 62.456 0.641 8.01 25.73 10.57
6/4/2022 11:00:00 AM 17.02 62.636 0.641 8.02 27.24 10.7
6/4/2022 11:15:00 AM 17.14 62.852 0.641 8.04 18.05 10.84
6/4/2022 11:30:00 AM 17.25 63.05 0.641 8.05 17.26 10.95
6/4/2022 11:45:00 AM 17.37 63.266 0.641 8.06 18.16 11.07
6/4/2022 12:00:00 PM 17.48 63.464 0.641 8.08 12.91 11.18
6/4/2022 12:15:00 PM 17.59 63.662 0.641 8.09 35.83 11.28
6/4/2022 12:30:00 PM 17.71 63.878 0.641 8.1 18.78 11.38
6/4/2022 12:45:00 PM 17.8 64.04 0.641 8.11 16.87 11.46
6/4/2022 1:00:00 PM 17.9 64.22 0.641 8.12 14.64 11.53
6/4/2022 1:15:00 PM 18 64.4 0.641 8.13 14.47 11.61
6/4/2022 1:30:00 PM 18.09 64.562 0.64 8.14 14.98 11.67
6/4/2022 1:45:00 PM 18.17 64.706 0.64 8.15 15.16 11.69
6/4/2022 2:00:00 PM 18.24 64.832 0.64 8.15 15.5 11.74
6/4/2022 2:15:00 PM 18.32 64.976 0.64 8.16 13.94 11.78
6/4/2022 2:30:00 PM 18.39 65.102 0.64 8.16 13.79 11.81
6/4/2022 2:45:00 PM 18.44 65.192 0.64 8.17 12.87 11.82
6/4/2022 3:00:00 PM 18.49 65.282 0.64 8.18 13.26 11.81
6/4/2022 3:15:00 PM 18.52 65.336 0.64 8.18 11.66 11.79
6/4/2022 3:30:00 PM 18.54 65.372 0.64 8.18 11.23 11.74
6/4/2022 3:45:00 PM 18.55 65.39 0.639 8.18 11.92 11.7
6/4/2022 4:00:00 PM 18.55 65.39 0.64 8.18 11.64 11.64
6/4/2022 4:15:00 PM 18.53 65.354 0.64 8.17 20.6 11.57
6/4/2022 4:30:00 PM 18.52 65.336 0.641 8.17 12.31 11.49
6/4/2022 4:45:00 PM 18.5 65.3 0.641 8.17 11.55 11.37
6/4/2022 5:00:00 PM 18.47 65.246 0.641 8.16 10.95 11.28
6/4/2022 5:15:00 PM 18.44 65.192 0.642 8.15 14.9 11.14
6/4/2022 5:30:00 PM 18.41 65.138 0.642 8.15 21.38 11.02
6/4/2022 5:45:00 PM 18.37 65.066 0.642 8.14 13.64 10.87
6/4/2022 6:00:00 PM 18.34 65.012 0.642 8.13 13.41 10.74
6/4/2022 6:15:00 PM 18.29 64.922 0.642 8.11 13.79 10.57
6/4/2022 6:30:00 PM 18.25 64.85 0.643 8.1 13.32 10.41
6/4/2022 6:45:00 PM 18.2 64.76 0.643 8.09 11.76 10.24
6/4/2022 7:00:00 PM 18.14 64.652 0.639 8.08 12.24 10.08
6/4/2022 7:15:00 PM 18.08 64.544 0.644 8.06 12.52 9.91
6/4/2022 7:30:00 PM 18.03 64.454 0.644 8.05 12.22 9.76
6/4/2022 7:45:00 PM 17.97 64.346 0.644 8.04 11.66 9.61
6/4/2022 8:00:00 PM 17.92 64.256 0.644 8.02 11.69 9.48
6/4/2022 8:15:00 PM 17.86 64.148 0.644 8.01 15.64 9.35
6/4/2022 8:30:00 PM 17.8 64.04 0.644 8 12.19 9.22
6/4/2022 8:45:00 PM 17.74 63.932 0.644 7.99 15.39 9.1
6/4/2022 9:00:00 PM 17.67 63.806 0.644 7.98 12.09 9
6/4/2022 9:15:00 PM 17.61 63.698 0.644 7.97 11.05 8.88
6/4/2022 9:30:00 PM 17.54 63.572 0.644 7.96 11.77 8.8
6/4/2022 9:45:00 PM 17.47 63.446 0.644 7.95 10.38 8.72
6/4/2022 10:00:00 PM 17.4 63.32 0.644 7.94 11.01 8.65
6/4/2022 10:15:00 PM 17.34 63.212 0.645 7.93 10.57 8.59
6/4/2022 10:30:00 PM 17.27 63.086 0.645 7.92 13.36 8.54
6/4/2022 10:45:00 PM 17.21 62.978 0.646 7.92 68.99 8.49
6/4/2022 11:00:00 PM 17.14 62.852 0.646 7.91 12.2 8.44
6/4/2022 11:15:00 PM 17.08 62.744 0.646 7.91 12.14 8.4
6/4/2022 11:30:00 PM 17.01 62.618 0.646 7.9 13.93 8.37
6/4/2022 11:45:00 PM 16.95 62.51 0.646 7.89 10.9 8.35
6/5/2022 12:00:00 AM 16.88 62.384 0.647 7.89 14.43 8.33
6/5/2022 12:15:00 AM 16.82 62.276 0.647 7.88 13.08 8.3
6/5/2022 12:30:00 AM 16.76 62.168 0.646 7.88 12.74 8.28
6/5/2022 12:45:00 AM 16.71 62.078 0.646 7.88 13.1 8.25
6/5/2022 1:00:00 AM 16.65 61.97 0.647 7.87 14.07 8.24
6/5/2022 1:15:00 AM 16.6 61.88 0.647 7.87 12.04 8.22
6/5/2022 1:30:00 AM 16.55 61.79 0.646 7.87 12.42 8.21
6/5/2022 1:45:00 AM 16.5 61.7 0.646 7.86 12.44 8.21
6/5/2022 2:00:00 AM 16.46 61.628 0.646 7.86 12.72 8.2
6/5/2022 2:15:00 AM 16.41 61.538 0.646 7.86 12.08 8.2
6/5/2022 2:30:00 AM 16.36 61.448 0.646 7.86 12.85 8.19
6/5/2022 2:45:00 AM 16.32 61.376 0.646 7.86 12.87 8.18
6/5/2022 3:00:00 AM 16.27 61.286 0.646 7.85 28.35 8.19
6/5/2022 3:15:00 AM 16.22 61.196 0.645 7.85 14.63 8.19
6/5/2022 3:30:00 AM 16.16 61.088 0.646 7.85 22.89 8.19
6/5/2022 3:45:00 AM 16.12 61.016 0.646 7.85 14.26 8.18
6/5/2022 4:00:00 AM 16.06 60.908 0.645 7.84 14.72 8.2
6/5/2022 4:15:00 AM 16.01 60.818 0.645 7.84 14.41 8.21
6/5/2022 4:30:00 AM 15.96 60.728 0.644 7.84 15.11 8.22
6/5/2022 4:45:00 AM 15.92 60.656 0.645 7.84 15.54 8.22
6/5/2022 5:00:00 AM 15.87 60.566 0.633 7.84 15.98 8.23
6/5/2022 5:15:00 AM 15.83 60.494 0.628 7.84 15.27 8.22
6/5/2022 5:30:00 AM 15.79 60.422 0.646 7.84 14.75 8.24
6/5/2022 5:45:00 AM 15.75 60.35 0.646 7.84 16.52 8.24
6/5/2022 6:00:00 AM 15.7 60.26 0.646 7.84 16.06 8.26
6/5/2022 6:15:00 AM 15.66 60.188 0.646 7.84 15.05 8.28
6/5/2022 6:30:00 AM 15.62 60.116 0.646 7.84 15 8.32
6/5/2022 6:45:00 AM 15.59 60.062 0.645 7.84 14.13 8.37
6/5/2022 7:00:00 AM 15.57 60.026 0.645 7.85 14.71 8.44
6/5/2022 7:15:00 AM 15.56 60.008 0.645 7.85 16.56 8.53
6/5/2022 7:30:00 AM 15.56 60.008 0.644 7.86 32.83 8.64
6/5/2022 7:45:00 AM 15.58 60.044 0.643 7.87 152.4 8.77
6/5/2022 8:00:00 AM 15.61 60.098 0.628 7.88 114.1 8.91
6/5/2022 8:15:00 AM 15.65 60.17 0.627 7.89 175.8 9.09
6/5/2022 8:30:00 AM 15.71 60.278 0.643 7.91 136 9.26
6/5/2022 8:45:00 AM 15.78 60.404 0.643 7.92 50.17 9.45
6/5/2022 9:00:00 AM 15.85 60.53 0.643 7.94 13.37 9.62
6/5/2022 9:15:00 AM 15.94 60.692 0.643 7.95 15.68 9.78
6/5/2022 9:30:00 AM 16.02 60.836 0.643 7.96 72.8 9.94
6/5/2022 9:45:00 AM 16.11 60.998 0.643 7.98 78.13 10.12
6/5/2022 10:00:00 AM 16.19 61.142 0.643 8 16.37 10.28
6/5/2022 10:15:00 AM 16.28 61.304 0.643 8.01 101.8 10.42
6/5/2022 10:30:00 AM 16.37 61.466 0.642 8.02 12.4 10.57
6/5/2022 10:45:00 AM 16.48 61.664 0.642 8.04 14.43 10.71
6/5/2022 11:00:00 AM 16.58 61.844 0.642 8.05 13.44 10.85
6/5/2022 11:15:00 AM 16.68 62.024 0.642 8.07 12.57 10.98
6/5/2022 11:30:00 AM 16.78 62.204 0.642 8.08 12.79 11.1
6/5/2022 11:45:00 AM 16.84 62.312 0.642 8.09 12.65 11.22
6/5/2022 12:00:00 PM 16.92 62.456 0.642 8.1 12.67 11.33
6/5/2022 12:15:00 PM 16.98 62.564 0.642 8.11 15.47 11.42
6/5/2022 12:30:00 PM 17.07 62.726 0.642 8.12 12.93 11.52
6/5/2022 12:45:00 PM 17.16 62.888 0.642 8.13 13.4 11.61
6/5/2022 1:00:00 PM 17.26 63.068 0.642 8.14 12.71 11.69
6/5/2022 1:15:00 PM 17.36 63.248 0.642 8.15 14.11 11.77
6/5/2022 1:30:00 PM 17.44 63.392 0.642 8.16 14.52 11.83
6/5/2022 1:45:00 PM 17.54 63.572 0.642 8.17 12.9 11.9
6/5/2022 2:00:00 PM 17.62 63.716 0.642 8.17 13.37 11.94
6/5/2022 2:15:00 PM 17.7 63.86 0.642 8.18 15.7 11.98
6/5/2022 2:30:00 PM 17.77 63.986 0.641 8.19 18.64 11.99
6/5/2022 2:45:00 PM 17.82 64.076 0.641 8.19 13.51 11.99
6/5/2022 3:00:00 PM 17.86 64.148 0.642 8.2 13.04 12
6/5/2022 3:15:00 PM 17.89 64.202 0.641 8.2 19.2 11.96
6/5/2022 3:30:00 PM 17.92 64.256 0.641 8.2 12.65 11.93
6/5/2022 3:45:00 PM 17.93 64.274 0.641 8.2 12.91 11.88
6/5/2022 4:00:00 PM 17.95 64.31 0.641 8.2 14.51 11.82
6/5/2022 4:15:00 PM 17.95 64.31 0.641 8.19 24.37 11.74
6/5/2022 4:30:00 PM 17.94 64.292 0.641 8.19 15.14 11.65
6/5/2022 4:45:00 PM 17.92 64.256 0.641 8.19 13.25 11.53
6/5/2022 5:00:00 PM 17.89 64.202 0.642 8.18 13.32 11.44
6/5/2022 5:15:00 PM 17.87 64.166 0.642 8.18 46.27 11.33
6/5/2022 5:30:00 PM 17.83 64.094 0.642 8.17 13.65 11.2
6/5/2022 5:45:00 PM 17.8 64.04 0.642 8.16 12.78 11.06
6/5/2022 6:00:00 PM 17.77 63.986 0.643 8.15 18.19 10.9
6/5/2022 6:15:00 PM 17.74 63.932 0.643 8.13 14.03 10.75
6/5/2022 6:30:00 PM 17.71 63.878 0.643 8.12 20.29 10.59
6/5/2022 6:45:00 PM 17.68 63.824 0.643 8.11 15.77 10.42
6/5/2022 7:00:00 PM 17.64 63.752 0.644 8.09 15.53 10.26
6/5/2022 7:15:00 PM 17.59 63.662 0.644 8.08 16.73 10.08
6/5/2022 7:30:00 PM 17.54 63.572 0.644 8.07 14.33 9.92
6/5/2022 7:45:00 PM 17.49 63.482 0.644 8.05 15.27 9.77
6/5/2022 8:00:00 PM 17.44 63.392 0.645 8.04 21.12 9.62
6/5/2022 8:15:00 PM 17.39 63.302 0.645 8.03 15.86 9.49
6/5/2022 8:30:00 PM 17.33 63.194 0.645 8.02 28.26 9.37
6/5/2022 8:45:00 PM 17.28 63.104 0.645 8 21.84 9.25
6/5/2022 9:00:00 PM 17.22 62.996 0.645 7.99 21.07 9.13
6/5/2022 9:15:00 PM 17.17 62.906 0.645 7.98 31.22 9.01
6/5/2022 9:30:00 PM 17.1 62.78 0.645 7.97 21.88 8.94
6/5/2022 9:45:00 PM 17.04 62.672 0.646 7.96 22.98 8.85
6/5/2022 10:00:00 PM 16.98 62.564 0.642 7.95 19.61 8.77
6/5/2022 10:15:00 PM 16.92 62.456 0.646 7.94 21.37 8.71
6/5/2022 10:30:00 PM 16.86 62.348 0.646 7.93 24.24 8.67
6/5/2022 10:45:00 PM 16.8 62.24 0.646 7.93 22.66 8.61
6/5/2022 11:00:00 PM 16.74 62.132 0.646 7.92 29.66 8.56
6/5/2022 11:15:00 PM 16.68 62.024 0.646 7.91 81.57 8.53
6/5/2022 11:30:00 PM 16.63 61.934 0.647 7.91 25.55 8.5
6/5/2022 11:45:00 PM 16.57 61.826 0.644 7.91 25.83 8.45
6/6/2022 12:00:00 AM 16.51 61.718 0.647 7.9 87.09 8.42
6/6/2022 12:15:00 AM 16.46 61.628 0.648 7.9 76.99 8.41
6/6/2022 12:30:00 AM 16.4 61.52 0.647 7.89 62.09 8.39
6/6/2022 12:45:00 AM 16.35 61.43 0.648 7.89 43.27 8.37
6/6/2022 1:00:00 AM 16.3 61.34 0.648 7.89 31.7 8.35
6/6/2022 1:15:00 AM 16.25 61.25 0.648 7.88 29.81 8.35
6/6/2022 1:30:00 AM 16.2 61.16 0.648 7.88 27.82 8.32
6/6/2022 1:45:00 AM 16.15 61.07 0.648 7.88 27.05 8.3
6/6/2022 2:00:00 AM 16.11 60.998 0.648 7.87 27.65 8.29
6/6/2022 2:15:00 AM 16.06 60.908 0.648 7.87 27.73 8.29
6/6/2022 2:30:00 AM 16.02 60.836 0.648 7.87 28.39 8.28
6/6/2022 2:45:00 AM 15.98 60.764 0.649 7.86 29.53 8.27
6/6/2022 3:00:00 AM 15.94 60.692 0.649 7.86 30.84 8.27
6/6/2022 3:15:00 AM 15.9 60.62 0.649 7.86 28.39 8.27
6/6/2022 3:30:00 AM 15.85 60.53 0.649 7.86 31.14 8.27
6/6/2022 3:45:00 AM 15.81 60.458 0.649 7.86 31.4 8.27
6/6/2022 4:00:00 AM 15.77 60.386 0.648 7.86 31.09 8.27
6/6/2022 4:15:00 AM 15.72 60.296 0.637 7.85 23.42 8.29
6/6/2022 4:30:00 AM 15.69 60.242 0.634 7.85 23.85 8.29
6/6/2022 4:45:00 AM 15.65 60.17 0.648 7.85 24.92 8.29
6/6/2022 5:00:00 AM 15.61 60.098 0.648 7.85 25.32 8.3
6/6/2022 5:15:00 AM 15.56 60.008 0.648 7.85 23.53 8.3
6/6/2022 5:30:00 AM 15.52 59.936 0.648 7.85 23.91 8.3
6/6/2022 5:45:00 AM 15.49 59.882 0.648 7.84 23.49 8.31
6/6/2022 6:00:00 AM 15.46 59.828 0.648 7.84 23.79 8.32
6/6/2022 6:15:00 AM 15.43 59.774 0.647 7.85 26.3 8.35
6/6/2022 6:30:00 AM 15.4 59.72 0.647 7.84 24.22 8.37
6/6/2022 6:45:00 AM 15.38 59.684 0.647 7.85 24.6 8.43
6/6/2022 7:00:00 AM 15.37 59.666 0.646 7.85 24.78 8.5
6/6/2022 7:15:00 AM 15.37 59.666 0.646 7.85 25.3 8.58
6/6/2022 7:30:00 AM 15.38 59.684 0.646 7.86 24.81 8.69
6/6/2022 7:45:00 AM 15.4 59.72 0.645 7.87 24.52 8.82
6/6/2022 8:00:00 AM 15.44 59.792 0.645 7.88 24.38 8.97
6/6/2022 8:15:00 AM 15.49 59.882 0.645 7.89 26.14 9.15
6/6/2022 8:30:00 AM 15.56 60.008 0.645 7.9 26.78 9.33
6/6/2022 8:45:00 AM 15.64 60.152 0.645 7.92 37.1 9.49
6/6/2022 9:00:00 AM 15.7 60.26 0.645 7.93 23.59 9.66
6/6/2022 9:15:00 AM 15.77 60.386 0.645 7.94 23.94 9.79
6/6/2022 9:30:00 AM 15.85 60.53 0.646 7.96 24.38 9.94
6/6/2022 9:45:00 AM 15.95 60.71 0.645 7.97 24.07 10.08
6/6/2022 10:00:00 AM 16.05 60.89 0.645 7.99 24.26 10.24
6/6/2022 10:15:00 AM 16.16 61.088 0.645 8 24.99 10.38
6/6/2022 10:30:00 AM 16.28 61.304 0.645 8.01 25.26 10.53
6/6/2022 10:45:00 AM 16.43 61.574 0.644 8.03 25.52 10.69
6/6/2022 11:00:00 AM 16.57 61.826 0.643 8.05 24.87 10.87
6/6/2022 11:15:00 AM 16.63 61.934 0.643 8.06 24.94 11
6/6/2022 11:30:00 AM 16.68 62.024 0.642 8.07 24.72 11.09
6/6/2022 11:45:00 AM 16.8 62.24 0.642 8.09 24.99 11.22
6/6/2022 12:00:00 PM 16.9 62.42 0.642 8.09 25.35 11.31
6/6/2022 12:15:00 PM 17.02 62.636 0.642 8.1 25.74 11.43
6/6/2022 12:30:00 PM 17.15 62.87 0.643 8.12 25.98 11.56
6/6/2022 12:45:00 PM 17.29 63.122 0.643 8.13 27.82 11.66
6/6/2022 1:00:00 PM 17.41 63.338 0.643 8.14 26.52 11.79
6/6/2022 1:15:00 PM 17.52 63.536 0.642 8.15 26.56 11.87
6/6/2022 1:30:00 PM 17.63 63.734 0.643 8.16 26.3 11.94
6/6/2022 1:45:00 PM 17.73 63.914 0.643 8.17 27.27 11.99
6/6/2022 2:00:00 PM 17.81 64.058 0.643 8.18 27.34 12.03
6/6/2022 2:15:00 PM 17.9 64.22 0.643 8.19 26.32 12.05
6/6/2022 2:30:00 PM 17.98 64.364 0.643 8.19 26.06 12.05
6/6/2022 2:45:00 PM 18.04 64.472 0.643 8.2 26.77 12.05
6/6/2022 3:00:00 PM 18.08 64.544 0.643 8.2 27.22 12.02
6/6/2022 3:15:00 PM 18.11 64.598 0.643 8.2 26.87 12.03
6/6/2022 3:30:00 PM 18.12 64.616 0.643 8.2 25.09 12
6/6/2022 3:45:00 PM 18.13 64.634 0.643 8.2 22.97 12.01
6/6/2022 4:00:00 PM 18.13 64.634 0.644 8.2 23.66 11.93
6/6/2022 4:15:00 PM 18.12 64.616 0.644 8.2 24.13 11.89
6/6/2022 4:30:00 PM 18.1 64.58 0.644 8.2 24.15 11.76
6/6/2022 4:45:00 PM 18.09 64.562 0.644 8.2 24.67 11.69
6/6/2022 5:00:00 PM 18.07 64.526 0.643 8.19 25.41 11.57
6/6/2022 5:15:00 PM 18.05 64.49 0.643 8.19 25.46 11.46
6/6/2022 5:30:00 PM 18.02 64.436 0.644 8.18 26.36 11.35
6/6/2022 5:45:00 PM 17.99 64.382 0.644 8.18 25.5 11.22
6/6/2022 6:00:00 PM 17.96 64.328 0.644 8.17 24.48 11.09
6/6/2022 6:15:00 PM 17.92 64.256 0.644 8.16 26 10.94
6/6/2022 6:30:00 PM 17.88 64.184 0.644 8.15 25.25 10.81
6/6/2022 6:45:00 PM 17.84 64.112 0.645 8.13 30.92 10.65
6/6/2022 7:00:00 PM 17.8 64.04 0.646 8.12 39.95 10.49
6/6/2022 7:15:00 PM 17.77 63.986 0.646 8.11 26.44 10.34
6/6/2022 7:30:00 PM 17.73 63.914 0.645 8.1 27.34 10.19
6/6/2022 7:45:00 PM 17.7 63.86 0.646 8.09 23.11 10.04
6/6/2022 8:00:00 PM 17.66 63.788 0.646 8.07 27.07 9.89
6/6/2022 8:15:00 PM 17.61 63.698 0.646 8.06 25.97 9.72
6/6/2022 8:30:00 PM 17.56 63.608 0.646 8.05 26.05 9.57
6/6/2022 8:45:00 PM 17.51 63.518 0.646 8.03 27.01 9.42
6/6/2022 9:00:00 PM 17.46 63.428 0.647 8.02 25.12 9.27
6/6/2022 9:15:00 PM 17.41 63.338 0.647 8.01 26.95 9.16
6/6/2022 9:30:00 PM 17.36 63.248 0.647 7.99 61.03 9.05
6/6/2022 9:45:00 PM 17.3 63.14 0.645 7.98 27.06 8.96
6/6/2022 10:00:00 PM 17.26 63.068 0.648 7.97 31.75 8.87
6/6/2022 10:15:00 PM 17.21 62.978 0.648 7.96 26.93 8.81
6/6/2022 10:30:00 PM 17.17 62.906 0.649 7.95 32.25 8.74
6/6/2022 10:45:00 PM 17.12 62.816 0.649 7.94 28.82 8.66
6/6/2022 11:00:00 PM 17.08 62.744 0.649 7.93 33.74 8.62
6/6/2022 11:15:00 PM 17.04 62.672 0.649 7.93 30.2 8.56
6/6/2022 11:30:00 PM 16.99 62.582 0.649 7.92 79.02 8.53
6/6/2022 11:45:00 PM 16.95 62.51 0.649 7.92 30.34 8.48
6/7/2022 12:00:00 AM 16.9 62.42 0.65 7.91 30.48 8.44
6/7/2022 12:15:00 AM 16.86 62.348 0.65 7.9 31.86 8.4
6/7/2022 12:30:00 AM 16.82 62.276 0.65 7.9 39.81 8.38
6/7/2022 12:45:00 AM 16.78 62.204 0.65 7.89 114.1 8.35
6/7/2022 1:00:00 AM 16.73 62.114 0.65 7.89 122.3 8.33
6/7/2022 1:15:00 AM 16.69 62.042 0.65 7.89 33.56 8.32
6/7/2022 1:30:00 AM 16.65 61.97 0.65 7.88 71.54 8.3
6/7/2022 1:45:00 AM 16.62 61.916 0.649 7.88 50.25 8.27
6/7/2022 2:00:00 AM 16.58 61.844 0.649 7.87 35.08 8.27
6/7/2022 2:15:00 AM 16.53 61.754 0.649 7.87 58.18 8.26
6/7/2022 2:30:00 AM 16.49 61.682 0.649 7.87 44.44 8.24
6/7/2022 2:45:00 AM 16.45 61.61 0.649 7.87 59.43 8.23
6/7/2022 3:00:00 AM 16.41 61.538 0.555 7.86 42.23 8.23
6/7/2022 3:15:00 AM 16.37 61.466 0.649 7.86 51.67 8.22
6/7/2022 3:30:00 AM 16.33 61.394 0.649 7.86 32.97 8.21
6/7/2022 3:45:00 AM 16.29 61.322 0.649 7.85 49.91 8.2
6/7/2022 4:00:00 AM 16.26 61.268 0.649 7.85 69.02 8.19
6/7/2022 4:15:00 AM 16.23 61.214 0.649 7.85 38.11 8.19
6/7/2022 4:30:00 AM 16.21 61.178 0.648 7.85 33.05 8.19
6/7/2022 4:45:00 AM 16.17 61.106 0.648 7.85 40.69 8.19
6/7/2022 5:00:00 AM 16.14 61.052 0.648 7.84 99.07 8.19
6/7/2022 5:15:00 AM 16.12 61.016 0.648 7.84 165.2 8.19
6/7/2022 5:30:00 AM 16.09 60.962 0.648 7.84 70.47 8.19
6/7/2022 5:45:00 AM 16.06 60.908 0.648 7.84 144.4 8.19
6/7/2022 6:00:00 AM 16.04 60.872 0.648 7.83 42.48 8.21
6/7/2022 6:15:00 AM 16.02 60.836 0.647 7.83 29.83 8.24
6/7/2022 6:30:00 AM 16 60.8 0.647 7.84 27.62 8.29
6/7/2022 6:45:00 AM 15.99 60.782 0.647 7.84 22.19 8.36
6/7/2022 7:00:00 AM 15.99 60.782 0.647 7.84 19.83 8.43
6/7/2022 7:15:00 AM 15.99 60.782 0.646 7.85 18.35 8.52
6/7/2022 7:30:00 AM 16 60.8 0.646 7.85 16.38 8.63
6/7/2022 7:45:00 AM 16.01 60.818 0.646 7.86 17.52 8.74
6/7/2022 8:00:00 AM 16.04 60.872 0.646 7.87 17.7 8.87
6/7/2022 8:15:00 AM 16.09 60.962 0.645 7.89 17.01 9.06
6/7/2022 8:30:00 AM 16.13 61.034 0.643 7.9 89.92 9.17
6/7/2022 8:45:00 AM 16.15 61.07 0.634 7.9 42.98 9.24
6/7/2022 9:00:00 AM 16.18 61.124 0.592 7.91 112.8 9.3
6/7/2022 9:15:00 AM 16.2 61.16 0.642 7.92 121.5 9.36
6/7/2022 9:30:00 AM 16.23 61.214 0.637 7.92 122.8 9.42
6/7/2022 9:45:00 AM 16.25 61.25 0.626 7.93 170.9 9.47
6/7/2022 10:00:00 AM 16.27 61.286 0.645 7.93 96.41 9.5
6/7/2022 10:15:00 AM 16.29 61.322 0.645 7.93 73.14 9.56
6/7/2022 10:30:00 AM 16.32 61.376 0.623 7.94 53.79 9.67
6/7/2022 10:45:00 AM 16.41 61.538 0.639 7.95 76.31 9.87
6/7/2022 11:00:00 AM 16.48 61.664 0.639 7.98 73.91 10.1
6/7/2022 11:15:00 AM 16.52 61.736 0.582 7.99 108.6 10.24
6/7/2022 11:30:00 AM 16.57 61.826 0.571 8 81.58 10.36
6/7/2022 11:45:00 AM 16.6 61.88 0.573 8.02 60.15 10.45
6/7/2022 12:00:00 PM 16.62 61.916 0.628 8.02 109.8 10.47
6/7/2022 12:15:00 PM 16.68 62.024 0.645 8.03 82.22 10.58
6/7/2022 12:30:00 PM 16.83 62.294 0.645 8.05 25.41 10.83
6/7/2022 12:45:00 PM 16.96 62.528 0.644 8.07 25.69 11.05
6/7/2022 1:00:00 PM 16.99 62.582 0.645 8.09 40.85 11.14
6/7/2022 1:15:00 PM 17.01 62.618 0.645 8.09 70.61 11.17
6/7/2022 1:30:00 PM 17.04 62.672 0.646 8.09 33.11 11.13
6/7/2022 1:45:00 PM 17.02 62.636 0.646 8.09 91.77 11.04
6/7/2022 2:00:00 PM 16.97 62.546 0.646 8.08 63.14 10.89
6/7/2022 2:15:00 PM 16.92 62.456 0.647 8.07 77.98 10.77
6/7/2022 2:30:00 PM 16.87 62.366 0.646 8.06 29.39 10.68
6/7/2022 2:45:00 PM 16.83 62.294 0.647 8.06 13.28 10.58
6/7/2022 3:00:00 PM 16.79 62.222 0.647 8.05 5.55 10.5
6/7/2022 3:15:00 PM 16.76 62.168 0.647 8.04 10.46 10.4
6/7/2022 3:30:00 PM 16.73 62.114 0.647 8.04 4.28 10.28
6/7/2022 3:45:00 PM 16.71 62.078 0.648 8.03 4.48 10.2
6/7/2022 4:00:00 PM 16.7 62.06 0.635 8.03 4.19 10.15
6/7/2022 4:15:00 PM 16.71 62.078 0.647 8.02 3.53 10.13
6/7/2022 4:30:00 PM 16.7 62.06 0.649 8.02 2.95 10.07
6/7/2022 4:45:00 PM 16.7 62.06 0.649 8.02 2.88 9.99
6/7/2022 5:00:00 PM 16.69 62.042 0.631 8.01 3.35 9.94
6/7/2022 5:15:00 PM 16.68 62.024 0.648 8.01 3.12 9.83
6/7/2022 5:30:00 PM 16.67 62.006 0.648 8.01 3.25 9.81
6/7/2022 5:45:00 PM 16.65 61.97 0.649 8 3.14 9.77
6/7/2022 6:00:00 PM 16.63 61.934 0.649 8 3.17 9.69
6/7/2022 6:15:00 PM 16.62 61.916 0.648 7.99 3.09 9.62
6/7/2022 6:30:00 PM 16.59 61.862 0.648 7.99 4.26 9.53
6/7/2022 6:45:00 PM 16.58 61.844 0.647 7.98 2.92 9.44
6/7/2022 7:00:00 PM 16.56 61.808 0.648 7.97 3.56 9.4
6/7/2022 7:15:00 PM 16.54 61.772 0.648 7.97 3.36 9.32
6/7/2022 7:30:00 PM 16.52 61.736 0.648 7.96 3.51 9.23
6/7/2022 7:45:00 PM 16.5 61.7 0.648 7.95 4.36 9.18
6/7/2022 8:00:00 PM 16.5 61.7 0.644 7.95 4.41 9.12
6/7/2022 8:15:00 PM 16.48 61.664 0.644 7.95 4.5 9.04
6/7/2022 8:30:00 PM 16.47 61.646 0.642 7.94 4.94 8.98
6/7/2022 8:45:00 PM 16.45 61.61 0.641 7.93 6.96 8.91
6/7/2022 9:00:00 PM 16.42 61.556 0.642 7.92 18.82 8.85
6/7/2022 9:15:00 PM 16.4 61.52 0.642 7.91 8.96 8.79
6/7/2022 9:30:00 PM 16.39 61.502 0.642 7.9 8.12 8.73
6/7/2022 9:45:00 PM 16.36 61.448 0.642 7.9 8.87 8.68
6/7/2022 10:00:00 PM 16.34 61.412 0.642 7.89 8.76 8.63
6/7/2022 10:15:00 PM 16.32 61.376 0.642 7.88 10.6 8.58
6/7/2022 10:30:00 PM 16.31 61.358 0.642 7.88 11.86 8.55
6/7/2022 10:45:00 PM 16.29 61.322 0.643 7.87 15.05 8.52
6/7/2022 11:00:00 PM 16.28 61.304 0.643 7.87 15.78 8.49
6/7/2022 11:15:00 PM 16.27 61.286 0.644 7.86 14.99 8.46
6/7/2022 11:30:00 PM 16.27 61.286 0.645 7.86 12.51 8.45
6/7/2022 11:45:00 PM 16.26 61.268 0.645 7.85 14.94 8.41
6/8/2022 12:00:00 AM 16.26 61.268 0.644 7.85 17.72 8.38
6/8/2022 12:15:00 AM 16.26 61.268 0.644 7.84 13.39 8.34
6/8/2022 12:30:00 AM 16.25 61.25 0.644 7.83 14.69 8.31
6/8/2022 12:45:00 AM 16.23 61.214 0.645 7.83 17.8 8.29
6/8/2022 1:00:00 AM 16.21 61.178 0.645 7.83 18.84 8.29
6/8/2022 1:15:00 AM 16.19 61.142 0.647 7.82 16.69 8.28
6/8/2022 1:30:00 AM 16.17 61.106 0.648 7.82 18.15 8.28
6/8/2022 1:45:00 AM 16.15 61.07 0.64 7.81 17.43 8.28
6/8/2022 2:00:00 AM 16.13 61.034 0.644 7.81 17.18 8.28
6/8/2022 2:15:00 AM 16.13 61.034 0.65 7.81 18.54 8.26
6/8/2022 2:30:00 AM 16.13 61.034 0.65 7.81 17.26 8.24
6/8/2022 2:45:00 AM 16.14 61.052 0.648 7.8 17.97 8.22
6/8/2022 3:00:00 AM 16.15 61.07 0.646 7.8 21.43 8.2
6/8/2022 3:15:00 AM 16.16 61.088 0.644 7.79 22.02 8.18
6/8/2022 3:30:00 AM 16.18 61.124 0.645 7.79 21.47 8.17
6/8/2022 3:45:00 AM 16.18 61.124 0.645 7.79 21.2 8.16
6/8/2022 4:00:00 AM 16.18 61.124 0.646 7.79 19.37 8.16
6/8/2022 4:15:00 AM 16.18 61.124 0.646 7.78 23.73 8.16
6/8/2022 4:30:00 AM 16.18 61.124 0.647 7.78 22.79 8.15
6/8/2022 4:45:00 AM 16.19 61.142 0.648 7.78 27.03 8.14
6/8/2022 5:00:00 AM 16.19 61.142 0.649 7.78 24.59 8.13
6/8/2022 5:15:00 AM 16.2 61.16 0.65 7.78 24.37 8.12
6/8/2022 5:30:00 AM 16.2 61.16 0.651 7.78 21.66 8.12
6/8/2022 5:45:00 AM 16.2 61.16 0.651 7.78 20.54 8.12
6/8/2022 6:00:00 AM 16.21 61.178 0.652 7.78 23.4 8.12
6/8/2022 6:15:00 AM 16.21 61.178 0.652 7.78 22.67 8.14
6/8/2022 6:30:00 AM 16.21 61.178 0.652 7.78 20.68 8.17
6/8/2022 6:45:00 AM 16.21 61.178 0.652 7.79 28.96 8.2
6/8/2022 7:00:00 AM 16.22 61.196 0.652 7.79 23.16 8.25
6/8/2022 7:15:00 AM 16.23 61.214 0.65 7.79 22.95 8.31
6/8/2022 7:30:00 AM 16.25 61.25 0.648 7.8 19.95 8.39
6/8/2022 7:45:00 AM 16.29 61.322 0.645 7.8 31.42 8.5
6/8/2022 8:00:00 AM 16.33 61.394 0.642 7.81 22.62 8.62
6/8/2022 8:15:00 AM 16.41 61.538 0.638 7.81 20.35 8.78
6/8/2022 8:30:00 AM 16.48 61.664 0.634 7.82 21.15 8.92
6/8/2022 8:45:00 AM 16.56 61.808 0.629 7.83 21 9.05
6/8/2022 9:00:00 AM 16.64 61.952 0.624 7.84 20.88 9.18
6/8/2022 9:15:00 AM 16.71 62.078 0.619 7.84 21.15 9.29
6/8/2022 9:30:00 AM 16.78 62.204 0.614 7.85 20.54 9.37
6/8/2022 9:45:00 AM 16.86 62.348 0.609 7.86 21.24 9.51
6/8/2022 10:00:00 AM 16.95 62.51 0.606 7.86 20.61 9.64
6/8/2022 10:15:00 AM 17.05 62.69 0.603 7.88 21.55 9.81
6/8/2022 10:30:00 AM 17.14 62.852 0.602 7.89 21.41 9.98
6/8/2022 10:45:00 AM 17.23 63.014 0.601 7.9 22.28 10.14
6/8/2022 11:00:00 AM 17.32 63.176 0.601 7.92 19.79 10.3
6/8/2022 11:15:00 AM 17.42 63.356 0.602 7.93 20.73 10.48
6/8/2022 11:30:00 AM 17.54 63.572 0.603 7.95 20.51 10.64
6/8/2022 11:45:00 AM 17.64 63.752 0.603 7.96 19.75 10.8
6/8/2022 12:00:00 PM 17.76 63.968 0.604 7.98 21.58 10.94
6/8/2022 12:15:00 PM 17.88 64.184 0.604 8 20.39 11.1
6/8/2022 12:30:00 PM 17.99 64.382 0.604 8.01 25.41 11.24
6/8/2022 12:45:00 PM 18.1 64.58 0.603 8.03 19.72 11.36
6/8/2022 1:00:00 PM 18.23 64.814 0.602 8.04 20.3 11.46
6/8/2022 1:15:00 PM 18.32 64.976 0.6 8.05 19.75 11.57
6/8/2022 1:30:00 PM 18.42 65.156 0.598 8.06 20.43 11.64
6/8/2022 1:45:00 PM 18.51 65.318 0.596 8.07 21.16 11.69
6/8/2022 2:00:00 PM 18.59 65.462 0.594 8.08 28.2 11.76
6/8/2022 2:15:00 PM 18.66 65.588 0.592 8.09 21.17 11.8
6/8/2022 2:30:00 PM 18.73 65.714 0.592 8.1 20.52 11.84
6/8/2022 2:45:00 PM 18.79 65.82201 0.592 8.11 20.6 11.87
6/8/2022 3:00:00 PM 18.85 65.93 0.592 8.12 28.42 11.88
6/8/2022 3:15:00 PM 18.88 65.984 0.592 8.12 20.57 11.86
6/8/2022 3:30:00 PM 18.91 66.038 0.593 8.12 21.36 11.84
6/8/2022 3:45:00 PM 18.92 66.056 0.594 8.12 21.39 11.79
6/8/2022 4:00:00 PM 18.92 66.056 0.595 8.12 18.45 11.73
6/8/2022 4:15:00 PM 18.91 66.038 0.598 8.12 18.52 11.66
6/8/2022 4:30:00 PM 18.89 66.002 0.6 8.12 19.44 11.58
6/8/2022 4:45:00 PM 18.87 65.966 0.602 8.11 20.11 11.47
6/8/2022 5:00:00 PM 18.85 65.93 0.604 8.11 17.51 11.36
6/8/2022 5:15:00 PM 18.82 65.876 0.605 8.1 16.46 11.26
6/8/2022 5:30:00 PM 18.78 65.804 0.607 8.1 16.99 11.13
6/8/2022 5:45:00 PM 18.74 65.732 0.608 8.09 17.21 10.97
6/8/2022 6:00:00 PM 18.71 65.67799 0.61 8.08 17.18 10.8
6/8/2022 6:15:00 PM 18.67 65.606 0.611 8.07 17.34 10.65
6/8/2022 6:30:00 PM 18.64 65.552 0.612 8.06 16.92 10.46
6/8/2022 6:45:00 PM 18.59 65.462 0.613 8.05 16.75 10.3
6/8/2022 7:00:00 PM 18.55 65.39 0.614 8.03 17.35 10.13
6/8/2022 7:15:00 PM 18.5 65.3 0.615 8.02 18.52 9.97
6/8/2022 7:30:00 PM 18.46 65.228 0.616 8.01 18.96 9.83
6/8/2022 7:45:00 PM 18.43 65.174 0.617 8 17.46 9.68
6/8/2022 8:00:00 PM 18.39 65.102 0.619 7.99 17.7 9.53
6/8/2022 8:15:00 PM 18.36 65.048 0.62 7.97 17.95 9.36
6/8/2022 8:30:00 PM 18.31 64.958 0.621 7.96 17.55 9.21
6/8/2022 8:45:00 PM 18.27 64.886 0.622 7.95 17.69 9.06
6/8/2022 9:00:00 PM 18.22 64.796 0.623 7.94 18.1 8.91
6/8/2022 9:15:00 PM 18.17 64.706 0.625 7.93 18.03 8.79
6/8/2022 9:30:00 PM 18.13 64.634 0.626 7.92 17.83 8.7
6/8/2022 9:45:00 PM 18.09 64.562 0.627 7.91 18.68 8.6
6/8/2022 10:00:00 PM 18.05 64.49 0.628 7.9 18.57 8.52
6/8/2022 10:15:00 PM 18.02 64.436 0.63 7.89 19.2 8.44
6/8/2022 10:30:00 PM 17.98 64.364 0.631 7.88 18.08 8.38
6/8/2022 10:45:00 PM 17.94 64.292 0.632 7.88 22.69 8.32
6/8/2022 11:00:00 PM 17.89 64.202 0.634 7.87 19.59 8.27
6/8/2022 11:15:00 PM 17.86 64.148 0.635 7.87 19.43 8.21
6/8/2022 11:30:00 PM 17.83 64.094 0.636 7.86 20.61 8.17
6/8/2022 11:45:00 PM 17.8 64.04 0.637 7.86 20.06 8.13
6/9/2022 12:00:00 AM 17.76 63.968 0.623 7.86 20.25 8.08
6/9/2022 12:15:00 AM 17.73 63.914 0.637 7.85 22.56 8.06
6/9/2022 12:30:00 AM 17.7 63.86 0.632 7.85 19.92 8.04
6/9/2022 12:45:00 AM 17.67 63.806 0.636 7.85 21.58 8.02
6/9/2022 1:00:00 AM 17.64 63.752 0.636 7.84 22.18 7.98
6/9/2022 1:15:00 AM 17.62 63.716 0.636 7.84 22.71 7.96
6/9/2022 1:30:00 AM 17.6 63.68 0.636 7.84 24 7.92
6/9/2022 1:45:00 AM 17.58 63.644 0.636 7.84 22.02 7.9
6/9/2022 2:00:00 AM 17.56 63.608 0.635 7.83 22.58 7.88
6/9/2022 2:15:00 AM 17.54 63.572 0.634 7.83 21.38 7.85
6/9/2022 2:30:00 AM 17.53 63.554 0.632 7.83 22.36 7.85
6/9/2022 2:45:00 AM 17.52 63.536 0.632 7.83 22.31 7.82
6/9/2022 3:00:00 AM 17.52 63.536 0.633 7.83 22.24 7.8
6/9/2022 3:15:00 AM 17.51 63.518 0.633 7.83 23.05 7.79
6/9/2022 3:30:00 AM 17.49 63.482 0.634 7.83 25.01 7.78
6/9/2022 3:45:00 AM 17.47 63.446 0.634 7.83 25.09 7.76
6/9/2022 4:00:00 AM 17.44 63.392 0.633 7.82 26.43 7.75
6/9/2022 4:15:00 AM 17.42 63.356 0.634 7.82 24.6 7.74
6/9/2022 4:30:00 AM 17.39 63.302 0.635 7.82 24.9 7.73
6/9/2022 4:45:00 AM 17.37 63.266 0.636 7.82 39.21 7.72
6/9/2022 5:00:00 AM 17.35 63.23 0.637 7.81 25.45 7.73
6/9/2022 5:15:00 AM 17.33 63.194 0.637 7.81 25.91 7.73
6/9/2022 5:30:00 AM 17.31 63.158 0.637 7.81 26.81 7.72
6/9/2022 5:45:00 AM 17.29 63.122 0.637 7.81 26.35 7.71
6/9/2022 6:00:00 AM 17.27 63.086 0.636 7.81 25.37 7.71
6/9/2022 6:15:00 AM 17.27 63.086 0.633 7.8 25.73 7.7
6/9/2022 6:30:00 AM 17.29 63.122 0.628 7.8 24.92 7.69
6/9/2022 6:45:00 AM 17.31 63.158 0.623 7.8 26.25 7.7
6/9/2022 7:00:00 AM 17.34 63.212 0.62 7.79 25.12 7.73
6/9/2022 7:15:00 AM 17.35 63.23 0.619 7.79 25.83 7.8
6/9/2022 7:30:00 AM 17.35 63.23 0.621 7.8 24.81 7.88
6/9/2022 7:45:00 AM 17.37 63.266 0.622 7.8 26.32 7.99
6/9/2022 8:00:00 AM 17.39 63.302 0.624 7.82 25.68 8.13
6/9/2022 8:15:00 AM 17.44 63.392 0.622 7.83 25.63 8.28
6/9/2022 8:30:00 AM 17.51 63.518 0.621 7.84 26.43 8.43
6/9/2022 8:45:00 AM 17.58 63.644 0.62 7.85 26.52 8.58
6/9/2022 9:00:00 AM 17.65 63.77 0.62 7.86 25.43 8.76
6/9/2022 9:15:00 AM 17.7 63.86 0.621 7.87 26.27 8.9
6/9/2022 9:30:00 AM 17.73 63.914 0.623 7.88 26.62 8.98
6/9/2022 9:45:00 AM 17.72 63.896 0.625 7.89 27.49 8.95
6/9/2022 10:00:00 AM 17.79 64.022 0.629 7.89 29.45 9.11
6/9/2022 10:15:00 AM 17.87 64.166 0.63 7.91 26.28 9.3
6/9/2022 10:30:00 AM 17.97 64.346 0.63 7.93 26.79 9.51
6/9/2022 10:45:00 AM 18.07 64.526 0.629 7.94 26.94 9.72
6/9/2022 11:00:00 AM 18.16 64.688 0.628 7.96 28.07 9.88
6/9/2022 11:15:00 AM 18.18 64.724 0.627 7.97 26.29 9.95
6/9/2022 11:30:00 AM 18.22 64.796 0.627 7.97 26.89 9.95
6/9/2022 11:45:00 AM 18.29 64.922 0.628 7.98 27.64 10.07
6/9/2022 12:00:00 PM 18.33 64.994 0.629 7.99 28.6 10.14
6/9/2022 12:15:00 PM 18.44 65.192 0.629 8.01 26.52 10.35
6/9/2022 12:30:00 PM 18.57 65.426 0.598 8.03 27.87 10.55
6/9/2022 12:45:00 PM 18.64 65.552 0.611 8.05 29.5 10.68
6/9/2022 1:00:00 PM 18.72 65.696 0.63 8.06 32.95 10.8
6/9/2022 1:15:00 PM 18.85 65.93 0.629 8.08 38.64 10.94
6/9/2022 1:30:00 PM 18.92 66.056 0.631 8.1 49.49 11.03
6/9/2022 1:45:00 PM 18.94 66.092 0.631 8.11 40.4 11.06
6/9/2022 2:00:00 PM 18.99 66.182 0.633 8.12 27.46 11.13
6/9/2022 2:15:00 PM 18.98 66.164 0.633 8.13 28.17 11.13
6/9/2022 2:30:00 PM 18.98 66.164 0.632 8.13 27.63 11.12
6/9/2022 2:45:00 PM 19.07 66.326 0.631 8.14 26.37 11.28
6/9/2022 3:00:00 PM 19.11 66.398 0.627 8.15 28.09 11.35
6/9/2022 3:15:00 PM 19.16 66.488 0.624 8.16 27.96 11.41
6/9/2022 3:30:00 PM 19.16 66.488 0.62 8.16 26.58 11.41
6/9/2022 3:45:00 PM 19.17 66.506 0.615 8.16 28.99 11.39
6/9/2022 4:00:00 PM 19.14 66.452 0.611 8.16 26.82 11.33
6/9/2022 4:15:00 PM 19.05 66.29 0.607 8.15 25.45 11.19
6/9/2022 4:30:00 PM 19.07 66.326 0.602 8.14 27.47 11.16
6/9/2022 4:45:00 PM 19.09 66.362 0.599 8.14 28.15 11.13
6/9/2022 5:00:00 PM 19.05 66.29 0.597 8.13 25.95 11.02
6/9/2022 5:15:00 PM 19 66.2 0.595 8.12 25.4 10.9
6/9/2022 5:30:00 PM 18.96 66.128 0.594 8.11 19.22 10.83
6/9/2022 5:45:00 PM 18.86 65.948 0.594 8.09 21.38 10.64
6/9/2022 6:00:00 PM 18.8 65.84 0.593 8.08 20.89 10.52
6/9/2022 6:15:00 PM 18.72 65.696 0.593 8.07 22.14 10.33
6/9/2022 6:30:00 PM 18.62 65.516 0.593 8.05 21.59 10.14
6/9/2022 6:45:00 PM 18.53 65.354 0.593 8.03 21.42 9.93
6/9/2022 7:00:00 PM 18.45 65.21 0.592 8.01 21.97 9.79
6/9/2022 7:15:00 PM 18.38 65.084 0.591 8 22.69 9.66
6/9/2022 7:30:00 PM 18.32 64.976 0.59 7.99 23.39 9.56
6/9/2022 7:45:00 PM 18.28 64.904 0.59 7.98 23.44 9.46
6/9/2022 8:00:00 PM 18.23 64.814 0.589 7.97 23.76 9.36
6/9/2022 8:15:00 PM 18.17 64.706 0.59 7.96 24.56 9.23
6/9/2022 8:30:00 PM 18.12 64.616 0.59 7.95 25.23 9.12
6/9/2022 8:45:00 PM 18.06 64.508 0.591 7.94 27.91 8.99
6/9/2022 9:00:00 PM 17.99 64.382 0.593 7.92 41.43 8.87
6/9/2022 9:15:00 PM 17.92 64.256 0.594 7.91 27.28 8.77
6/9/2022 9:30:00 PM 17.85 64.13 0.596 7.9 26.35 8.67
6/9/2022 9:45:00 PM 17.79 64.022 0.598 7.89 27.88 8.59
6/9/2022 10:00:00 PM 17.73 63.914 0.6 7.88 27.91 8.52
6/9/2022 10:15:00 PM 17.66 63.788 0.603 7.88 29.48 8.46
6/9/2022 10:30:00 PM 17.6 63.68 0.605 7.87 30.32 8.4
6/9/2022 10:45:00 PM 17.55 63.59 0.607 7.86 28.84 8.35
6/9/2022 11:00:00 PM 17.5 63.5 0.609 7.86 32.98 8.31
6/9/2022 11:15:00 PM 17.44 63.392 0.61 7.86 31.66 8.27
6/9/2022 11:30:00 PM 17.39 63.302 0.612 7.85 31.83 8.23
6/9/2022 11:45:00 PM 17.33 63.194 0.614 7.85 32.64 8.21
6/10/2022 12:00:00 AM 17.27 63.086 0.616 7.84 44.33 8.18
6/10/2022 12:15:00 AM 17.21 62.978 0.617 7.84 40.16 8.14
6/10/2022 12:30:00 AM 17.14 62.852 0.618 7.84 32.72 8.12
6/10/2022 12:45:00 AM 17.07 62.726 0.62 7.83 33.29 8.09
6/10/2022 1:00:00 AM 17.01 62.618 0.622 7.83 33.79 8.09
6/10/2022 1:15:00 AM 16.95 62.51 0.623 7.83 33.09 8.07
6/10/2022 1:30:00 AM 16.89 62.402 0.624 7.82 33.92 8.07
6/10/2022 1:45:00 AM 16.83 62.294 0.626 7.82 38.9 8.06
6/10/2022 2:00:00 AM 16.78 62.204 0.612 7.82 73.64 8.05
6/10/2022 2:15:00 AM 16.72 62.096 0.628 7.82 35.51 8.03
6/10/2022 2:30:00 AM 16.67 62.006 0.629 7.82 36.99 8.04
6/10/2022 2:45:00 AM 16.62 61.916 0.63 7.82 43.16 8.04
6/10/2022 3:00:00 AM 16.56 61.808 0.631 7.82 36.99 8.03
6/10/2022 3:15:00 AM 16.51 61.718 0.632 7.82 50.07 8.04
6/10/2022 3:30:00 AM 16.46 61.628 0.632 7.82 37.19 8.04
6/10/2022 3:45:00 AM 16.41 61.538 0.633 7.83 37.99 8.05
6/10/2022 4:00:00 AM 16.36 61.448 0.634 7.82 39.18 8.06
6/10/2022 4:15:00 AM 16.31 61.358 0.635 7.82 38.34 8.07
6/10/2022 4:30:00 AM 16.26 61.268 0.635 7.82 39.35 8.07
6/10/2022 4:45:00 AM 16.21 61.178 0.636 7.82 38.52 8.07
6/10/2022 5:00:00 AM 16.16 61.088 0.585 7.81 37.96 8.09
6/10/2022 5:15:00 AM 16.12 61.016 0.637 7.81 38.97 8.09
6/10/2022 5:30:00 AM 16.07 60.926 0.637 7.81 39.92 8.1
6/10/2022 5:45:00 AM 16.03 60.854 0.637 7.81 40.06 8.11
6/10/2022 6:00:00 AM 15.98 60.764 0.638 7.81 40.86 8.13
6/10/2022 6:15:00 AM 15.94 60.692 0.638 7.81 43.44 8.16
6/10/2022 6:30:00 AM 15.91 60.638 0.638 7.81 41.09 8.19
6/10/2022 6:45:00 AM 15.88 60.584 0.639 7.81 43.2 8.24
6/10/2022 7:00:00 AM 15.86 60.548 0.638 7.81 38.61 8.32
6/10/2022 7:15:00 AM 15.85 60.53 0.639 7.82 39.81 8.41
6/10/2022 7:30:00 AM 15.85 60.53 0.638 7.83 40.29 8.52
6/10/2022 7:45:00 AM 15.87 60.566 0.638 7.83 41.42 8.66
6/10/2022 8:00:00 AM 15.9 60.62 0.638 7.85 42.61 8.81
6/10/2022 8:15:00 AM 15.94 60.692 0.638 7.86 41.58 9
6/10/2022 8:30:00 AM 15.99 60.782 0.638 7.88 42.77 9.19
6/10/2022 8:45:00 AM 16.06 60.908 0.638 7.89 45.83 9.37
6/10/2022 9:00:00 AM 16.13 61.034 0.638 7.91 41.58 9.57
6/10/2022 9:15:00 AM 16.21 61.178 0.638 7.93 40.58 9.75
6/10/2022 9:30:00 AM 16.3 61.34 0.638 7.94 41.56 9.96
6/10/2022 9:45:00 AM 16.34 61.412 0.638 7.96 46.51 10.12
6/10/2022 10:00:00 AM 16.36 61.448 0.638